<?xml version='1.0' encoding='UTF-8'?><gpx version="1.1" creator="JPX - https://github.com/jenetics/jpx" xmlns="http://www.topografix.com/GPX/1/1"><trk><trkseg><trkpt lat="42.334858" lon="13.4364506"><ele>593.0</ele><time>2026-04-18T14:36:52.798Z</time></trkpt><trkpt lat="42.3349427" lon="13.4364927"><ele>593.0</ele><time>2026-04-18T14:36:54.796Z</time></trkpt><trkpt lat="42.3350467" lon="13.4364888"><ele>593.0</ele><time>2026-04-18T14:36:56.798Z</time></trkpt><trkpt lat="42.3351067" lon="13.4364583"><ele>593.0</ele><time>2026-04-18T14:36:57.798Z</time></trkpt><trkpt lat="42.335169" lon="13.4364205"><ele>593.0</ele><time>2026-04-18T14:36:58.798Z</time></trkpt><trkpt lat="42.3352308" lon="13.4363906"><ele>593.0</ele><time>2026-04-18T14:36:59.798Z</time></trkpt><trkpt lat="42.3352955" lon="13.4363677"><ele>593.0</ele><time>2026-04-18T14:37:00.798Z</time></trkpt><trkpt lat="42.3353655" lon="13.4363434"><ele>593.0</ele><time>2026-04-18T14:37:01.798Z</time></trkpt><trkpt lat="42.3354346" lon="13.4363211"><ele>593.0</ele><time>2026-04-18T14:37:02.798Z</time></trkpt><trkpt lat="42.3355033" lon="13.4363036"><ele>593.0</ele><time>2026-04-18T14:37:03.798Z</time></trkpt><trkpt lat="42.3355698" lon="13.4362911"><ele>593.0</ele><time>2026-04-18T14:37:04.797Z</time></trkpt><trkpt lat="42.3356334" lon="13.4362787"><ele>593.0</ele><time>2026-04-18T14:37:05.798Z</time></trkpt><trkpt lat="42.3357615" lon="13.4362395"><ele>593.1666666666666</ele><time>2026-04-18T14:37:07.798Z</time></trkpt><trkpt lat="42.3358256" lon="13.4362235"><ele>593.3333333333333</ele><time>2026-04-18T14:37:08.797Z</time></trkpt><trkpt lat="42.3359145" lon="13.4361756"><ele>593.5</ele><time>2026-04-18T14:37:10.797Z</time></trkpt><trkpt lat="42.3359855" lon="13.4361403"><ele>593.6666666666666</ele><time>2026-04-18T14:37:12.797Z</time></trkpt><trkpt lat="42.336051" lon="13.4360902"><ele>593.8333333333334</ele><time>2026-04-18T14:37:14.797Z</time></trkpt><trkpt lat="42.3361088" lon="13.4360461"><ele>594.0</ele><time>2026-04-18T14:37:15.798Z</time></trkpt><trkpt lat="42.3362311" lon="13.4359643"><ele>594.0</ele><time>2026-04-18T14:37:17.798Z</time></trkpt><trkpt lat="42.3363006" lon="13.4359012"><ele>594.0</ele><time>2026-04-18T14:37:18.798Z</time></trkpt><trkpt lat="42.3363704" lon="13.4358318"><ele>594.0</ele><time>2026-04-18T14:37:19.798Z</time></trkpt><trkpt lat="42.3364468" lon="13.4357643"><ele>594.0</ele><time>2026-04-18T14:37:20.797Z</time></trkpt><trkpt lat="42.3365187" lon="13.4357015"><ele>594.0</ele><time>2026-04-18T14:37:21.798Z</time></trkpt><trkpt lat="42.3365897" lon="13.4356284"><ele>594.0</ele><time>2026-04-18T14:37:22.797Z</time></trkpt><trkpt lat="42.3366657" lon="13.4355511"><ele>594.2</ele><time>2026-04-18T14:37:23.797Z</time></trkpt><trkpt lat="42.33674" lon="13.4354766"><ele>594.4</ele><time>2026-04-18T14:37:24.798Z</time></trkpt><trkpt lat="42.336817" lon="13.4353936"><ele>594.6</ele><time>2026-04-18T14:37:25.797Z</time></trkpt><trkpt lat="42.3368927" lon="13.43532"><ele>594.8</ele><time>2026-04-18T14:37:26.798Z</time></trkpt><trkpt lat="42.3369668" lon="13.435241"><ele>595.0</ele><time>2026-04-18T14:37:27.797Z</time></trkpt><trkpt lat="42.3370396" lon="13.4351549"><ele>595.1666666666667</ele><time>2026-04-18T14:37:28.798Z</time></trkpt><trkpt lat="42.3371046" lon="13.4350702"><ele>595.3333333333334</ele><time>2026-04-18T14:37:29.798Z</time></trkpt><trkpt lat="42.3371705" lon="13.4349849"><ele>595.5</ele><time>2026-04-18T14:37:30.797Z</time></trkpt><trkpt lat="42.3372325" lon="13.4349016"><ele>595.6666666666666</ele><time>2026-04-18T14:37:31.798Z</time></trkpt><trkpt lat="42.3372921" lon="13.4348161"><ele>595.8333333333333</ele><time>2026-04-18T14:37:32.798Z</time></trkpt><trkpt lat="42.3373539" lon="13.4347296"><ele>596.0</ele><time>2026-04-18T14:37:33.798Z</time></trkpt><trkpt lat="42.3374155" lon="13.4346433"><ele>598.0</ele><time>2026-04-18T14:37:34.797Z</time></trkpt><trkpt lat="42.3374764" lon="13.4345599"><ele>600.0</ele><time>2026-04-18T14:37:35.797Z</time></trkpt><trkpt lat="42.3375318" lon="13.434472"><ele>602.0</ele><time>2026-04-18T14:37:36.798Z</time></trkpt><trkpt lat="42.3375897" lon="13.4343837"><ele>604.0</ele><time>2026-04-18T14:37:37.798Z</time></trkpt><trkpt lat="42.3376498" lon="13.4342973"><ele>606.0</ele><time>2026-04-18T14:37:38.797Z</time></trkpt><trkpt lat="42.3377127" lon="13.4342084"><ele>608.0</ele><time>2026-04-18T14:37:39.798Z</time></trkpt><trkpt lat="42.3377746" lon="13.4341183"><ele>608.0</ele><time>2026-04-18T14:37:40.798Z</time></trkpt><trkpt lat="42.3378384" lon="13.4340321"><ele>608.0</ele><time>2026-04-18T14:37:41.798Z</time></trkpt><trkpt lat="42.3378995" lon="13.4339416"><ele>608.0</ele><time>2026-04-18T14:37:42.798Z</time></trkpt><trkpt lat="42.3379612" lon="13.433854"><ele>608.0</ele><time>2026-04-18T14:37:43.797Z</time></trkpt><trkpt lat="42.3380214" lon="13.4337674"><ele>608.0</ele><time>2026-04-18T14:37:44.798Z</time></trkpt><trkpt lat="42.3380822" lon="13.4336757"><ele>608.0</ele><time>2026-04-18T14:37:45.798Z</time></trkpt><trkpt lat="42.3381401" lon="13.4335822"><ele>610.8333333333333</ele><time>2026-04-18T14:37:46.798Z</time></trkpt><trkpt lat="42.3381905" lon="13.4334751"><ele>613.6666666666666</ele><time>2026-04-18T14:37:47.797Z</time></trkpt><trkpt lat="42.3382382" lon="13.4333634"><ele>616.5</ele><time>2026-04-18T14:37:48.798Z</time></trkpt><trkpt lat="42.3382878" lon="13.4332541"><ele>619.3333333333334</ele><time>2026-04-18T14:37:49.798Z</time></trkpt><trkpt lat="42.3383218" lon="13.4331612"><ele>622.1666666666667</ele><time>2026-04-18T14:37:50.798Z</time></trkpt><trkpt lat="42.3383553" lon="13.4330729"><ele>625.0</ele><time>2026-04-18T14:37:51.797Z</time></trkpt><trkpt lat="42.3383814" lon="13.4329935"><ele>625.0</ele><time>2026-04-18T14:37:52.798Z</time></trkpt><trkpt lat="42.3384171" lon="13.4328782"><ele>625.0</ele><time>2026-04-18T14:37:54.797Z</time></trkpt><trkpt lat="42.338445" lon="13.4327991"><ele>625.0</ele><time>2026-04-18T14:37:56.798Z</time></trkpt><trkpt lat="42.3384626" lon="13.4327157"><ele>625.0</ele><time>2026-04-18T14:38:00.798Z</time></trkpt><trkpt lat="42.3383963" lon="13.4328118"><ele>625.0</ele><time>2026-04-18T14:38:30.796Z</time></trkpt><trkpt lat="42.3383678" lon="13.4328958"><ele>625.0</ele><time>2026-04-18T14:38:31.797Z</time></trkpt><trkpt lat="42.3383356" lon="13.4329752"><ele>625.0</ele><time>2026-04-18T14:38:32.798Z</time></trkpt><trkpt lat="42.3382835" lon="13.4331051"><ele>625.0</ele><time>2026-04-18T14:38:34.798Z</time></trkpt><trkpt lat="42.338247" lon="13.4331761"><ele>625.0</ele><time>2026-04-18T14:38:37.796Z</time></trkpt><trkpt lat="42.3382225" lon="13.4332554"><ele>625.0</ele><time>2026-04-18T14:39:11.798Z</time></trkpt><trkpt lat="42.3381946" lon="13.4333597"><ele>625.0</ele><time>2026-04-18T14:39:13.797Z</time></trkpt><trkpt lat="42.338138" lon="13.4334846"><ele>625.0</ele><time>2026-04-18T14:39:15.797Z</time></trkpt><trkpt lat="42.3380873" lon="13.4335862"><ele>625.0</ele><time>2026-04-18T14:39:17.798Z</time></trkpt><trkpt lat="42.3380426" lon="13.4336868"><ele>625.0</ele><time>2026-04-18T14:39:19.798Z</time></trkpt><trkpt lat="42.3380433" lon="13.4337881"><ele>625.0</ele><time>2026-04-18T14:39:22.797Z</time></trkpt><trkpt lat="42.3381183" lon="13.433737"><ele>625.0</ele><time>2026-04-18T14:39:25.796Z</time></trkpt><trkpt lat="42.3382038" lon="13.4336506"><ele>625.0</ele><time>2026-04-18T14:39:27.797Z</time></trkpt><trkpt lat="42.3383002" lon="13.4335748"><ele>625.0</ele><time>2026-04-18T14:39:29.796Z</time></trkpt><trkpt lat="42.3384103" lon="13.4334659"><ele>625.0</ele><time>2026-04-18T14:39:31.798Z</time></trkpt><trkpt lat="42.3384685" lon="13.4333991"><ele>625.0</ele><time>2026-04-18T14:39:32.798Z</time></trkpt><trkpt lat="42.338535" lon="13.4333316"><ele>625.0</ele><time>2026-04-18T14:39:33.797Z</time></trkpt><trkpt lat="42.3385949" lon="13.4332744"><ele>625.0</ele><time>2026-04-18T14:39:34.797Z</time></trkpt><trkpt lat="42.3386891" lon="13.4331886"><ele>625.0</ele><time>2026-04-18T14:39:36.797Z</time></trkpt><trkpt lat="42.3387871" lon="13.4331014"><ele>625.0</ele><time>2026-04-18T14:39:38.797Z</time></trkpt><trkpt lat="42.3388464" lon="13.4330722"><ele>625.0</ele><time>2026-04-18T14:39:39.797Z</time></trkpt><trkpt lat="42.3389095" lon="13.4330535"><ele>625.0</ele><time>2026-04-18T14:39:40.798Z</time></trkpt><trkpt lat="42.338978" lon="13.4330215"><ele>625.0</ele><time>2026-04-18T14:39:41.797Z</time></trkpt><trkpt lat="42.3390391" lon="13.4329788"><ele>625.0</ele><time>2026-04-18T14:39:42.796Z</time></trkpt><trkpt lat="42.3391148" lon="13.4329298"><ele>625.8333333333334</ele><time>2026-04-18T14:39:43.797Z</time></trkpt><trkpt lat="42.3391902" lon="13.432874"><ele>626.6666666666667</ele><time>2026-04-18T14:39:44.797Z</time></trkpt><trkpt lat="42.3392705" lon="13.4328226"><ele>627.5</ele><time>2026-04-18T14:39:45.797Z</time></trkpt><trkpt lat="42.339342" lon="13.4327836"><ele>628.3333333333334</ele><time>2026-04-18T14:39:46.797Z</time></trkpt><trkpt lat="42.3394182" lon="13.4327395"><ele>629.1666666666666</ele><time>2026-04-18T14:39:47.797Z</time></trkpt><trkpt lat="42.339494" lon="13.4326951"><ele>630.0</ele><time>2026-04-18T14:39:48.796Z</time></trkpt><trkpt lat="42.3395752" lon="13.4326529"><ele>630.0</ele><time>2026-04-18T14:39:49.797Z</time></trkpt><trkpt lat="42.339649" lon="13.4326119"><ele>630.0</ele><time>2026-04-18T14:39:50.797Z</time></trkpt><trkpt lat="42.3397204" lon="13.4325741"><ele>630.0</ele><time>2026-04-18T14:39:51.797Z</time></trkpt><trkpt lat="42.339787" lon="13.4325406"><ele>630.0</ele><time>2026-04-18T14:39:52.797Z</time></trkpt><trkpt lat="42.3398604" lon="13.4325212"><ele>630.0</ele><time>2026-04-18T14:39:53.798Z</time></trkpt><trkpt lat="42.3399372" lon="13.4324883"><ele>630.0</ele><time>2026-04-18T14:39:54.797Z</time></trkpt><trkpt lat="42.3400192" lon="13.4324598"><ele>630.1666666666666</ele><time>2026-04-18T14:39:55.797Z</time></trkpt><trkpt lat="42.3401024" lon="13.4324289"><ele>630.3333333333334</ele><time>2026-04-18T14:39:56.797Z</time></trkpt><trkpt lat="42.3401854" lon="13.4323942"><ele>630.5</ele><time>2026-04-18T14:39:57.797Z</time></trkpt><trkpt lat="42.3402594" lon="13.4323604"><ele>630.6666666666667</ele><time>2026-04-18T14:39:58.797Z</time></trkpt><trkpt lat="42.3403184" lon="13.4323286"><ele>630.8333333333334</ele><time>2026-04-18T14:39:59.798Z</time></trkpt><trkpt lat="42.3404294" lon="13.4322709"><ele>631.0</ele><time>2026-04-18T14:40:01.797Z</time></trkpt><trkpt lat="42.3405517" lon="13.4322663"><ele>631.4285714285714</ele><time>2026-04-18T14:40:03.796Z</time></trkpt><trkpt lat="42.3406152" lon="13.4322748"><ele>631.8571428571428</ele><time>2026-04-18T14:40:04.797Z</time></trkpt><trkpt lat="42.3406879" lon="13.432288"><ele>632.2857142857142</ele><time>2026-04-18T14:40:05.798Z</time></trkpt><trkpt lat="42.3407626" lon="13.432303"><ele>632.7142857142858</ele><time>2026-04-18T14:40:06.796Z</time></trkpt><trkpt lat="42.3408398" lon="13.4323122"><ele>633.1428571428571</ele><time>2026-04-18T14:40:07.798Z</time></trkpt><trkpt lat="42.340919" lon="13.4323156"><ele>633.5714285714286</ele><time>2026-04-18T14:40:08.798Z</time></trkpt><trkpt lat="42.3409978" lon="13.4323178"><ele>634.0</ele><time>2026-04-18T14:40:09.797Z</time></trkpt><trkpt lat="42.3410762" lon="13.4323196"><ele>634.0</ele><time>2026-04-18T14:40:10.796Z</time></trkpt><trkpt lat="42.341155" lon="13.4323249"><ele>634.0</ele><time>2026-04-18T14:40:11.797Z</time></trkpt><trkpt lat="42.3412305" lon="13.4323246"><ele>634.0</ele><time>2026-04-18T14:40:12.797Z</time></trkpt><trkpt lat="42.3413047" lon="13.4323302"><ele>634.0</ele><time>2026-04-18T14:40:13.797Z</time></trkpt><trkpt lat="42.3414202" lon="13.4323261"><ele>634.0</ele><time>2026-04-18T14:40:15.797Z</time></trkpt><trkpt lat="42.3415352" lon="13.4323232"><ele>636.0</ele><time>2026-04-18T14:40:17.796Z</time></trkpt><trkpt lat="42.3416579" lon="13.432318"><ele>638.0</ele><time>2026-04-18T14:40:19.798Z</time></trkpt><trkpt lat="42.3417229" lon="13.4323078"><ele>640.0</ele><time>2026-04-18T14:40:20.797Z</time></trkpt><trkpt lat="42.3417903" lon="13.4323005"><ele>642.0</ele><time>2026-04-18T14:40:21.797Z</time></trkpt><trkpt lat="42.3418545" lon="13.4323"><ele>644.0</ele><time>2026-04-18T14:40:22.797Z</time></trkpt><trkpt lat="42.3419708" lon="13.4323051"><ele>646.0</ele><time>2026-04-18T14:40:24.796Z</time></trkpt><trkpt lat="42.3420933" lon="13.4323036"><ele>646.0</ele><time>2026-04-18T14:40:26.796Z</time></trkpt><trkpt lat="42.3422044" lon="13.4323058"><ele>646.0</ele><time>2026-04-18T14:40:28.797Z</time></trkpt><trkpt lat="42.3423163" lon="13.4323362"><ele>662.0</ele><time>2026-04-18T14:40:30.797Z</time></trkpt><trkpt lat="42.3423843" lon="13.4323991"><ele>662.0</ele><time>2026-04-18T14:40:33.797Z</time></trkpt></trkseg><trkseg><trkpt lat="42.3584826" lon="13.4712774"><ele>658.0</ele><time>2026-04-18T14:54:27.794Z</time></trkpt><trkpt lat="42.3585558" lon="13.4713567"><ele>658.0</ele><time>2026-04-18T14:54:29.794Z</time></trkpt><trkpt lat="42.3586282" lon="13.4714669"><ele>658.0</ele><time>2026-04-18T14:54:31.795Z</time></trkpt><trkpt lat="42.3586804" lon="13.4715667"><ele>658.0</ele><time>2026-04-18T14:54:33.795Z</time></trkpt><trkpt lat="42.3586884" lon="13.4716715"><ele>658.0</ele><time>2026-04-18T14:54:36.795Z</time></trkpt><trkpt lat="42.3586965" lon="13.471773"><ele>658.0</ele><time>2026-04-18T14:54:50.795Z</time></trkpt><trkpt lat="42.358633" lon="13.4718335"><ele>658.0</ele><time>2026-04-18T14:54:52.794Z</time></trkpt><trkpt lat="42.3585464" lon="13.471906"><ele>658.0</ele><time>2026-04-18T14:54:54.795Z</time></trkpt><trkpt lat="42.3584734" lon="13.4719776"><ele>658.0</ele><time>2026-04-18T14:54:56.795Z</time></trkpt><trkpt lat="42.3584135" lon="13.4720506"><ele>658.0</ele><time>2026-04-18T14:54:58.795Z</time></trkpt><trkpt lat="42.3583601" lon="13.472121"><ele>658.0</ele><time>2026-04-18T14:55:00.794Z</time></trkpt><trkpt lat="42.3583121" lon="13.4722008"><ele>658.0</ele><time>2026-04-18T14:55:02.794Z</time></trkpt><trkpt lat="42.3582579" lon="13.472276"><ele>657.5</ele><time>2026-04-18T14:55:04.795Z</time></trkpt><trkpt lat="42.358217" lon="13.4723506"><ele>657.0</ele><time>2026-04-18T14:55:06.794Z</time></trkpt><trkpt lat="42.3581721" lon="13.4724283"><ele>656.5</ele><time>2026-04-18T14:55:08.795Z</time></trkpt><trkpt lat="42.3581245" lon="13.4725091"><ele>656.0</ele><time>2026-04-18T14:55:10.795Z</time></trkpt><trkpt lat="42.3580651" lon="13.4726112"><ele>655.5</ele><time>2026-04-18T14:55:12.795Z</time></trkpt><trkpt lat="42.3579901" lon="13.4727457"><ele>655.0</ele><time>2026-04-18T14:55:14.795Z</time></trkpt><trkpt lat="42.3579454" lon="13.4728151"><ele>655.0</ele><time>2026-04-18T14:55:15.795Z</time></trkpt><trkpt lat="42.3578638" lon="13.4729238"><ele>655.0</ele><time>2026-04-18T14:55:17.795Z</time></trkpt><trkpt lat="42.3577964" lon="13.473004"><ele>655.0</ele><time>2026-04-18T14:55:19.795Z</time></trkpt><trkpt lat="42.3577305" lon="13.4730881"><ele>655.0</ele><time>2026-04-18T14:55:21.795Z</time></trkpt><trkpt lat="42.3576604" lon="13.4732005"><ele>655.0</ele><time>2026-04-18T14:55:23.794Z</time></trkpt><trkpt lat="42.357593" lon="13.4733124"><ele>655.6</ele><time>2026-04-18T14:55:25.794Z</time></trkpt><trkpt lat="42.3575374" lon="13.4733888"><ele>656.2</ele><time>2026-04-18T14:55:27.796Z</time></trkpt><trkpt lat="42.3574758" lon="13.4734608"><ele>656.8</ele><time>2026-04-18T14:55:29.795Z</time></trkpt><trkpt lat="42.3574001" lon="13.473573"><ele>657.4</ele><time>2026-04-18T14:55:31.795Z</time></trkpt><trkpt lat="42.3573527" lon="13.4736373"><ele>658.0</ele><time>2026-04-18T14:55:32.794Z</time></trkpt><trkpt lat="42.3572705" lon="13.4737477"><ele>657.7142857142857</ele><time>2026-04-18T14:55:34.795Z</time></trkpt><trkpt lat="42.3572286" lon="13.4738154"><ele>657.4285714285714</ele><time>2026-04-18T14:55:35.794Z</time></trkpt><trkpt lat="42.3571838" lon="13.4738779"><ele>657.1428571428571</ele><time>2026-04-18T14:55:36.794Z</time></trkpt><trkpt lat="42.3571347" lon="13.4739533"><ele>656.8571428571429</ele><time>2026-04-18T14:55:37.795Z</time></trkpt><trkpt lat="42.3570842" lon="13.4740302"><ele>656.5714285714286</ele><time>2026-04-18T14:55:38.795Z</time></trkpt><trkpt lat="42.3570331" lon="13.4741047"><ele>656.2857142857142</ele><time>2026-04-18T14:55:39.794Z</time></trkpt><trkpt lat="42.3569815" lon="13.4741678"><ele>656.0</ele><time>2026-04-18T14:55:40.795Z</time></trkpt><trkpt lat="42.3569133" lon="13.4742517"><ele>656.0</ele><time>2026-04-18T14:55:42.795Z</time></trkpt><trkpt lat="42.3568623" lon="13.4743226"><ele>656.0</ele><time>2026-04-18T14:55:48.793Z</time></trkpt><trkpt lat="42.3568488" lon="13.4744114"><ele>656.0</ele><time>2026-04-18T14:55:51.795Z</time></trkpt><trkpt lat="42.3569094" lon="13.4745603"><ele>656.0</ele><time>2026-04-18T14:55:53.794Z</time></trkpt><trkpt lat="42.3569517" lon="13.4746483"><ele>656.0</ele><time>2026-04-18T14:55:54.795Z</time></trkpt><trkpt lat="42.3569921" lon="13.4747484"><ele>656.0</ele><time>2026-04-18T14:55:55.795Z</time></trkpt><trkpt lat="42.3570233" lon="13.4748464"><ele>657.5</ele><time>2026-04-18T14:55:56.794Z</time></trkpt><trkpt lat="42.3570582" lon="13.4749588"><ele>659.0</ele><time>2026-04-18T14:55:57.794Z</time></trkpt><trkpt lat="42.3570938" lon="13.4750692"><ele>660.5</ele><time>2026-04-18T14:55:58.795Z</time></trkpt><trkpt lat="42.3571228" lon="13.4751789"><ele>662.0</ele><time>2026-04-18T14:55:59.795Z</time></trkpt><trkpt lat="42.3571518" lon="13.4752855"><ele>663.5</ele><time>2026-04-18T14:56:00.795Z</time></trkpt><trkpt lat="42.357177" lon="13.4753957"><ele>665.0</ele><time>2026-04-18T14:56:01.794Z</time></trkpt><trkpt lat="42.3572063" lon="13.4755016"><ele>666.8333333333333</ele><time>2026-04-18T14:56:02.795Z</time></trkpt><trkpt lat="42.3572293" lon="13.475613"><ele>668.6666666666666</ele><time>2026-04-18T14:56:03.795Z</time></trkpt><trkpt lat="42.3572571" lon="13.4757262"><ele>670.5</ele><time>2026-04-18T14:56:04.795Z</time></trkpt><trkpt lat="42.3572708" lon="13.4758431"><ele>672.3333333333334</ele><time>2026-04-18T14:56:05.794Z</time></trkpt><trkpt lat="42.3572834" lon="13.4759561"><ele>674.1666666666667</ele><time>2026-04-18T14:56:06.795Z</time></trkpt><trkpt lat="42.3572651" lon="13.4760674"><ele>676.0</ele><time>2026-04-18T14:56:07.793Z</time></trkpt><trkpt lat="42.3572616" lon="13.4761866"><ele>677.1666666666667</ele><time>2026-04-18T14:56:08.794Z</time></trkpt><trkpt lat="42.3572527" lon="13.4763019"><ele>678.3333333333334</ele><time>2026-04-18T14:56:09.795Z</time></trkpt><trkpt lat="42.3572555" lon="13.476412"><ele>679.5</ele><time>2026-04-18T14:56:10.795Z</time></trkpt><trkpt lat="42.3572585" lon="13.4765316"><ele>680.6666666666666</ele><time>2026-04-18T14:56:11.795Z</time></trkpt><trkpt lat="42.3572693" lon="13.4766351"><ele>681.8333333333333</ele><time>2026-04-18T14:56:12.795Z</time></trkpt><trkpt lat="42.3572793" lon="13.4767421"><ele>683.0</ele><time>2026-04-18T14:56:13.795Z</time></trkpt><trkpt lat="42.3572867" lon="13.4768634"><ele>683.0</ele><time>2026-04-18T14:56:14.795Z</time></trkpt><trkpt lat="42.3572953" lon="13.4769829"><ele>683.0</ele><time>2026-04-18T14:56:15.795Z</time></trkpt><trkpt lat="42.3573015" lon="13.4770876"><ele>683.0</ele><time>2026-04-18T14:56:16.795Z</time></trkpt><trkpt lat="42.3573184" lon="13.4771921"><ele>683.0</ele><time>2026-04-18T14:56:17.795Z</time></trkpt><trkpt lat="42.3573372" lon="13.4772967"><ele>683.0</ele><time>2026-04-18T14:56:18.794Z</time></trkpt><trkpt lat="42.3573637" lon="13.4773857"><ele>683.0</ele><time>2026-04-18T14:56:19.795Z</time></trkpt><trkpt lat="42.3573966" lon="13.4775043"><ele>684.0</ele><time>2026-04-18T14:56:21.795Z</time></trkpt><trkpt lat="42.3573394" lon="13.4775723"><ele>685.0</ele><time>2026-04-18T14:56:45.794Z</time></trkpt><trkpt lat="42.3573408" lon="13.4776655"><ele>686.0</ele><time>2026-04-18T14:56:47.795Z</time></trkpt><trkpt lat="42.3573684" lon="13.4777969"><ele>687.0</ele><time>2026-04-18T14:56:49.795Z</time></trkpt><trkpt lat="42.3573821" lon="13.4778823"><ele>688.0</ele><time>2026-04-18T14:56:50.794Z</time></trkpt><trkpt lat="42.3574013" lon="13.4779734"><ele>689.0</ele><time>2026-04-18T14:56:51.795Z</time></trkpt><trkpt lat="42.3574261" lon="13.4780751"><ele>690.3333333333333</ele><time>2026-04-18T14:56:52.795Z</time></trkpt><trkpt lat="42.3574488" lon="13.478171"><ele>691.6666666666666</ele><time>2026-04-18T14:56:53.794Z</time></trkpt><trkpt lat="42.3574743" lon="13.4782569"><ele>693.0</ele><time>2026-04-18T14:56:54.793Z</time></trkpt><trkpt lat="42.357501" lon="13.4783656"><ele>694.3333333333334</ele><time>2026-04-18T14:56:55.794Z</time></trkpt><trkpt lat="42.3575315" lon="13.4784533"><ele>695.6666666666667</ele><time>2026-04-18T14:56:56.794Z</time></trkpt><trkpt lat="42.3575625" lon="13.4785891"><ele>697.0</ele><time>2026-04-18T14:56:58.794Z</time></trkpt><trkpt lat="42.3575889" lon="13.4787274"><ele>698.8</ele><time>2026-04-18T14:57:00.794Z</time></trkpt><trkpt lat="42.3576127" lon="13.4788855"><ele>700.6</ele><time>2026-04-18T14:57:02.795Z</time></trkpt><trkpt lat="42.3576252" lon="13.4789714"><ele>702.4</ele><time>2026-04-18T14:57:03.793Z</time></trkpt><trkpt lat="42.3576505" lon="13.4791253"><ele>704.1999999999999</ele><time>2026-04-18T14:57:05.795Z</time></trkpt><trkpt lat="42.3576647" lon="13.4792656"><ele>706.0</ele><time>2026-04-18T14:57:07.794Z</time></trkpt><trkpt lat="42.3576756" lon="13.4794249"><ele>706.0</ele><time>2026-04-18T14:57:09.794Z</time></trkpt><trkpt lat="42.3576976" lon="13.4795811"><ele>706.0</ele><time>2026-04-18T14:57:11.794Z</time></trkpt><trkpt lat="42.3577143" lon="13.4797321"><ele>706.0</ele><time>2026-04-18T14:57:13.795Z</time></trkpt><trkpt lat="42.3577366" lon="13.4798927"><ele>706.0</ele><time>2026-04-18T14:57:15.795Z</time></trkpt><trkpt lat="42.3577653" lon="13.4800488"><ele>707.8</ele><time>2026-04-18T14:57:17.794Z</time></trkpt><trkpt lat="42.357784" lon="13.4802004"><ele>709.5999999999999</ele><time>2026-04-18T14:57:19.795Z</time></trkpt><trkpt lat="42.3577605" lon="13.4803544"><ele>711.4</ele><time>2026-04-18T14:57:21.795Z</time></trkpt><trkpt lat="42.3577293" lon="13.4805114"><ele>713.2</ele><time>2026-04-18T14:57:23.795Z</time></trkpt><trkpt lat="42.3577019" lon="13.4806095"><ele>715.0</ele><time>2026-04-18T14:57:25.795Z</time></trkpt><trkpt lat="42.3577015" lon="13.4807052"><ele>716.6</ele><time>2026-04-18T14:57:47.795Z</time></trkpt><trkpt lat="42.3577193" lon="13.4808429"><ele>718.2</ele><time>2026-04-18T14:57:49.794Z</time></trkpt><trkpt lat="42.3577384" lon="13.4809504"><ele>719.8</ele><time>2026-04-18T14:57:51.793Z</time></trkpt><trkpt lat="42.3577544" lon="13.481033"><ele>721.4</ele><time>2026-04-18T14:57:53.793Z</time></trkpt><trkpt lat="42.3577634" lon="13.4811564"><ele>723.0</ele><time>2026-04-18T14:57:55.796Z</time></trkpt><trkpt lat="42.3577491" lon="13.4813279"><ele>724.6666666666666</ele><time>2026-04-18T14:57:57.795Z</time></trkpt><trkpt lat="42.3577464" lon="13.4814182"><ele>726.3333333333334</ele><time>2026-04-18T14:57:58.795Z</time></trkpt><trkpt lat="42.3577465" lon="13.4815079"><ele>728.0</ele><time>2026-04-18T14:57:59.795Z</time></trkpt><trkpt lat="42.3577383" lon="13.4816032"><ele>729.6666666666667</ele><time>2026-04-18T14:58:00.794Z</time></trkpt><trkpt lat="42.3577269" lon="13.4817004"><ele>731.3333333333334</ele><time>2026-04-18T14:58:01.795Z</time></trkpt><trkpt lat="42.357696" lon="13.4818388"><ele>733.0</ele><time>2026-04-18T14:58:03.794Z</time></trkpt><trkpt lat="42.3576718" lon="13.4819388"><ele>733.0</ele><time>2026-04-18T14:58:04.795Z</time></trkpt><trkpt lat="42.3576532" lon="13.4820352"><ele>733.0</ele><time>2026-04-18T14:58:05.795Z</time></trkpt><trkpt lat="42.357622" lon="13.482136"><ele>733.0</ele><time>2026-04-18T14:58:06.794Z</time></trkpt><trkpt lat="42.3576051" lon="13.4822306"><ele>733.0</ele><time>2026-04-18T14:58:07.795Z</time></trkpt><trkpt lat="42.3575954" lon="13.4823156"><ele>733.0</ele><time>2026-04-18T14:58:08.794Z</time></trkpt><trkpt lat="42.3575863" lon="13.482457"><ele>733.0</ele><time>2026-04-18T14:58:10.795Z</time></trkpt><trkpt lat="42.3575957" lon="13.4826125"><ele>734.6666666666667</ele><time>2026-04-18T14:58:12.794Z</time></trkpt><trkpt lat="42.3576202" lon="13.4827683"><ele>736.3333333333334</ele><time>2026-04-18T14:58:14.794Z</time></trkpt><trkpt lat="42.3576232" lon="13.4828581"><ele>738.0</ele><time>2026-04-18T14:58:15.794Z</time></trkpt><trkpt lat="42.3576293" lon="13.4829435"><ele>739.6666666666666</ele><time>2026-04-18T14:58:16.794Z</time></trkpt><trkpt lat="42.3576334" lon="13.4830412"><ele>741.3333333333333</ele><time>2026-04-18T14:58:17.795Z</time></trkpt><trkpt lat="42.3576388" lon="13.4831284"><ele>743.0</ele><time>2026-04-18T14:58:18.795Z</time></trkpt><trkpt lat="42.3576547" lon="13.483297"><ele>744.1666666666666</ele><time>2026-04-18T14:58:20.794Z</time></trkpt><trkpt lat="42.3576745" lon="13.4834342"><ele>745.3333333333333</ele><time>2026-04-18T14:58:22.795Z</time></trkpt><trkpt lat="42.3576829" lon="13.4835565"><ele>746.5</ele><time>2026-04-18T14:58:24.794Z</time></trkpt><trkpt lat="42.3576887" lon="13.4836668"><ele>747.6666666666666</ele><time>2026-04-18T14:58:26.795Z</time></trkpt><trkpt lat="42.3577442" lon="13.4837075"><ele>748.8333333333334</ele><time>2026-04-18T14:58:37.795Z</time></trkpt><trkpt lat="42.3578076" lon="13.483723"><ele>750.0</ele><time>2026-04-18T14:58:39.794Z</time></trkpt><trkpt lat="42.3579066" lon="13.4837743"><ele>750.8</ele><time>2026-04-18T14:58:41.795Z</time></trkpt><trkpt lat="42.3579692" lon="13.483805"><ele>751.6</ele><time>2026-04-18T14:58:42.794Z</time></trkpt><trkpt lat="42.3580834" lon="13.4838743"><ele>752.4000000000001</ele><time>2026-04-18T14:58:44.795Z</time></trkpt><trkpt lat="42.358189" lon="13.4839288"><ele>753.2</ele><time>2026-04-18T14:58:46.793Z</time></trkpt><trkpt lat="42.3582964" lon="13.4839876"><ele>754.0</ele><time>2026-04-18T14:58:48.795Z</time></trkpt><trkpt lat="42.3584198" lon="13.4840589"><ele>756.1666666666667</ele><time>2026-04-18T14:58:50.793Z</time></trkpt><trkpt lat="42.3584821" lon="13.484094"><ele>758.3333333333334</ele><time>2026-04-18T14:58:51.794Z</time></trkpt><trkpt lat="42.3585575" lon="13.4841331"><ele>760.5</ele><time>2026-04-18T14:58:52.793Z</time></trkpt><trkpt lat="42.3586241" lon="13.4841646"><ele>762.6666666666666</ele><time>2026-04-18T14:58:53.794Z</time></trkpt><trkpt lat="42.358697" lon="13.4841933"><ele>764.8333333333333</ele><time>2026-04-18T14:58:54.795Z</time></trkpt><trkpt lat="42.3588103" lon="13.4842407"><ele>767.0</ele><time>2026-04-18T14:58:56.794Z</time></trkpt><trkpt lat="42.3589297" lon="13.4843009"><ele>770.5</ele><time>2026-04-18T14:58:58.793Z</time></trkpt><trkpt lat="42.3590103" lon="13.4843967"><ele>774.0</ele><time>2026-04-18T14:59:00.793Z</time></trkpt><trkpt lat="42.3590622" lon="13.4844571"><ele>777.5</ele><time>2026-04-18T14:59:01.795Z</time></trkpt><trkpt lat="42.3591387" lon="13.4845842"><ele>781.0</ele><time>2026-04-18T14:59:03.795Z</time></trkpt><trkpt lat="42.3591875" lon="13.4846533"><ele>784.5000000000001</ele><time>2026-04-18T14:59:04.795Z</time></trkpt><trkpt lat="42.3592345" lon="13.4847409"><ele>788.0</ele><time>2026-04-18T14:59:05.794Z</time></trkpt><trkpt lat="42.359282" lon="13.4848362"><ele>788.0000000000001</ele><time>2026-04-18T14:59:06.793Z</time></trkpt><trkpt lat="42.3593255" lon="13.484953"><ele>788.0</ele><time>2026-04-18T14:59:07.794Z</time></trkpt><trkpt lat="42.3593566" lon="13.4850728"><ele>788.0</ele><time>2026-04-18T14:59:08.795Z</time></trkpt><trkpt lat="42.3593861" lon="13.485166"><ele>788.0</ele><time>2026-04-18T14:59:09.794Z</time></trkpt><trkpt lat="42.3594214" lon="13.485253"><ele>788.0000000000001</ele><time>2026-04-18T14:59:10.794Z</time></trkpt><trkpt lat="42.3594347" lon="13.4853426"><ele>788.0</ele><time>2026-04-18T14:59:11.794Z</time></trkpt><trkpt lat="42.3594436" lon="13.4854354"><ele>788.4285714285714</ele><time>2026-04-18T14:59:12.794Z</time></trkpt><trkpt lat="42.3594571" lon="13.4855215"><ele>788.8571428571429</ele><time>2026-04-18T14:59:13.794Z</time></trkpt><trkpt lat="42.3594628" lon="13.4856445"><ele>789.2857142857142</ele><time>2026-04-18T14:59:15.794Z</time></trkpt><trkpt lat="42.3595276" lon="13.4856703"><ele>789.7142857142858</ele><time>2026-04-18T14:59:16.794Z</time></trkpt><trkpt lat="42.359583" lon="13.4857168"><ele>790.1428571428571</ele><time>2026-04-18T14:59:17.794Z</time></trkpt><trkpt lat="42.3596401" lon="13.4858048"><ele>790.5714285714286</ele><time>2026-04-18T14:59:18.795Z</time></trkpt><trkpt lat="42.3596897" lon="13.4858765"><ele>791.0</ele><time>2026-04-18T14:59:19.794Z</time></trkpt><trkpt lat="42.3597291" lon="13.4859614"><ele>793.6666666666667</ele><time>2026-04-18T14:59:20.794Z</time></trkpt><trkpt lat="42.3597692" lon="13.4860319"><ele>796.3333333333334</ele><time>2026-04-18T14:59:21.794Z</time></trkpt><trkpt lat="42.359833" lon="13.4861483"><ele>799.0</ele><time>2026-04-18T14:59:23.793Z</time></trkpt><trkpt lat="42.3598664" lon="13.486232"><ele>801.6666666666667</ele><time>2026-04-18T14:59:24.794Z</time></trkpt><trkpt lat="42.359935" lon="13.4863721"><ele>804.3333333333334</ele><time>2026-04-18T14:59:26.793Z</time></trkpt><trkpt lat="42.3599762" lon="13.4864419"><ele>807.0</ele><time>2026-04-18T14:59:27.795Z</time></trkpt><trkpt lat="42.360028" lon="13.4864961"><ele>807.6666666666666</ele><time>2026-04-18T14:59:28.793Z</time></trkpt><trkpt lat="42.3600775" lon="13.4865515"><ele>808.3333333333333</ele><time>2026-04-18T14:59:29.794Z</time></trkpt><trkpt lat="42.3601307" lon="13.4866109"><ele>809.0</ele><time>2026-04-18T14:59:30.794Z</time></trkpt><trkpt lat="42.3601903" lon="13.4866613"><ele>809.6666666666666</ele><time>2026-04-18T14:59:31.794Z</time></trkpt><trkpt lat="42.360236" lon="13.4867299"><ele>810.3333333333333</ele><time>2026-04-18T14:59:32.794Z</time></trkpt><trkpt lat="42.3602948" lon="13.4868537"><ele>811.0</ele><time>2026-04-18T14:59:34.795Z</time></trkpt><trkpt lat="42.3603749" lon="13.4869779"><ele>810.9999999999999</ele><time>2026-04-18T14:59:36.794Z</time></trkpt><trkpt lat="42.3604275" lon="13.4870416"><ele>811.0</ele><time>2026-04-18T14:59:37.795Z</time></trkpt><trkpt lat="42.3604913" lon="13.4870989"><ele>811.0</ele><time>2026-04-18T14:59:38.795Z</time></trkpt><trkpt lat="42.3605547" lon="13.4871601"><ele>811.0</ele><time>2026-04-18T14:59:39.795Z</time></trkpt><trkpt lat="42.360624" lon="13.4872252"><ele>810.9999999999999</ele><time>2026-04-18T14:59:40.794Z</time></trkpt><trkpt lat="42.3606848" lon="13.4872893"><ele>811.0</ele><time>2026-04-18T14:59:41.794Z</time></trkpt><trkpt lat="42.3607409" lon="13.4873556"><ele>814.4999999999999</ele><time>2026-04-18T14:59:42.794Z</time></trkpt><trkpt lat="42.3607895" lon="13.4874186"><ele>818.0</ele><time>2026-04-18T14:59:43.794Z</time></trkpt><trkpt lat="42.3608308" lon="13.4874834"><ele>821.5</ele><time>2026-04-18T14:59:44.794Z</time></trkpt><trkpt lat="42.360879" lon="13.4875481"><ele>825.0</ele><time>2026-04-18T14:59:45.795Z</time></trkpt><trkpt lat="42.3609704" lon="13.4876567"><ele>828.4999999999999</ele><time>2026-04-18T14:59:47.793Z</time></trkpt><trkpt lat="42.3610531" lon="13.4877132"><ele>832.0</ele><time>2026-04-18T14:59:49.795Z</time></trkpt><trkpt lat="42.3611452" lon="13.4877329"><ele>832.0</ele><time>2026-04-18T14:59:51.794Z</time></trkpt><trkpt lat="42.3612379" lon="13.4876826"><ele>832.0</ele><time>2026-04-18T14:59:53.794Z</time></trkpt><trkpt lat="42.3613444" lon="13.4876507"><ele>832.0</ele><time>2026-04-18T14:59:55.794Z</time></trkpt><trkpt lat="42.3614445" lon="13.4876413"><ele>832.0</ele><time>2026-04-18T14:59:57.793Z</time></trkpt><trkpt lat="42.3615677" lon="13.4876616"><ele>832.0</ele><time>2026-04-18T14:59:59.793Z</time></trkpt><trkpt lat="42.3616317" lon="13.4876602"><ele>834.4000000000001</ele><time>2026-04-18T15:00:00.794Z</time></trkpt><trkpt lat="42.3617602" lon="13.4876761"><ele>836.8000000000001</ele><time>2026-04-18T15:00:02.793Z</time></trkpt><trkpt lat="42.3618249" lon="13.4876839"><ele>839.2</ele><time>2026-04-18T15:00:03.794Z</time></trkpt><trkpt lat="42.3619241" lon="13.4877122"><ele>841.6</ele><time>2026-04-18T15:00:05.794Z</time></trkpt><trkpt lat="42.3620508" lon="13.4877154"><ele>844.0</ele><time>2026-04-18T15:00:07.793Z</time></trkpt><trkpt lat="42.3621201" lon="13.4876976"><ele>844.0</ele><time>2026-04-18T15:00:08.794Z</time></trkpt><trkpt lat="42.3621889" lon="13.4876805"><ele>844.0</ele><time>2026-04-18T15:00:09.793Z</time></trkpt><trkpt lat="42.3623237" lon="13.4876633"><ele>844.0</ele><time>2026-04-18T15:00:11.794Z</time></trkpt><trkpt lat="42.3623996" lon="13.4876493"><ele>844.0</ele><time>2026-04-18T15:00:12.793Z</time></trkpt><trkpt lat="42.3624639" lon="13.4876383"><ele>844.0</ele><time>2026-04-18T15:00:13.795Z</time></trkpt><trkpt lat="42.3625698" lon="13.4876374"><ele>845.4999999999999</ele><time>2026-04-18T15:00:15.794Z</time></trkpt><trkpt lat="42.3626609" lon="13.4876164"><ele>847.0</ele><time>2026-04-18T15:00:17.794Z</time></trkpt><trkpt lat="42.3627477" lon="13.4876042"><ele>848.5</ele><time>2026-04-18T15:00:19.793Z</time></trkpt><trkpt lat="42.3628206" lon="13.487578"><ele>850.0</ele><time>2026-04-18T15:00:22.794Z</time></trkpt><trkpt lat="42.3628919" lon="13.4875648"><ele>851.4999999999999</ele><time>2026-04-18T15:01:15.794Z</time></trkpt><trkpt lat="42.3629797" lon="13.4875415"><ele>853.0</ele><time>2026-04-18T15:01:18.793Z</time></trkpt><trkpt lat="42.3630451" lon="13.4875126"><ele>856.2</ele><time>2026-04-18T15:01:19.793Z</time></trkpt><trkpt lat="42.36316" lon="13.4874993"><ele>859.4</ele><time>2026-04-18T15:01:21.794Z</time></trkpt><trkpt lat="42.3632644" lon="13.4874844"><ele>862.6000000000001</ele><time>2026-04-18T15:01:23.793Z</time></trkpt><trkpt lat="42.3633407" lon="13.4874688"><ele>865.8000000000001</ele><time>2026-04-18T15:01:25.794Z</time></trkpt><trkpt lat="42.3634316" lon="13.4873716"><ele>869.0</ele><time>2026-04-18T15:01:27.794Z</time></trkpt><trkpt lat="42.3634929" lon="13.4872742"><ele>869.0000000000001</ele><time>2026-04-18T15:01:28.794Z</time></trkpt><trkpt lat="42.3635557" lon="13.4872005"><ele>869.0</ele><time>2026-04-18T15:01:29.793Z</time></trkpt><trkpt lat="42.363609" lon="13.4871015"><ele>869.0</ele><time>2026-04-18T15:01:30.794Z</time></trkpt><trkpt lat="42.363654" lon="13.4870164"><ele>869.0</ele><time>2026-04-18T15:01:31.793Z</time></trkpt><trkpt lat="42.3636952" lon="13.4869433"><ele>869.0000000000001</ele><time>2026-04-18T15:01:32.794Z</time></trkpt><trkpt lat="42.3637367" lon="13.4868606"><ele>869.0</ele><time>2026-04-18T15:01:33.794Z</time></trkpt><trkpt lat="42.3637848" lon="13.486779"><ele>872.4000000000001</ele><time>2026-04-18T15:01:34.794Z</time></trkpt><trkpt lat="42.3638921" lon="13.4866854"><ele>875.8000000000001</ele><time>2026-04-18T15:01:36.794Z</time></trkpt><trkpt lat="42.3639351" lon="13.4866078"><ele>879.1999999999999</ele><time>2026-04-18T15:01:37.793Z</time></trkpt><trkpt lat="42.3640282" lon="13.4864874"><ele>882.5999999999999</ele><time>2026-04-18T15:01:39.794Z</time></trkpt><trkpt lat="42.3640849" lon="13.4864462"><ele>886.0</ele><time>2026-04-18T15:01:40.794Z</time></trkpt><trkpt lat="42.3641744" lon="13.4863739"><ele>886.0</ele><time>2026-04-18T15:01:42.794Z</time></trkpt><trkpt lat="42.3642273" lon="13.4863204"><ele>885.9999999999999</ele><time>2026-04-18T15:01:44.793Z</time></trkpt><trkpt lat="42.3643155" lon="13.4862054"><ele>885.9999999999999</ele><time>2026-04-18T15:01:53.794Z</time></trkpt><trkpt lat="42.364341" lon="13.4861137"><ele>886.0</ele><time>2026-04-18T15:01:55.793Z</time></trkpt><trkpt lat="42.3643351" lon="13.4860167"><ele>886.0</ele><time>2026-04-18T15:01:56.794Z</time></trkpt><trkpt lat="42.3643681" lon="13.4858489"><ele>884.1666666666666</ele><time>2026-04-18T15:01:58.794Z</time></trkpt><trkpt lat="42.3643929" lon="13.4857569"><ele>882.3333333333333</ele><time>2026-04-18T15:01:59.794Z</time></trkpt><trkpt lat="42.3644379" lon="13.485634"><ele>880.5</ele><time>2026-04-18T15:02:01.794Z</time></trkpt><trkpt lat="42.364471" lon="13.4855322"><ele>878.6666666666667</ele><time>2026-04-18T15:02:03.793Z</time></trkpt><trkpt lat="42.3645144" lon="13.4854475"><ele>876.8333333333334</ele><time>2026-04-18T15:02:05.793Z</time></trkpt><trkpt lat="42.3645566" lon="13.4853689"><ele>875.0</ele><time>2026-04-18T15:02:07.794Z</time></trkpt><trkpt lat="42.3646071" lon="13.4852813"><ele>876.2857142857143</ele><time>2026-04-18T15:02:08.793Z</time></trkpt><trkpt lat="42.3646525" lon="13.4852092"><ele>877.5714285714286</ele><time>2026-04-18T15:02:09.794Z</time></trkpt><trkpt lat="42.364695" lon="13.4851352"><ele>878.8571428571429</ele><time>2026-04-18T15:02:10.794Z</time></trkpt><trkpt lat="42.3647323" lon="13.4850537"><ele>880.1428571428571</ele><time>2026-04-18T15:02:11.794Z</time></trkpt><trkpt lat="42.3647801" lon="13.4849799"><ele>881.4285714285714</ele><time>2026-04-18T15:02:12.793Z</time></trkpt><trkpt lat="42.3648311" lon="13.4848815"><ele>882.7142857142858</ele><time>2026-04-18T15:02:13.794Z</time></trkpt><trkpt lat="42.3648783" lon="13.4848214"><ele>884.0</ele><time>2026-04-18T15:02:14.794Z</time></trkpt><trkpt lat="42.3649452" lon="13.4847534"><ele>884.0000000000001</ele><time>2026-04-18T15:02:16.793Z</time></trkpt><trkpt lat="42.3650085" lon="13.4846804"><ele>884.0</ele><time>2026-04-18T15:02:18.793Z</time></trkpt><trkpt lat="42.3650759" lon="13.4847029"><ele>884.0</ele><time>2026-04-18T15:02:22.793Z</time></trkpt><trkpt lat="42.3651521" lon="13.4847585"><ele>884.0</ele><time>2026-04-18T15:02:25.793Z</time></trkpt><trkpt lat="42.3652228" lon="13.4848747"><ele>884.0000000000001</ele><time>2026-04-18T15:02:27.793Z</time></trkpt><trkpt lat="42.3652627" lon="13.4849546"><ele>884.0</ele><time>2026-04-18T15:02:29.794Z</time></trkpt><trkpt lat="42.3653488" lon="13.4850192"><ele>884.0000000000001</ele><time>2026-04-18T15:02:31.794Z</time></trkpt><trkpt lat="42.3654222" lon="13.485053"><ele>884.0</ele><time>2026-04-18T15:02:33.793Z</time></trkpt><trkpt lat="42.3655158" lon="13.4850964"><ele>884.0</ele><time>2026-04-18T15:02:35.794Z</time></trkpt><trkpt lat="42.365581" lon="13.4851534"><ele>884.0</ele><time>2026-04-18T15:02:37.794Z</time></trkpt><trkpt lat="42.365654" lon="13.4852359"><ele>884.0000000000001</ele><time>2026-04-18T15:02:39.793Z</time></trkpt><trkpt lat="42.3657227" lon="13.485275"><ele>884.0</ele><time>2026-04-18T15:02:41.794Z</time></trkpt><trkpt lat="42.3657966" lon="13.4853632"><ele>890.0</ele><time>2026-04-18T15:02:44.794Z</time></trkpt><trkpt lat="42.3658905" lon="13.4854387"><ele>896.0000000000001</ele><time>2026-04-18T15:02:46.794Z</time></trkpt><trkpt lat="42.3659923" lon="13.4855703"><ele>902.0000000000001</ele><time>2026-04-18T15:02:48.794Z</time></trkpt><trkpt lat="42.3660523" lon="13.4856542"><ele>908.0</ele><time>2026-04-18T15:02:50.793Z</time></trkpt><trkpt lat="42.3660951" lon="13.4857212"><ele>914.0</ele><time>2026-04-18T15:02:51.794Z</time></trkpt><trkpt lat="42.3661748" lon="13.4857901"><ele>914.0</ele><time>2026-04-18T15:02:53.793Z</time></trkpt><trkpt lat="42.3662309" lon="13.4858677"><ele>914.0000000000001</ele><time>2026-04-18T15:02:57.793Z</time></trkpt><trkpt lat="42.366308" lon="13.4859549"><ele>914.0000000000001</ele><time>2026-04-18T15:03:00.794Z</time></trkpt><trkpt lat="42.3663715" lon="13.4860373"><ele>914.0</ele><time>2026-04-18T15:03:02.794Z</time></trkpt><trkpt lat="42.3664492" lon="13.4861619"><ele>914.0</ele><time>2026-04-18T15:03:04.794Z</time></trkpt><trkpt lat="42.3664923" lon="13.4862246"><ele>919.2</ele><time>2026-04-18T15:03:05.793Z</time></trkpt><trkpt lat="42.3665314" lon="13.4862994"><ele>924.4000000000001</ele><time>2026-04-18T15:03:06.793Z</time></trkpt><trkpt lat="42.3666074" lon="13.4864012"><ele>929.6</ele><time>2026-04-18T15:03:08.793Z</time></trkpt><trkpt lat="42.3666501" lon="13.4864704"><ele>934.8</ele><time>2026-04-18T15:03:09.794Z</time></trkpt><trkpt lat="42.3667379" lon="13.4865793"><ele>940.0</ele><time>2026-04-18T15:03:11.794Z</time></trkpt><trkpt lat="42.3668168" lon="13.4866983"><ele>940.0</ele><time>2026-04-18T15:03:13.794Z</time></trkpt><trkpt lat="42.3668477" lon="13.4868161"><ele>940.0</ele><time>2026-04-18T15:03:15.794Z</time></trkpt><trkpt lat="42.3668379" lon="13.4869365"><ele>940.0</ele><time>2026-04-18T15:03:17.794Z</time></trkpt><trkpt lat="42.3668129" lon="13.4870573"><ele>940.0</ele><time>2026-04-18T15:03:19.794Z</time></trkpt><trkpt lat="42.3668041" lon="13.4871792"><ele>940.0</ele><time>2026-04-18T15:03:21.794Z</time></trkpt><trkpt lat="42.3668258" lon="13.4873066"><ele>940.9999999999999</ele><time>2026-04-18T15:03:23.793Z</time></trkpt><trkpt lat="42.3668571" lon="13.4874252"><ele>942.0</ele><time>2026-04-18T15:03:25.793Z</time></trkpt><trkpt lat="42.3668848" lon="13.4875318"><ele>943.0</ele><time>2026-04-18T15:03:28.794Z</time></trkpt><trkpt lat="42.3669006" lon="13.487633"><ele>944.0</ele><time>2026-04-18T15:03:32.794Z</time></trkpt><trkpt lat="42.3668301" lon="13.4877049"><ele>944.9999999999999</ele><time>2026-04-18T15:03:35.793Z</time></trkpt><trkpt lat="42.3667675" lon="13.4876479"><ele>946.0</ele><time>2026-04-18T15:03:37.794Z</time></trkpt><trkpt lat="42.3668113" lon="13.4877239"><ele>946.0</ele><time>2026-04-18T15:03:44.793Z</time></trkpt><trkpt lat="42.3668776" lon="13.48771"><ele>946.0</ele><time>2026-04-18T15:03:48.793Z</time></trkpt><trkpt lat="42.3669204" lon="13.4875933"><ele>946.0</ele><time>2026-04-18T15:03:50.793Z</time></trkpt><trkpt lat="42.3669824" lon="13.4875679"><ele>946.0</ele><time>2026-04-18T15:03:52.794Z</time></trkpt><trkpt lat="42.3670478" lon="13.4875644"><ele>946.0</ele><time>2026-04-18T15:03:53.793Z</time></trkpt><trkpt lat="42.3671154" lon="13.4875577"><ele>946.0</ele><time>2026-04-18T15:03:54.793Z</time></trkpt><trkpt lat="42.3671859" lon="13.487542"><ele>946.0</ele><time>2026-04-18T15:03:55.794Z</time></trkpt><trkpt lat="42.3672594" lon="13.4875252"><ele>948.5999999999999</ele><time>2026-04-18T15:03:56.793Z</time></trkpt><trkpt lat="42.3673499" lon="13.4874912"><ele>951.1999999999999</ele><time>2026-04-18T15:03:58.794Z</time></trkpt><trkpt lat="42.3674702" lon="13.4875239"><ele>953.8000000000001</ele><time>2026-04-18T15:04:00.794Z</time></trkpt><trkpt lat="42.367541" lon="13.4875527"><ele>956.4000000000001</ele><time>2026-04-18T15:04:01.793Z</time></trkpt><trkpt lat="42.3676059" lon="13.4875709"><ele>959.0</ele><time>2026-04-18T15:04:02.794Z</time></trkpt><trkpt lat="42.3677334" lon="13.4875883"><ele>959.0</ele><time>2026-04-18T15:04:04.793Z</time></trkpt><trkpt lat="42.3677986" lon="13.487614"><ele>959.0000000000001</ele><time>2026-04-18T15:04:05.793Z</time></trkpt><trkpt lat="42.3678925" lon="13.487703"><ele>959.0000000000001</ele><time>2026-04-18T15:04:07.794Z</time></trkpt><trkpt lat="42.3679537" lon="13.4878607"><ele>959.0</ele><time>2026-04-18T15:04:09.793Z</time></trkpt><trkpt lat="42.3679992" lon="13.4879407"><ele>959.0</ele><time>2026-04-18T15:04:10.794Z</time></trkpt><trkpt lat="42.3680332" lon="13.4880128"><ele>959.8333333333334</ele><time>2026-04-18T15:04:11.794Z</time></trkpt><trkpt lat="42.3680787" lon="13.4880737"><ele>960.6666666666667</ele><time>2026-04-18T15:04:12.793Z</time></trkpt><trkpt lat="42.3681737" lon="13.4881419"><ele>961.5</ele><time>2026-04-18T15:04:14.791Z</time></trkpt><trkpt lat="42.3682828" lon="13.4882039"><ele>962.3333333333333</ele><time>2026-04-18T15:04:16.794Z</time></trkpt><trkpt lat="42.3683499" lon="13.4882138"><ele>963.1666666666666</ele><time>2026-04-18T15:04:19.794Z</time></trkpt><trkpt lat="42.3684175" lon="13.4882302"><ele>964.0</ele><time>2026-04-18T15:08:55.793Z</time></trkpt><trkpt lat="42.3684859" lon="13.4882435"><ele>963.9999999999999</ele><time>2026-04-18T15:09:09.793Z</time></trkpt><trkpt lat="42.3685899" lon="13.4882604"><ele>964.0</ele><time>2026-04-18T15:09:11.792Z</time></trkpt><trkpt lat="42.368657" lon="13.4882939"><ele>964.0</ele><time>2026-04-18T15:09:12.793Z</time></trkpt><trkpt lat="42.3687194" lon="13.4883287"><ele>964.0</ele><time>2026-04-18T15:09:13.792Z</time></trkpt><trkpt lat="42.3687959" lon="13.4883845"><ele>963.9999999999999</ele><time>2026-04-18T15:09:14.793Z</time></trkpt><trkpt lat="42.3688762" lon="13.488437"><ele>964.0</ele><time>2026-04-18T15:09:15.793Z</time></trkpt><trkpt lat="42.3689593" lon="13.4884976"><ele>965.4000000000001</ele><time>2026-04-18T15:09:16.792Z</time></trkpt><trkpt lat="42.3690329" lon="13.4885854"><ele>966.8000000000001</ele><time>2026-04-18T15:09:17.792Z</time></trkpt><trkpt lat="42.3691201" lon="13.48865"><ele>968.1999999999999</ele><time>2026-04-18T15:09:18.793Z</time></trkpt><trkpt lat="42.3692279" lon="13.4887209"><ele>969.5999999999999</ele><time>2026-04-18T15:09:19.792Z</time></trkpt><trkpt lat="42.369324" lon="13.4888106"><ele>971.0</ele><time>2026-04-18T15:09:20.793Z</time></trkpt><trkpt lat="42.3694196" lon="13.4888926"><ele>971.0000000000001</ele><time>2026-04-18T15:09:21.792Z</time></trkpt><trkpt lat="42.3695003" lon="13.4889688"><ele>971.0</ele><time>2026-04-18T15:09:22.793Z</time></trkpt><trkpt lat="42.36958" lon="13.4890441"><ele>971.0</ele><time>2026-04-18T15:09:23.793Z</time></trkpt><trkpt lat="42.3696405" lon="13.4891106"><ele>971.0</ele><time>2026-04-18T15:09:24.793Z</time></trkpt><trkpt lat="42.369706" lon="13.4891443"><ele>971.0000000000001</ele><time>2026-04-18T15:09:25.793Z</time></trkpt><trkpt lat="42.3697741" lon="13.4891985"><ele>971.0</ele><time>2026-04-18T15:09:26.792Z</time></trkpt><trkpt lat="42.3698485" lon="13.4892602"><ele>972.0000000000001</ele><time>2026-04-18T15:09:27.793Z</time></trkpt><trkpt lat="42.3699257" lon="13.4893081"><ele>973.0</ele><time>2026-04-18T15:09:28.793Z</time></trkpt><trkpt lat="42.3700107" lon="13.48937"><ele>974.0</ele><time>2026-04-18T15:09:29.791Z</time></trkpt><trkpt lat="42.3700978" lon="13.4894194"><ele>975.0</ele><time>2026-04-18T15:09:30.792Z</time></trkpt><trkpt lat="42.3701725" lon="13.489481"><ele>976.0000000000001</ele><time>2026-04-18T15:09:31.793Z</time></trkpt><trkpt lat="42.3702429" lon="13.489532"><ele>977.0</ele><time>2026-04-18T15:09:32.793Z</time></trkpt><trkpt lat="42.3703038" lon="13.4895825"><ele>976.3333333333334</ele><time>2026-04-18T15:09:33.793Z</time></trkpt><trkpt lat="42.37037" lon="13.4896254"><ele>975.6666666666667</ele><time>2026-04-18T15:09:34.793Z</time></trkpt><trkpt lat="42.3704556" lon="13.4896448"><ele>975.0</ele><time>2026-04-18T15:09:35.792Z</time></trkpt><trkpt lat="42.3705304" lon="13.4896748"><ele>974.3333333333333</ele><time>2026-04-18T15:09:36.792Z</time></trkpt><trkpt lat="42.3705981" lon="13.4897124"><ele>973.6666666666666</ele><time>2026-04-18T15:09:37.792Z</time></trkpt><trkpt lat="42.3707038" lon="13.4897314"><ele>973.0</ele><time>2026-04-18T15:09:39.793Z</time></trkpt><trkpt lat="42.3708017" lon="13.4897069"><ele>972.9999999999999</ele><time>2026-04-18T15:09:41.793Z</time></trkpt><trkpt lat="42.3709261" lon="13.4897404"><ele>973.0</ele><time>2026-04-18T15:09:43.793Z</time></trkpt><trkpt lat="42.3709963" lon="13.4897651"><ele>973.0</ele><time>2026-04-18T15:09:44.793Z</time></trkpt><trkpt lat="42.3710819" lon="13.4897894"><ele>973.0</ele><time>2026-04-18T15:09:45.792Z</time></trkpt><trkpt lat="42.3711653" lon="13.489805"><ele>972.9999999999999</ele><time>2026-04-18T15:09:46.793Z</time></trkpt><trkpt lat="42.3712421" lon="13.4898209"><ele>973.0</ele><time>2026-04-18T15:09:47.792Z</time></trkpt><trkpt lat="42.3713429" lon="13.489828"><ele>971.8</ele><time>2026-04-18T15:09:48.792Z</time></trkpt><trkpt lat="42.3714374" lon="13.4898372"><ele>970.5999999999999</ele><time>2026-04-18T15:09:50.794Z</time></trkpt><trkpt lat="42.3715138" lon="13.4898517"><ele>969.4000000000001</ele><time>2026-04-18T15:09:51.794Z</time></trkpt><trkpt lat="42.3715938" lon="13.4898708"><ele>968.2</ele><time>2026-04-18T15:09:52.794Z</time></trkpt><trkpt lat="42.3716747" lon="13.4898962"><ele>967.0</ele><time>2026-04-18T15:09:53.792Z</time></trkpt><trkpt lat="42.3718049" lon="13.4898567"><ele>966.9999999999999</ele><time>2026-04-18T15:09:55.793Z</time></trkpt><trkpt lat="42.3718678" lon="13.4898432"><ele>967.0</ele><time>2026-04-18T15:09:56.793Z</time></trkpt><trkpt lat="42.3719316" lon="13.4898658"><ele>967.0</ele><time>2026-04-18T15:09:57.793Z</time></trkpt><trkpt lat="42.3720444" lon="13.4899268"><ele>967.0</ele><time>2026-04-18T15:09:59.793Z</time></trkpt><trkpt lat="42.3720929" lon="13.4899847"><ele>966.9999999999999</ele><time>2026-04-18T15:10:00.793Z</time></trkpt><trkpt lat="42.3721562" lon="13.4900658"><ele>967.0</ele><time>2026-04-18T15:10:01.793Z</time></trkpt><trkpt lat="42.3722138" lon="13.4901348"><ele>967.1666666666666</ele><time>2026-04-18T15:10:02.793Z</time></trkpt><trkpt lat="42.3722754" lon="13.4902157"><ele>967.3333333333333</ele><time>2026-04-18T15:10:03.793Z</time></trkpt><trkpt lat="42.3723143" lon="13.4903014"><ele>967.5</ele><time>2026-04-18T15:10:04.792Z</time></trkpt><trkpt lat="42.3723607" lon="13.4903843"><ele>967.6666666666667</ele><time>2026-04-18T15:10:05.792Z</time></trkpt><trkpt lat="42.3724228" lon="13.4904741"><ele>967.8333333333334</ele><time>2026-04-18T15:10:06.791Z</time></trkpt><trkpt lat="42.3724783" lon="13.4905794"><ele>968.0</ele><time>2026-04-18T15:10:07.791Z</time></trkpt><trkpt lat="42.3725199" lon="13.4906918"><ele>968.3333333333334</ele><time>2026-04-18T15:10:08.793Z</time></trkpt><trkpt lat="42.3725447" lon="13.4908061"><ele>968.6666666666667</ele><time>2026-04-18T15:10:09.793Z</time></trkpt><trkpt lat="42.3725556" lon="13.4909238"><ele>969.0</ele><time>2026-04-18T15:10:10.793Z</time></trkpt><trkpt lat="42.372549" lon="13.4910543"><ele>969.3333333333333</ele><time>2026-04-18T15:10:11.792Z</time></trkpt><trkpt lat="42.3725465" lon="13.491158"><ele>969.6666666666666</ele><time>2026-04-18T15:10:12.793Z</time></trkpt><trkpt lat="42.3725515" lon="13.4912633"><ele>970.0</ele><time>2026-04-18T15:10:13.793Z</time></trkpt><trkpt lat="42.3725629" lon="13.491348"><ele>970.6</ele><time>2026-04-18T15:10:14.792Z</time></trkpt><trkpt lat="42.3725603" lon="13.4914703"><ele>971.2</ele><time>2026-04-18T15:10:16.792Z</time></trkpt><trkpt lat="42.3725099" lon="13.4915932"><ele>971.8</ele><time>2026-04-18T15:10:18.793Z</time></trkpt><trkpt lat="42.372478" lon="13.4917798"><ele>972.4</ele><time>2026-04-18T15:10:20.791Z</time></trkpt><trkpt lat="42.3724613" lon="13.491901"><ele>973.0</ele><time>2026-04-18T15:10:21.792Z</time></trkpt><trkpt lat="42.372436" lon="13.4920103"><ele>973.4</ele><time>2026-04-18T15:10:22.792Z</time></trkpt><trkpt lat="42.3724042" lon="13.4921099"><ele>973.8</ele><time>2026-04-18T15:10:23.792Z</time></trkpt><trkpt lat="42.3723856" lon="13.4922721"><ele>974.2</ele><time>2026-04-18T15:10:25.793Z</time></trkpt><trkpt lat="42.3723884" lon="13.492368"><ele>974.6</ele><time>2026-04-18T15:10:26.793Z</time></trkpt><trkpt lat="42.3724143" lon="13.4925098"><ele>975.0</ele><time>2026-04-18T15:10:27.792Z</time></trkpt><trkpt lat="42.3724192" lon="13.4926447"><ele>975.0</ele><time>2026-04-18T15:10:28.792Z</time></trkpt><trkpt lat="42.3724214" lon="13.4927587"><ele>975.0</ele><time>2026-04-18T15:10:29.792Z</time></trkpt><trkpt lat="42.3724274" lon="13.4928578"><ele>975.0</ele><time>2026-04-18T15:10:30.793Z</time></trkpt><trkpt lat="42.3724464" lon="13.492948"><ele>975.0</ele><time>2026-04-18T15:10:31.792Z</time></trkpt><trkpt lat="42.3724704" lon="13.4930361"><ele>975.0</ele><time>2026-04-18T15:10:32.793Z</time></trkpt><trkpt lat="42.3725048" lon="13.4931805"><ele>975.0</ele><time>2026-04-18T15:10:34.793Z</time></trkpt><trkpt lat="42.3725117" lon="13.493319"><ele>974.5</ele><time>2026-04-18T15:10:36.793Z</time></trkpt><trkpt lat="42.372486" lon="13.4934602"><ele>974.0</ele><time>2026-04-18T15:10:38.793Z</time></trkpt><trkpt lat="42.3724628" lon="13.4935943"><ele>973.5</ele><time>2026-04-18T15:10:40.793Z</time></trkpt><trkpt lat="42.3724406" lon="13.4936854"><ele>973.0</ele><time>2026-04-18T15:10:41.792Z</time></trkpt><trkpt lat="42.3724159" lon="13.4937645"><ele>972.5</ele><time>2026-04-18T15:10:42.793Z</time></trkpt><trkpt lat="42.3723827" lon="13.4938464"><ele>972.0</ele><time>2026-04-18T15:10:43.792Z</time></trkpt><trkpt lat="42.3723557" lon="13.4939336"><ele>972.0</ele><time>2026-04-18T15:10:44.792Z</time></trkpt><trkpt lat="42.3723339" lon="13.4940218"><ele>972.0</ele><time>2026-04-18T15:10:45.793Z</time></trkpt><trkpt lat="42.3723053" lon="13.4941056"><ele>972.0</ele><time>2026-04-18T15:10:46.792Z</time></trkpt><trkpt lat="42.3722705" lon="13.4941868"><ele>972.0</ele><time>2026-04-18T15:10:47.793Z</time></trkpt><trkpt lat="42.3722416" lon="13.4942628"><ele>972.0</ele><time>2026-04-18T15:10:48.793Z</time></trkpt><trkpt lat="42.3722146" lon="13.4943515"><ele>972.0</ele><time>2026-04-18T15:10:49.793Z</time></trkpt><trkpt lat="42.3721843" lon="13.4944409"><ele>972.0</ele><time>2026-04-18T15:10:50.793Z</time></trkpt><trkpt lat="42.372152" lon="13.4945486"><ele>972.0</ele><time>2026-04-18T15:10:51.792Z</time></trkpt><trkpt lat="42.3721389" lon="13.4946442"><ele>972.0</ele><time>2026-04-18T15:10:52.792Z</time></trkpt><trkpt lat="42.3721193" lon="13.494737"><ele>972.0</ele><time>2026-04-18T15:10:53.793Z</time></trkpt><trkpt lat="42.3721062" lon="13.49483"><ele>972.0</ele><time>2026-04-18T15:10:54.793Z</time></trkpt><trkpt lat="42.3721031" lon="13.4949222"><ele>972.0</ele><time>2026-04-18T15:10:55.792Z</time></trkpt><trkpt lat="42.3721093" lon="13.4950128"><ele>972.0</ele><time>2026-04-18T15:10:56.792Z</time></trkpt><trkpt lat="42.3721354" lon="13.4951485"><ele>972.1666666666666</ele><time>2026-04-18T15:10:58.792Z</time></trkpt><trkpt lat="42.3722274" lon="13.4952173"><ele>972.3333333333333</ele><time>2026-04-18T15:11:00.792Z</time></trkpt><trkpt lat="42.3723042" lon="13.4952732"><ele>972.5</ele><time>2026-04-18T15:11:02.792Z</time></trkpt><trkpt lat="42.3723667" lon="13.4953032"><ele>972.6666666666666</ele><time>2026-04-18T15:11:04.792Z</time></trkpt><trkpt lat="42.372479" lon="13.4952526"><ele>972.8333333333333</ele><time>2026-04-18T15:11:06.793Z</time></trkpt><trkpt lat="42.3725" lon="13.4951628"><ele>973.0</ele><time>2026-04-18T15:11:08.793Z</time></trkpt><trkpt lat="42.3724334" lon="13.4951794"><ele>972.9999999999999</ele><time>2026-04-18T15:11:11.793Z</time></trkpt><trkpt lat="42.3724018" lon="13.4952825"><ele>973.0</ele><time>2026-04-18T15:11:13.792Z</time></trkpt><trkpt lat="42.3723364" lon="13.495182"><ele>973.0</ele><time>2026-04-18T15:11:16.792Z</time></trkpt><trkpt lat="42.3723383" lon="13.4950734"><ele>973.0</ele><time>2026-04-18T15:11:18.793Z</time></trkpt><trkpt lat="42.3723623" lon="13.4951677"><ele>972.9999999999999</ele><time>2026-04-18T15:11:23.793Z</time></trkpt><trkpt lat="42.3723349" lon="13.495247"><ele>973.0</ele><time>2026-04-18T15:11:25.793Z</time></trkpt><trkpt lat="42.3723723" lon="13.4953233"><ele>972.9999999999999</ele><time>2026-04-18T15:11:27.793Z</time></trkpt><trkpt lat="42.3724494" lon="13.4953087"><ele>973.0</ele><time>2026-04-18T15:11:28.793Z</time></trkpt><trkpt lat="42.3725173" lon="13.4952792"><ele>973.0</ele><time>2026-04-18T15:11:29.792Z</time></trkpt><trkpt lat="42.3726126" lon="13.4952233"><ele>973.0</ele><time>2026-04-18T15:11:31.793Z</time></trkpt><trkpt lat="42.3726711" lon="13.4951824"><ele>972.9999999999999</ele><time>2026-04-18T15:11:33.793Z</time></trkpt><trkpt lat="42.3726682" lon="13.4950428"><ele>973.0</ele><time>2026-04-18T15:11:36.793Z</time></trkpt><trkpt lat="42.3726691" lon="13.4949458"><ele>972.9999999999999</ele><time>2026-04-18T15:11:37.791Z</time></trkpt><trkpt lat="42.37263" lon="13.4948749"><ele>973.0</ele><time>2026-04-18T15:11:41.792Z</time></trkpt><trkpt lat="42.3725881" lon="13.49494"><ele>973.0</ele><time>2026-04-18T15:11:42.793Z</time></trkpt><trkpt lat="42.3725376" lon="13.4949956"><ele>973.0</ele><time>2026-04-18T15:11:43.792Z</time></trkpt><trkpt lat="42.3724272" lon="13.4950754"><ele>972.9999999999999</ele><time>2026-04-18T15:11:45.794Z</time></trkpt><trkpt lat="42.3723509" lon="13.4951577"><ele>973.0</ele><time>2026-04-18T15:11:47.793Z</time></trkpt><trkpt lat="42.3723758" lon="13.4952514"><ele>972.9999999999999</ele><time>2026-04-18T15:11:50.793Z</time></trkpt><trkpt lat="42.3724662" lon="13.4952127"><ele>973.0</ele><time>2026-04-18T15:11:53.791Z</time></trkpt><trkpt lat="42.3725587" lon="13.4952076"><ele>973.0</ele><time>2026-04-18T15:11:55.793Z</time></trkpt><trkpt lat="42.3726241" lon="13.4952041"><ele>973.0</ele><time>2026-04-18T15:11:57.792Z</time></trkpt><trkpt lat="42.3726822" lon="13.495164"><ele>972.9999999999999</ele><time>2026-04-18T15:12:00.792Z</time></trkpt><trkpt lat="42.3726616" lon="13.4950394"><ele>973.0</ele><time>2026-04-18T15:12:02.793Z</time></trkpt><trkpt lat="42.3726472" lon="13.494907"><ele>972.9999999999999</ele><time>2026-04-18T15:12:04.792Z</time></trkpt><trkpt lat="42.372576" lon="13.4949163"><ele>973.0</ele><time>2026-04-18T15:12:07.792Z</time></trkpt><trkpt lat="42.3724847" lon="13.4950338"><ele>973.0</ele><time>2026-04-18T15:12:09.793Z</time></trkpt><trkpt lat="42.3724324" lon="13.4950881"><ele>973.0</ele><time>2026-04-18T15:12:10.792Z</time></trkpt><trkpt lat="42.3723752" lon="13.4951478"><ele>972.9999999999999</ele><time>2026-04-18T15:12:11.793Z</time></trkpt><trkpt lat="42.3723222" lon="13.4952057"><ele>973.0</ele><time>2026-04-18T15:12:13.792Z</time></trkpt><trkpt lat="42.3723314" lon="13.4953234"><ele>973.9999999999999</ele><time>2026-04-18T15:12:20.792Z</time></trkpt><trkpt lat="42.3723678" lon="13.4954752"><ele>975.0</ele><time>2026-04-18T15:12:22.792Z</time></trkpt><trkpt lat="42.3723981" lon="13.4955589"><ele>976.0</ele><time>2026-04-18T15:12:23.793Z</time></trkpt><trkpt lat="42.3724622" lon="13.495628"><ele>977.0</ele><time>2026-04-18T15:12:24.792Z</time></trkpt><trkpt lat="42.3725351" lon="13.4956964"><ele>977.9999999999999</ele><time>2026-04-18T15:12:25.792Z</time></trkpt><trkpt lat="42.3726028" lon="13.4957441"><ele>979.0</ele><time>2026-04-18T15:12:26.792Z</time></trkpt><trkpt lat="42.372659" lon="13.4957987"><ele>979.0</ele><time>2026-04-18T15:12:27.793Z</time></trkpt><trkpt lat="42.3727071" lon="13.4958638"><ele>979.0</ele><time>2026-04-18T15:12:28.793Z</time></trkpt><trkpt lat="42.3727654" lon="13.4959185"><ele>979.0</ele><time>2026-04-18T15:12:29.791Z</time></trkpt><trkpt lat="42.3728081" lon="13.4960003"><ele>979.0</ele><time>2026-04-18T15:12:30.792Z</time></trkpt><trkpt lat="42.37285" lon="13.4960647"><ele>979.0</ele><time>2026-04-18T15:12:31.793Z</time></trkpt><trkpt lat="42.3728934" lon="13.4961322"><ele>979.0</ele><time>2026-04-18T15:12:32.792Z</time></trkpt><trkpt lat="42.3729405" lon="13.4962109"><ele>979.0</ele><time>2026-04-18T15:12:33.792Z</time></trkpt><trkpt lat="42.3729908" lon="13.49628"><ele>980.4000000000001</ele><time>2026-04-18T15:12:34.793Z</time></trkpt><trkpt lat="42.3730412" lon="13.4963571"><ele>981.8000000000001</ele><time>2026-04-18T15:12:35.793Z</time></trkpt><trkpt lat="42.373093" lon="13.4964183"><ele>983.1999999999999</ele><time>2026-04-18T15:12:36.792Z</time></trkpt><trkpt lat="42.3731473" lon="13.4964802"><ele>984.5999999999999</ele><time>2026-04-18T15:12:37.792Z</time></trkpt><trkpt lat="42.3732597" lon="13.4965753"><ele>986.0</ele><time>2026-04-18T15:12:39.792Z</time></trkpt><trkpt lat="42.3733623" lon="13.4966516"><ele>986.0</ele><time>2026-04-18T15:12:41.791Z</time></trkpt><trkpt lat="42.3734763" lon="13.4967335"><ele>985.9999999999999</ele><time>2026-04-18T15:12:43.793Z</time></trkpt><trkpt lat="42.3735392" lon="13.4967836"><ele>985.9999999999999</ele><time>2026-04-18T15:12:44.792Z</time></trkpt><trkpt lat="42.3736066" lon="13.4968546"><ele>986.0</ele><time>2026-04-18T15:12:45.792Z</time></trkpt><trkpt lat="42.3736654" lon="13.4969159"><ele>986.0</ele><time>2026-04-18T15:12:46.792Z</time></trkpt><trkpt lat="42.3737468" lon="13.4970073"><ele>987.0000000000001</ele><time>2026-04-18T15:12:48.793Z</time></trkpt><trkpt lat="42.3738125" lon="13.4971038"><ele>988.0</ele><time>2026-04-18T15:12:50.793Z</time></trkpt><trkpt lat="42.3738707" lon="13.4971918"><ele>989.0</ele><time>2026-04-18T15:12:52.792Z</time></trkpt><trkpt lat="42.3739402" lon="13.4973151"><ele>990.0</ele><time>2026-04-18T15:12:54.793Z</time></trkpt><trkpt lat="42.3739841" lon="13.4973807"><ele>991.0000000000001</ele><time>2026-04-18T15:12:55.793Z</time></trkpt><trkpt lat="42.374021" lon="13.4974527"><ele>992.0</ele><time>2026-04-18T15:12:56.792Z</time></trkpt><trkpt lat="42.3740898" lon="13.4974927"><ele>992.6</ele><time>2026-04-18T15:12:57.793Z</time></trkpt><trkpt lat="42.3741534" lon="13.4975495"><ele>993.2</ele><time>2026-04-18T15:12:58.793Z</time></trkpt><trkpt lat="42.3742152" lon="13.4975821"><ele>993.8</ele><time>2026-04-18T15:12:59.792Z</time></trkpt><trkpt lat="42.3743096" lon="13.4976786"><ele>994.4</ele><time>2026-04-18T15:13:01.792Z</time></trkpt><trkpt lat="42.3743889" lon="13.4977963"><ele>995.0</ele><time>2026-04-18T15:13:03.792Z</time></trkpt><trkpt lat="42.3744354" lon="13.4978752"><ele>996.4</ele><time>2026-04-18T15:13:04.792Z</time></trkpt><trkpt lat="42.3744743" lon="13.4979611"><ele>997.8</ele><time>2026-04-18T15:13:05.792Z</time></trkpt><trkpt lat="42.3745622" lon="13.4980618"><ele>999.2</ele><time>2026-04-18T15:13:07.791Z</time></trkpt><trkpt lat="42.3746606" lon="13.4981302"><ele>1000.6</ele><time>2026-04-18T15:13:09.793Z</time></trkpt><trkpt lat="42.3747412" lon="13.4982203"><ele>1002.0</ele><time>2026-04-18T15:13:11.792Z</time></trkpt><trkpt lat="42.3747571" lon="13.4983534"><ele>1002.2</ele><time>2026-04-18T15:13:13.791Z</time></trkpt><trkpt lat="42.3747261" lon="13.4985285"><ele>1002.4000000000001</ele><time>2026-04-18T15:13:15.792Z</time></trkpt><trkpt lat="42.3747169" lon="13.4986313"><ele>1002.5999999999999</ele><time>2026-04-18T15:13:16.792Z</time></trkpt><trkpt lat="42.3747198" lon="13.4987478"><ele>1002.8</ele><time>2026-04-18T15:13:17.792Z</time></trkpt><trkpt lat="42.3747398" lon="13.4988786"><ele>1003.0</ele><time>2026-04-18T15:13:18.793Z</time></trkpt><trkpt lat="42.3747604" lon="13.499005"><ele>1003.8</ele><time>2026-04-18T15:13:19.792Z</time></trkpt><trkpt lat="42.3747663" lon="13.4990993"><ele>1004.5999999999999</ele><time>2026-04-18T15:13:20.793Z</time></trkpt><trkpt lat="42.3747614" lon="13.4992668"><ele>1005.4000000000001</ele><time>2026-04-18T15:13:22.79Z</time></trkpt><trkpt lat="42.374764" lon="13.49936"><ele>1006.2</ele><time>2026-04-18T15:13:23.793Z</time></trkpt><trkpt lat="42.3747789" lon="13.4995108"><ele>1007.0</ele><time>2026-04-18T15:13:25.793Z</time></trkpt><trkpt lat="42.374763" lon="13.499657"><ele>1007.0000000000001</ele><time>2026-04-18T15:13:27.793Z</time></trkpt><trkpt lat="42.3747369" lon="13.499752"><ele>1007.0</ele><time>2026-04-18T15:13:28.793Z</time></trkpt><trkpt lat="42.3747103" lon="13.4998406"><ele>1007.0</ele><time>2026-04-18T15:13:29.793Z</time></trkpt><trkpt lat="42.3746866" lon="13.4999601"><ele>1007.0</ele><time>2026-04-18T15:13:30.792Z</time></trkpt><trkpt lat="42.374666" lon="13.5000879"><ele>1007.0000000000001</ele><time>2026-04-18T15:13:31.793Z</time></trkpt><trkpt lat="42.3746393" lon="13.5002192"><ele>1007.0</ele><time>2026-04-18T15:13:32.792Z</time></trkpt><trkpt lat="42.3746005" lon="13.5003513"><ele>1007.2</ele><time>2026-04-18T15:13:33.793Z</time></trkpt><trkpt lat="42.3745584" lon="13.5004713"><ele>1007.4000000000001</ele><time>2026-04-18T15:13:34.791Z</time></trkpt><trkpt lat="42.3745266" lon="13.5005752"><ele>1007.5999999999999</ele><time>2026-04-18T15:13:35.791Z</time></trkpt><trkpt lat="42.374478" lon="13.5006746"><ele>1007.8</ele><time>2026-04-18T15:13:36.791Z</time></trkpt><trkpt lat="42.3744293" lon="13.5007618"><ele>1008.0</ele><time>2026-04-18T15:13:37.792Z</time></trkpt><trkpt lat="42.374362" lon="13.5009036"><ele>1008.0</ele><time>2026-04-18T15:13:39.791Z</time></trkpt><trkpt lat="42.3743369" lon="13.5009985"><ele>1008.0</ele><time>2026-04-18T15:13:40.792Z</time></trkpt><trkpt lat="42.3743132" lon="13.5011041"><ele>1008.0</ele><time>2026-04-18T15:13:41.792Z</time></trkpt><trkpt lat="42.3742758" lon="13.5012217"><ele>1008.0</ele><time>2026-04-18T15:13:42.792Z</time></trkpt><trkpt lat="42.3742361" lon="13.5013424"><ele>1008.0</ele><time>2026-04-18T15:13:43.791Z</time></trkpt><trkpt lat="42.374211" lon="13.5014653"><ele>1008.0</ele><time>2026-04-18T15:13:44.792Z</time></trkpt><trkpt lat="42.3741859" lon="13.5015648"><ele>1008.2</ele><time>2026-04-18T15:13:45.792Z</time></trkpt><trkpt lat="42.3741456" lon="13.5016732"><ele>1008.4</ele><time>2026-04-18T15:13:46.793Z</time></trkpt><trkpt lat="42.3741037" lon="13.5017868"><ele>1008.6000000000001</ele><time>2026-04-18T15:13:47.792Z</time></trkpt><trkpt lat="42.3740519" lon="13.5019087"><ele>1008.8000000000001</ele><time>2026-04-18T15:13:48.793Z</time></trkpt><trkpt lat="42.3740058" lon="13.5020428"><ele>1009.0</ele><time>2026-04-18T15:13:49.792Z</time></trkpt><trkpt lat="42.3739672" lon="13.5021734"><ele>1008.9999999999999</ele><time>2026-04-18T15:13:50.791Z</time></trkpt><trkpt lat="42.3739343" lon="13.502296"><ele>1009.0</ele><time>2026-04-18T15:13:51.792Z</time></trkpt><trkpt lat="42.3739014" lon="13.5023929"><ele>1009.0</ele><time>2026-04-18T15:13:52.793Z</time></trkpt><trkpt lat="42.3738641" lon="13.5024904"><ele>1009.0</ele><time>2026-04-18T15:13:53.792Z</time></trkpt><trkpt lat="42.3738301" lon="13.5025876"><ele>1008.9999999999999</ele><time>2026-04-18T15:13:54.792Z</time></trkpt><trkpt lat="42.3737974" lon="13.5026866"><ele>1009.0</ele><time>2026-04-18T15:13:55.792Z</time></trkpt><trkpt lat="42.3737661" lon="13.5027875"><ele>1010.8333333333333</ele><time>2026-04-18T15:13:56.792Z</time></trkpt><trkpt lat="42.3737444" lon="13.5028889"><ele>1012.6666666666666</ele><time>2026-04-18T15:13:57.792Z</time></trkpt><trkpt lat="42.3737317" lon="13.5029983"><ele>1014.5</ele><time>2026-04-18T15:13:58.793Z</time></trkpt><trkpt lat="42.3737283" lon="13.5031162"><ele>1016.3333333333333</ele><time>2026-04-18T15:13:59.793Z</time></trkpt><trkpt lat="42.3737284" lon="13.5032496"><ele>1018.1666666666666</ele><time>2026-04-18T15:14:00.791Z</time></trkpt><trkpt lat="42.3737283" lon="13.5033803"><ele>1020.0</ele><time>2026-04-18T15:14:01.792Z</time></trkpt><trkpt lat="42.3737237" lon="13.503517"><ele>1020.3333333333334</ele><time>2026-04-18T15:14:02.793Z</time></trkpt><trkpt lat="42.3737164" lon="13.5036449"><ele>1020.6666666666667</ele><time>2026-04-18T15:14:03.792Z</time></trkpt><trkpt lat="42.3737121" lon="13.5037448"><ele>1021.0</ele><time>2026-04-18T15:14:04.793Z</time></trkpt><trkpt lat="42.3737096" lon="13.5038521"><ele>1021.3333333333334</ele><time>2026-04-18T15:14:07.792Z</time></trkpt><trkpt lat="42.3736508" lon="13.5037941"><ele>1021.6666666666667</ele><time>2026-04-18T15:17:34.792Z</time></trkpt><trkpt lat="42.3735811" lon="13.5037452"><ele>1022.0</ele><time>2026-04-18T15:17:37.791Z</time></trkpt><trkpt lat="42.3735108" lon="13.5038011"><ele>1023.0</ele><time>2026-04-18T15:17:39.791Z</time></trkpt><trkpt lat="42.3734266" lon="13.5038927"><ele>1024.0</ele><time>2026-04-18T15:17:41.792Z</time></trkpt><trkpt lat="42.3733526" lon="13.5039869"><ele>1025.0</ele><time>2026-04-18T15:17:43.792Z</time></trkpt><trkpt lat="42.3732715" lon="13.504065"><ele>1026.0</ele><time>2026-04-18T15:17:45.791Z</time></trkpt><trkpt lat="42.3732327" lon="13.5041465"><ele>1027.0</ele><time>2026-04-18T15:17:47.791Z</time></trkpt><trkpt lat="42.3732631" lon="13.5042582"><ele>1027.0</ele><time>2026-04-18T15:17:50.792Z</time></trkpt><trkpt lat="42.3733254" lon="13.5042725"><ele>1027.0</ele><time>2026-04-18T15:17:52.791Z</time></trkpt><trkpt lat="42.3733857" lon="13.5042304"><ele>1027.0</ele><time>2026-04-18T15:17:54.791Z</time></trkpt><trkpt lat="42.3734246" lon="13.5040849"><ele>1027.0</ele><time>2026-04-18T15:17:56.791Z</time></trkpt><trkpt lat="42.3734853" lon="13.5039353"><ele>1027.0</ele><time>2026-04-18T15:17:58.792Z</time></trkpt><trkpt lat="42.3735572" lon="13.5038373"><ele>1027.0</ele><time>2026-04-18T15:18:00.791Z</time></trkpt><trkpt lat="42.3735944" lon="13.503741"><ele>1027.0</ele><time>2026-04-18T15:18:02.791Z</time></trkpt><trkpt lat="42.3735778" lon="13.5036417"><ele>1027.0</ele><time>2026-04-18T15:18:04.791Z</time></trkpt><trkpt lat="42.3735177" lon="13.5035804"><ele>1027.0</ele><time>2026-04-18T15:18:06.79Z</time></trkpt><trkpt lat="42.3734509" lon="13.5035836"><ele>1027.0</ele><time>2026-04-18T15:18:08.791Z</time></trkpt><trkpt lat="42.3734012" lon="13.5037052"><ele>1027.0</ele><time>2026-04-18T15:18:10.791Z</time></trkpt><trkpt lat="42.3733699" lon="13.5038344"><ele>1027.0</ele><time>2026-04-18T15:18:12.791Z</time></trkpt><trkpt lat="42.3733295" lon="13.5039555"><ele>1027.0</ele><time>2026-04-18T15:18:14.792Z</time></trkpt><trkpt lat="42.3732825" lon="13.5040756"><ele>1027.0</ele><time>2026-04-18T15:18:16.792Z</time></trkpt><trkpt lat="42.3732447" lon="13.5041788"><ele>1027.0</ele><time>2026-04-18T15:18:18.792Z</time></trkpt><trkpt lat="42.3732988" lon="13.5042584"><ele>1027.0</ele><time>2026-04-18T15:18:21.791Z</time></trkpt><trkpt lat="42.373385" lon="13.5042226"><ele>1027.0</ele><time>2026-04-18T15:18:23.792Z</time></trkpt><trkpt lat="42.3734465" lon="13.5040904"><ele>1027.0</ele><time>2026-04-18T15:18:25.792Z</time></trkpt><trkpt lat="42.3734748" lon="13.5040108"><ele>1027.0</ele><time>2026-04-18T15:18:26.792Z</time></trkpt><trkpt lat="42.3735085" lon="13.5039363"><ele>1027.0</ele><time>2026-04-18T15:18:27.792Z</time></trkpt><trkpt lat="42.3735708" lon="13.5038153"><ele>1027.0</ele><time>2026-04-18T15:18:29.791Z</time></trkpt><trkpt lat="42.3735841" lon="13.5037125"><ele>1027.0</ele><time>2026-04-18T15:18:31.791Z</time></trkpt><trkpt lat="42.3735353" lon="13.503628"><ele>1027.0</ele><time>2026-04-18T15:18:34.792Z</time></trkpt><trkpt lat="42.373468" lon="13.5036341"><ele>1027.0</ele><time>2026-04-18T15:18:37.791Z</time></trkpt><trkpt lat="42.3734015" lon="13.5036999"><ele>1027.0</ele><time>2026-04-18T15:18:41.792Z</time></trkpt><trkpt lat="42.3733657" lon="13.5038567"><ele>1027.0</ele><time>2026-04-18T15:18:43.791Z</time></trkpt><trkpt lat="42.3733214" lon="13.5039886"><ele>1027.0</ele><time>2026-04-18T15:18:45.792Z</time></trkpt><trkpt lat="42.3732615" lon="13.5041349"><ele>1027.0</ele><time>2026-04-18T15:18:47.791Z</time></trkpt><trkpt lat="42.3732409" lon="13.504256"><ele>1027.0</ele><time>2026-04-18T15:18:49.791Z</time></trkpt><trkpt lat="42.3733061" lon="13.5042536"><ele>1027.0</ele><time>2026-04-18T15:18:51.791Z</time></trkpt><trkpt lat="42.3733924" lon="13.5041563"><ele>1027.0</ele><time>2026-04-18T15:18:53.791Z</time></trkpt><trkpt lat="42.3734384" lon="13.5040934"><ele>1027.0</ele><time>2026-04-18T15:18:54.791Z</time></trkpt><trkpt lat="42.3734872" lon="13.5040126"><ele>1027.0</ele><time>2026-04-18T15:18:55.791Z</time></trkpt><trkpt lat="42.3735578" lon="13.5038914"><ele>1027.0</ele><time>2026-04-18T15:18:57.791Z</time></trkpt><trkpt lat="42.3735798" lon="13.5037534"><ele>1027.0</ele><time>2026-04-18T15:18:59.792Z</time></trkpt><trkpt lat="42.3735203" lon="13.5037021"><ele>1027.0</ele><time>2026-04-18T15:19:02.792Z</time></trkpt><trkpt lat="42.3734533" lon="13.5037968"><ele>1027.0</ele><time>2026-04-18T15:19:04.791Z</time></trkpt><trkpt lat="42.3734146" lon="13.5038724"><ele>1027.0</ele><time>2026-04-18T15:19:05.79Z</time></trkpt><trkpt lat="42.3733672" lon="13.5039465"><ele>1027.0</ele><time>2026-04-18T15:19:06.792Z</time></trkpt><trkpt lat="42.3733156" lon="13.5040131"><ele>1027.0</ele><time>2026-04-18T15:19:07.791Z</time></trkpt><trkpt lat="42.3732588" lon="13.5040733"><ele>1027.0</ele><time>2026-04-18T15:19:08.79Z</time></trkpt><trkpt lat="42.3732257" lon="13.5041632"><ele>1027.0</ele><time>2026-04-18T15:19:10.792Z</time></trkpt><trkpt lat="42.3733237" lon="13.5041943"><ele>1027.0</ele><time>2026-04-18T15:19:13.79Z</time></trkpt><trkpt lat="42.3734451" lon="13.5041586"><ele>1027.0</ele><time>2026-04-18T15:19:15.791Z</time></trkpt><trkpt lat="42.3735145" lon="13.5041279"><ele>1027.0</ele><time>2026-04-18T15:19:16.791Z</time></trkpt><trkpt lat="42.3735694" lon="13.5040692"><ele>1027.0</ele><time>2026-04-18T15:19:18.79Z</time></trkpt><trkpt lat="42.3735756" lon="13.5039285"><ele>1027.0</ele><time>2026-04-18T15:19:20.791Z</time></trkpt><trkpt lat="42.3735701" lon="13.5038154"><ele>1027.0</ele><time>2026-04-18T15:19:21.791Z</time></trkpt><trkpt lat="42.3735581" lon="13.5037243"><ele>1027.0</ele><time>2026-04-18T15:19:22.79Z</time></trkpt><trkpt lat="42.3735222" lon="13.5036376"><ele>1027.0</ele><time>2026-04-18T15:19:24.792Z</time></trkpt><trkpt lat="42.3734757" lon="13.5035587"><ele>1027.0</ele><time>2026-04-18T15:19:26.792Z</time></trkpt><trkpt lat="42.3734055" lon="13.5035775"><ele>1027.0</ele><time>2026-04-18T15:19:28.792Z</time></trkpt><trkpt lat="42.373312" lon="13.5036632"><ele>1027.0</ele><time>2026-04-18T15:19:30.792Z</time></trkpt><trkpt lat="42.3732567" lon="13.5037121"><ele>1027.0</ele><time>2026-04-18T15:19:31.79Z</time></trkpt><trkpt lat="42.373222" lon="13.5037842"><ele>1027.0</ele><time>2026-04-18T15:19:33.792Z</time></trkpt><trkpt lat="42.3732693" lon="13.5038543"><ele>1027.0</ele><time>2026-04-18T15:19:36.791Z</time></trkpt><trkpt lat="42.3733483" lon="13.5038227"><ele>1027.0</ele><time>2026-04-18T15:19:38.791Z</time></trkpt><trkpt lat="42.3734347" lon="13.5037237"><ele>1027.0</ele><time>2026-04-18T15:19:40.792Z</time></trkpt><trkpt lat="42.3734952" lon="13.5037709"><ele>1027.0</ele><time>2026-04-18T15:19:43.792Z</time></trkpt><trkpt lat="42.3734215" lon="13.5038891"><ele>1027.0</ele><time>2026-04-18T15:19:45.791Z</time></trkpt><trkpt lat="42.3733535" lon="13.5039784"><ele>1027.0</ele><time>2026-04-18T15:19:46.792Z</time></trkpt><trkpt lat="42.3732945" lon="13.5040292"><ele>1027.0</ele><time>2026-04-18T15:19:47.79Z</time></trkpt><trkpt lat="42.3732366" lon="13.5040799"><ele>1027.0</ele><time>2026-04-18T15:19:48.791Z</time></trkpt><trkpt lat="42.3732041" lon="13.5041658"><ele>1027.0</ele><time>2026-04-18T15:19:50.792Z</time></trkpt><trkpt lat="42.3732777" lon="13.5042334"><ele>1027.0</ele><time>2026-04-18T15:19:53.79Z</time></trkpt><trkpt lat="42.3733628" lon="13.504187"><ele>1027.0</ele><time>2026-04-18T15:19:55.791Z</time></trkpt><trkpt lat="42.3734042" lon="13.5041179"><ele>1027.0</ele><time>2026-04-18T15:19:56.792Z</time></trkpt><trkpt lat="42.3734636" lon="13.5039756"><ele>1027.0</ele><time>2026-04-18T15:19:58.791Z</time></trkpt><trkpt lat="42.3735258" lon="13.5038601"><ele>1027.0</ele><time>2026-04-18T15:20:00.792Z</time></trkpt><trkpt lat="42.3735709" lon="13.5037801"><ele>1027.0</ele><time>2026-04-18T15:20:02.792Z</time></trkpt><trkpt lat="42.3736132" lon="13.5036857"><ele>1027.0</ele><time>2026-04-18T15:20:05.791Z</time></trkpt><trkpt lat="42.3736687" lon="13.5037346"><ele>1027.0</ele><time>2026-04-18T15:20:08.791Z</time></trkpt><trkpt lat="42.3736818" lon="13.5038306"><ele>1027.0</ele><time>2026-04-18T15:21:40.791Z</time></trkpt><trkpt lat="42.3735865" lon="13.5038441"><ele>1027.0</ele><time>2026-04-18T15:21:43.791Z</time></trkpt><trkpt lat="42.3735186" lon="13.5038571"><ele>1027.0</ele><time>2026-04-18T15:21:44.79Z</time></trkpt><trkpt lat="42.3734589" lon="13.5038944"><ele>1027.0</ele><time>2026-04-18T15:21:45.791Z</time></trkpt><trkpt lat="42.3733918" lon="13.5039559"><ele>1027.0</ele><time>2026-04-18T15:21:46.791Z</time></trkpt><trkpt lat="42.3733384" lon="13.5040146"><ele>1027.0</ele><time>2026-04-18T15:21:47.791Z</time></trkpt><trkpt lat="42.3732475" lon="13.5041058"><ele>1027.0</ele><time>2026-04-18T15:21:49.791Z</time></trkpt><trkpt lat="42.3732492" lon="13.5041961"><ele>1027.0</ele><time>2026-04-18T15:21:52.791Z</time></trkpt><trkpt lat="42.3733295" lon="13.5041975"><ele>1027.0</ele><time>2026-04-18T15:21:54.791Z</time></trkpt><trkpt lat="42.3734213" lon="13.5041072"><ele>1027.0</ele><time>2026-04-18T15:21:56.791Z</time></trkpt><trkpt lat="42.3734679" lon="13.5040486"><ele>1027.0</ele><time>2026-04-18T15:21:57.79Z</time></trkpt><trkpt lat="42.3735575" lon="13.5039326"><ele>1027.0</ele><time>2026-04-18T15:21:59.79Z</time></trkpt><trkpt lat="42.3735909" lon="13.5038341"><ele>1027.0</ele><time>2026-04-18T15:22:00.791Z</time></trkpt><trkpt lat="42.3736117" lon="13.5037248"><ele>1027.0</ele><time>2026-04-18T15:22:02.791Z</time></trkpt><trkpt lat="42.3735489" lon="13.5036729"><ele>1027.0</ele><time>2026-04-18T15:22:04.79Z</time></trkpt><trkpt lat="42.3734699" lon="13.5037946"><ele>1027.0</ele><time>2026-04-18T15:22:07.791Z</time></trkpt><trkpt lat="42.3734219" lon="13.5038775"><ele>1027.0</ele><time>2026-04-18T15:22:08.791Z</time></trkpt><trkpt lat="42.3733711" lon="13.503966"><ele>1027.0</ele><time>2026-04-18T15:22:09.791Z</time></trkpt><trkpt lat="42.3733217" lon="13.5040384"><ele>1027.0</ele><time>2026-04-18T15:22:10.792Z</time></trkpt><trkpt lat="42.3732639" lon="13.5040956"><ele>1027.0</ele><time>2026-04-18T15:22:11.79Z</time></trkpt><trkpt lat="42.3732218" lon="13.504171"><ele>1027.0</ele><time>2026-04-18T15:22:13.79Z</time></trkpt><trkpt lat="42.3732797" lon="13.5042432"><ele>1027.0</ele><time>2026-04-18T15:22:15.792Z</time></trkpt><trkpt lat="42.3733591" lon="13.5042149"><ele>1027.0</ele><time>2026-04-18T15:22:18.791Z</time></trkpt><trkpt lat="42.3733988" lon="13.5041343"><ele>1027.0</ele><time>2026-04-18T15:22:19.79Z</time></trkpt><trkpt lat="42.3734347" lon="13.5040391"><ele>1027.0</ele><time>2026-04-18T15:22:20.79Z</time></trkpt><trkpt lat="42.373477" lon="13.5039593"><ele>1027.0</ele><time>2026-04-18T15:22:21.792Z</time></trkpt><trkpt lat="42.3735239" lon="13.5039013"><ele>1027.0</ele><time>2026-04-18T15:22:22.791Z</time></trkpt><trkpt lat="42.3735913" lon="13.503783"><ele>1027.0</ele><time>2026-04-18T15:22:24.791Z</time></trkpt><trkpt lat="42.3736096" lon="13.5036908"><ele>1027.0</ele><time>2026-04-18T15:22:26.791Z</time></trkpt><trkpt lat="42.3735793" lon="13.5035964"><ele>1027.0</ele><time>2026-04-18T15:22:29.79Z</time></trkpt><trkpt lat="42.3735036" lon="13.5036018"><ele>1027.0</ele><time>2026-04-18T15:22:33.791Z</time></trkpt><trkpt lat="42.3734721" lon="13.5037157"><ele>1027.0</ele><time>2026-04-18T15:22:59.791Z</time></trkpt><trkpt lat="42.3734402" lon="13.5038042"><ele>1027.0</ele><time>2026-04-18T15:23:00.791Z</time></trkpt><trkpt lat="42.3733969" lon="13.5038888"><ele>1027.0</ele><time>2026-04-18T15:23:01.79Z</time></trkpt><trkpt lat="42.3733224" lon="13.5040221"><ele>1027.0</ele><time>2026-04-18T15:23:03.79Z</time></trkpt><trkpt lat="42.3732536" lon="13.5041219"><ele>1027.0</ele><time>2026-04-18T15:23:05.791Z</time></trkpt><trkpt lat="42.3732751" lon="13.5042314"><ele>1027.0</ele><time>2026-04-18T15:23:08.792Z</time></trkpt><trkpt lat="42.3733675" lon="13.5042036"><ele>1027.0</ele><time>2026-04-18T15:23:10.79Z</time></trkpt><trkpt lat="42.3734707" lon="13.5041296"><ele>1027.0</ele><time>2026-04-18T15:23:12.791Z</time></trkpt><trkpt lat="42.3735426" lon="13.504034"><ele>1027.0</ele><time>2026-04-18T15:23:14.79Z</time></trkpt><trkpt lat="42.3735651" lon="13.5039387"><ele>1027.0</ele><time>2026-04-18T15:23:16.791Z</time></trkpt><trkpt lat="42.3735747" lon="13.5038392"><ele>1027.0</ele><time>2026-04-18T15:23:18.79Z</time></trkpt><trkpt lat="42.3735986" lon="13.5037368"><ele>1027.0</ele><time>2026-04-18T15:23:20.791Z</time></trkpt><trkpt lat="42.3735464" lon="13.5036791"><ele>1027.0</ele><time>2026-04-18T15:23:23.79Z</time></trkpt><trkpt lat="42.3734618" lon="13.5037941"><ele>1027.0</ele><time>2026-04-18T15:23:25.791Z</time></trkpt><trkpt lat="42.3734199" lon="13.5038733"><ele>1027.0</ele><time>2026-04-18T15:23:26.791Z</time></trkpt><trkpt lat="42.3733836" lon="13.503944"><ele>1027.0</ele><time>2026-04-18T15:23:27.791Z</time></trkpt><trkpt lat="42.3733346" lon="13.504006"><ele>1027.0</ele><time>2026-04-18T15:23:28.79Z</time></trkpt><trkpt lat="42.3732569" lon="13.5040919"><ele>1027.0</ele><time>2026-04-18T15:23:30.79Z</time></trkpt><trkpt lat="42.3732346" lon="13.5041807"><ele>1027.0</ele><time>2026-04-18T15:23:32.791Z</time></trkpt><trkpt lat="42.3733514" lon="13.5041846"><ele>1027.0</ele><time>2026-04-18T15:23:36.79Z</time></trkpt><trkpt lat="42.3734428" lon="13.5040774"><ele>1027.0</ele><time>2026-04-18T15:23:38.79Z</time></trkpt><trkpt lat="42.3734892" lon="13.5040139"><ele>1027.0</ele><time>2026-04-18T15:23:39.79Z</time></trkpt><trkpt lat="42.3735613" lon="13.5039036"><ele>1027.0</ele><time>2026-04-18T15:23:41.79Z</time></trkpt><trkpt lat="42.3735968" lon="13.5037946"><ele>1027.0</ele><time>2026-04-18T15:23:43.791Z</time></trkpt><trkpt lat="42.3735686" lon="13.503682"><ele>1027.0</ele><time>2026-04-18T15:23:45.791Z</time></trkpt><trkpt lat="42.3735123" lon="13.5036232"><ele>1027.0</ele><time>2026-04-18T15:23:46.791Z</time></trkpt><trkpt lat="42.373438" lon="13.5035484"><ele>1027.0</ele><time>2026-04-18T15:23:47.79Z</time></trkpt><trkpt lat="42.3733558" lon="13.5034752"><ele>1027.3333333333333</ele><time>2026-04-18T15:23:48.791Z</time></trkpt><trkpt lat="42.3732699" lon="13.5034218"><ele>1027.6666666666665</ele><time>2026-04-18T15:23:49.792Z</time></trkpt><trkpt lat="42.3731894" lon="13.5033572"><ele>1028.0</ele><time>2026-04-18T15:23:50.791Z</time></trkpt><trkpt lat="42.3731176" lon="13.503297"><ele>1028.3333333333333</ele><time>2026-04-18T15:23:51.79Z</time></trkpt><trkpt lat="42.3730536" lon="13.5032388"><ele>1028.6666666666667</ele><time>2026-04-18T15:23:52.79Z</time></trkpt><trkpt lat="42.3729902" lon="13.5032022"><ele>1029.0</ele><time>2026-04-18T15:23:53.791Z</time></trkpt><trkpt lat="42.372873" lon="13.5031586"><ele>1029.0</ele><time>2026-04-18T15:23:55.791Z</time></trkpt><trkpt lat="42.3727801" lon="13.5031689"><ele>1029.0</ele><time>2026-04-18T15:23:58.791Z</time></trkpt><trkpt lat="42.3726811" lon="13.5031795"><ele>1029.0</ele><time>2026-04-18T15:24:00.79Z</time></trkpt><trkpt lat="42.3725721" lon="13.5031976"><ele>1029.0</ele><time>2026-04-18T15:24:02.79Z</time></trkpt><trkpt lat="42.3724567" lon="13.503225"><ele>1029.0</ele><time>2026-04-18T15:24:04.791Z</time></trkpt><trkpt lat="42.3723597" lon="13.5032259"><ele>1029.0</ele><time>2026-04-18T15:24:06.791Z</time></trkpt><trkpt lat="42.3722863" lon="13.503279"><ele>1029.0</ele><time>2026-04-18T15:24:08.79Z</time></trkpt><trkpt lat="42.3722348" lon="13.5033958"><ele>1029.0</ele><time>2026-04-18T15:24:10.79Z</time></trkpt><trkpt lat="42.3721806" lon="13.5035021"><ele>1029.0</ele><time>2026-04-18T15:24:12.791Z</time></trkpt><trkpt lat="42.3721411" lon="13.5036339"><ele>1029.0</ele><time>2026-04-18T15:24:14.791Z</time></trkpt><trkpt lat="42.3721064" lon="13.5037672"><ele>1030.4</ele><time>2026-04-18T15:24:16.79Z</time></trkpt><trkpt lat="42.3720684" lon="13.5038958"><ele>1031.8000000000002</ele><time>2026-04-18T15:24:18.791Z</time></trkpt><trkpt lat="42.3720281" lon="13.5040315"><ele>1033.1999999999998</ele><time>2026-04-18T15:24:20.79Z</time></trkpt><trkpt lat="42.3720278" lon="13.5041762"><ele>1034.6</ele><time>2026-04-18T15:24:22.79Z</time></trkpt><trkpt lat="42.372022" lon="13.5042676"><ele>1036.0</ele><time>2026-04-18T15:24:23.789Z</time></trkpt><trkpt lat="42.3720115" lon="13.5043582"><ele>1036.0</ele><time>2026-04-18T15:24:24.791Z</time></trkpt><trkpt lat="42.3720083" lon="13.5044447"><ele>1036.0</ele><time>2026-04-18T15:24:25.791Z</time></trkpt><trkpt lat="42.3719973" lon="13.5045476"><ele>1036.0</ele><time>2026-04-18T15:24:26.789Z</time></trkpt><trkpt lat="42.3719838" lon="13.5046487"><ele>1036.0</ele><time>2026-04-18T15:24:27.79Z</time></trkpt><trkpt lat="42.3719751" lon="13.5047498"><ele>1036.0</ele><time>2026-04-18T15:24:28.79Z</time></trkpt><trkpt lat="42.371966" lon="13.5048518"><ele>1036.0</ele><time>2026-04-18T15:24:29.79Z</time></trkpt><trkpt lat="42.3719608" lon="13.5049526"><ele>1036.0</ele><time>2026-04-18T15:24:30.791Z</time></trkpt><trkpt lat="42.3719318" lon="13.5051134"><ele>1037.3333333333333</ele><time>2026-04-18T15:24:32.791Z</time></trkpt><trkpt lat="42.371874" lon="13.505257"><ele>1038.6666666666665</ele><time>2026-04-18T15:24:34.791Z</time></trkpt><trkpt lat="42.3718421" lon="13.5053387"><ele>1040.0</ele><time>2026-04-18T15:24:35.791Z</time></trkpt><trkpt lat="42.371808" lon="13.5054105"><ele>1041.3333333333333</ele><time>2026-04-18T15:24:36.79Z</time></trkpt><trkpt lat="42.3717868" lon="13.5054923"><ele>1042.6666666666667</ele><time>2026-04-18T15:24:37.791Z</time></trkpt><trkpt lat="42.3717552" lon="13.5056311"><ele>1044.0</ele><time>2026-04-18T15:24:39.789Z</time></trkpt><trkpt lat="42.3717387" lon="13.505726"><ele>1045.2</ele><time>2026-04-18T15:24:40.791Z</time></trkpt><trkpt lat="42.3717064" lon="13.5058656"><ele>1046.4</ele><time>2026-04-18T15:24:42.79Z</time></trkpt><trkpt lat="42.3717162" lon="13.5059509"><ele>1047.6</ele><time>2026-04-18T15:24:43.791Z</time></trkpt><trkpt lat="42.3717707" lon="13.5060984"><ele>1048.8</ele><time>2026-04-18T15:24:45.791Z</time></trkpt><trkpt lat="42.3718175" lon="13.5062545"><ele>1050.0</ele><time>2026-04-18T15:24:47.791Z</time></trkpt><trkpt lat="42.3718235" lon="13.506342"><ele>1050.4285714285713</ele><time>2026-04-18T15:24:48.79Z</time></trkpt><trkpt lat="42.3718302" lon="13.5064378"><ele>1050.857142857143</ele><time>2026-04-18T15:24:49.791Z</time></trkpt><trkpt lat="42.3718407" lon="13.5065411"><ele>1051.2857142857142</ele><time>2026-04-18T15:24:50.791Z</time></trkpt><trkpt lat="42.3718562" lon="13.5066414"><ele>1051.7142857142858</ele><time>2026-04-18T15:24:51.789Z</time></trkpt><trkpt lat="42.3718622" lon="13.5067406"><ele>1052.142857142857</ele><time>2026-04-18T15:24:52.79Z</time></trkpt><trkpt lat="42.3718625" lon="13.5068277"><ele>1052.5714285714284</ele><time>2026-04-18T15:24:53.791Z</time></trkpt><trkpt lat="42.3718582" lon="13.5069158"><ele>1053.0</ele><time>2026-04-18T15:24:54.79Z</time></trkpt><trkpt lat="42.3718501" lon="13.507069"><ele>1053.3333333333333</ele><time>2026-04-18T15:24:56.791Z</time></trkpt><trkpt lat="42.3718423" lon="13.5072205"><ele>1053.6666666666667</ele><time>2026-04-18T15:24:58.796Z</time></trkpt><trkpt lat="42.3718497" lon="13.5073066"><ele>1054.0</ele><time>2026-04-18T15:24:59.791Z</time></trkpt><trkpt lat="42.371864" lon="13.5073934"><ele>1054.3333333333335</ele><time>2026-04-18T15:25:00.789Z</time></trkpt><trkpt lat="42.3718888" lon="13.5074811"><ele>1054.6666666666667</ele><time>2026-04-18T15:25:01.789Z</time></trkpt><trkpt lat="42.3719289" lon="13.5076389"><ele>1055.0</ele><time>2026-04-18T15:25:03.79Z</time></trkpt><trkpt lat="42.3719312" lon="13.5077257"><ele>1055.0</ele><time>2026-04-18T15:25:04.79Z</time></trkpt><trkpt lat="42.3719336" lon="13.5078199"><ele>1055.0</ele><time>2026-04-18T15:25:05.791Z</time></trkpt><trkpt lat="42.3719636" lon="13.5079693"><ele>1055.0</ele><time>2026-04-18T15:25:07.791Z</time></trkpt><trkpt lat="42.3719884" lon="13.5080633"><ele>1055.0</ele><time>2026-04-18T15:25:08.791Z</time></trkpt><trkpt lat="42.3720207" lon="13.5081673"><ele>1055.0</ele><time>2026-04-18T15:25:09.79Z</time></trkpt><trkpt lat="42.3720518" lon="13.5082722"><ele>1055.0</ele><time>2026-04-18T15:25:10.791Z</time></trkpt><trkpt lat="42.3721027" lon="13.5083868"><ele>1055.1666666666667</ele><time>2026-04-18T15:25:11.791Z</time></trkpt><trkpt lat="42.3721629" lon="13.5084979"><ele>1055.3333333333335</ele><time>2026-04-18T15:25:12.79Z</time></trkpt><trkpt lat="42.3722168" lon="13.5085912"><ele>1055.5</ele><time>2026-04-18T15:25:13.79Z</time></trkpt><trkpt lat="42.3722655" lon="13.5086935"><ele>1055.6666666666667</ele><time>2026-04-18T15:25:14.79Z</time></trkpt><trkpt lat="42.3723072" lon="13.5087943"><ele>1055.8333333333333</ele><time>2026-04-18T15:25:15.791Z</time></trkpt><trkpt lat="42.3723422" lon="13.5088941"><ele>1056.0</ele><time>2026-04-18T15:25:16.79Z</time></trkpt><trkpt lat="42.3723773" lon="13.5090013"><ele>1057.3999999999999</ele><time>2026-04-18T15:25:17.789Z</time></trkpt><trkpt lat="42.3724044" lon="13.5091055"><ele>1058.8</ele><time>2026-04-18T15:25:18.791Z</time></trkpt><trkpt lat="42.3724226" lon="13.5091874"><ele>1060.1999999999998</ele><time>2026-04-18T15:25:19.791Z</time></trkpt><trkpt lat="42.3724067" lon="13.5093297"><ele>1061.6</ele><time>2026-04-18T15:25:21.79Z</time></trkpt><trkpt lat="42.3723315" lon="13.5094467"><ele>1063.0</ele><time>2026-04-18T15:25:23.79Z</time></trkpt><trkpt lat="42.3722619" lon="13.5095206"><ele>1063.4</ele><time>2026-04-18T15:25:24.791Z</time></trkpt><trkpt lat="42.3721787" lon="13.5096012"><ele>1063.8</ele><time>2026-04-18T15:25:25.79Z</time></trkpt><trkpt lat="42.3720978" lon="13.509688"><ele>1064.2</ele><time>2026-04-18T15:25:26.791Z</time></trkpt><trkpt lat="42.3720145" lon="13.5097927"><ele>1064.6</ele><time>2026-04-18T15:25:27.79Z</time></trkpt><trkpt lat="42.3719356" lon="13.5098921"><ele>1065.0</ele><time>2026-04-18T15:25:28.79Z</time></trkpt><trkpt lat="42.3718502" lon="13.5099939"><ele>1065.0</ele><time>2026-04-18T15:25:29.79Z</time></trkpt><trkpt lat="42.3717764" lon="13.5100826"><ele>1065.0</ele><time>2026-04-18T15:25:30.791Z</time></trkpt><trkpt lat="42.3717104" lon="13.5101375"><ele>1065.0</ele><time>2026-04-18T15:25:31.791Z</time></trkpt><trkpt lat="42.3716398" lon="13.5102605"><ele>1065.0</ele><time>2026-04-18T15:25:33.791Z</time></trkpt><trkpt lat="42.3716288" lon="13.5104176"><ele>1065.0</ele><time>2026-04-18T15:25:35.79Z</time></trkpt><trkpt lat="42.3716449" lon="13.510523"><ele>1065.6666666666667</ele><time>2026-04-18T15:25:36.79Z</time></trkpt><trkpt lat="42.3716545" lon="13.510626"><ele>1066.3333333333333</ele><time>2026-04-18T15:25:37.791Z</time></trkpt><trkpt lat="42.3716515" lon="13.5107305"><ele>1067.0</ele><time>2026-04-18T15:25:38.791Z</time></trkpt><trkpt lat="42.3716221" lon="13.5108395"><ele>1067.6666666666665</ele><time>2026-04-18T15:25:39.791Z</time></trkpt><trkpt lat="42.3715875" lon="13.5109297"><ele>1068.3333333333333</ele><time>2026-04-18T15:25:40.789Z</time></trkpt><trkpt lat="42.3715515" lon="13.511084"><ele>1069.0</ele><time>2026-04-18T15:25:42.789Z</time></trkpt><trkpt lat="42.3715563" lon="13.511229"><ele>1069.3333333333333</ele><time>2026-04-18T15:25:44.792Z</time></trkpt><trkpt lat="42.3715297" lon="13.5113776"><ele>1069.6666666666665</ele><time>2026-04-18T15:25:46.791Z</time></trkpt><trkpt lat="42.3715085" lon="13.5114683"><ele>1070.0</ele><time>2026-04-18T15:25:47.79Z</time></trkpt><trkpt lat="42.3714858" lon="13.5115686"><ele>1070.3333333333333</ele><time>2026-04-18T15:25:48.791Z</time></trkpt><trkpt lat="42.3714621" lon="13.5116602"><ele>1070.6666666666667</ele><time>2026-04-18T15:25:49.79Z</time></trkpt><trkpt lat="42.3714374" lon="13.5117457"><ele>1071.0</ele><time>2026-04-18T15:25:50.79Z</time></trkpt><trkpt lat="42.3713758" lon="13.5118571"><ele>1070.6666666666667</ele><time>2026-04-18T15:25:52.791Z</time></trkpt><trkpt lat="42.3713191" lon="13.511913"><ele>1070.3333333333333</ele><time>2026-04-18T15:25:54.79Z</time></trkpt><trkpt lat="42.3712703" lon="13.5118253"><ele>1070.0</ele><time>2026-04-18T15:25:56.79Z</time></trkpt><trkpt lat="42.3712469" lon="13.5116973"><ele>1069.6666666666665</ele><time>2026-04-18T15:25:58.79Z</time></trkpt><trkpt lat="42.371145" lon="13.5116148"><ele>1069.3333333333333</ele><time>2026-04-18T15:26:00.791Z</time></trkpt><trkpt lat="42.3710818" lon="13.5115813"><ele>1069.0</ele><time>2026-04-18T15:26:01.791Z</time></trkpt><trkpt lat="42.3709688" lon="13.5115258"><ele>1069.0</ele><time>2026-04-18T15:26:03.79Z</time></trkpt><trkpt lat="42.3708738" lon="13.5114546"><ele>1069.0</ele><time>2026-04-18T15:26:05.791Z</time></trkpt><trkpt lat="42.3708063" lon="13.5113919"><ele>1069.0</ele><time>2026-04-18T15:26:08.789Z</time></trkpt><trkpt lat="42.3707412" lon="13.5113616"><ele>1069.0</ele><time>2026-04-18T15:27:49.791Z</time></trkpt><trkpt lat="42.3706595" lon="13.5113577"><ele>1069.0</ele><time>2026-04-18T15:27:53.791Z</time></trkpt><trkpt lat="42.370622" lon="13.5114659"><ele>1069.0</ele><time>2026-04-18T15:27:56.79Z</time></trkpt><trkpt lat="42.3706235" lon="13.5115992"><ele>1069.0</ele><time>2026-04-18T15:27:58.79Z</time></trkpt><trkpt lat="42.3706531" lon="13.5117294"><ele>1069.0</ele><time>2026-04-18T15:28:00.789Z</time></trkpt><trkpt lat="42.3706688" lon="13.5118141"><ele>1069.0</ele><time>2026-04-18T15:28:01.79Z</time></trkpt><trkpt lat="42.3706658" lon="13.5119804"><ele>1069.0</ele><time>2026-04-18T15:28:03.79Z</time></trkpt><trkpt lat="42.3706648" lon="13.5120841"><ele>1069.0</ele><time>2026-04-18T15:28:04.791Z</time></trkpt><trkpt lat="42.3706617" lon="13.5121892"><ele>1069.0</ele><time>2026-04-18T15:28:05.79Z</time></trkpt><trkpt lat="42.3706616" lon="13.51229"><ele>1069.2</ele><time>2026-04-18T15:28:06.79Z</time></trkpt><trkpt lat="42.3706636" lon="13.5123769"><ele>1069.4</ele><time>2026-04-18T15:28:07.79Z</time></trkpt><trkpt lat="42.3706676" lon="13.5125211"><ele>1069.6</ele><time>2026-04-18T15:28:09.79Z</time></trkpt><trkpt lat="42.3706659" lon="13.5127032"><ele>1069.8</ele><time>2026-04-18T15:28:11.79Z</time></trkpt><trkpt lat="42.3706687" lon="13.5128075"><ele>1070.0</ele><time>2026-04-18T15:28:12.79Z</time></trkpt><trkpt lat="42.3706749" lon="13.5129126"><ele>1070.142857142857</ele><time>2026-04-18T15:28:13.79Z</time></trkpt><trkpt lat="42.3706919" lon="13.5130148"><ele>1070.2857142857142</ele><time>2026-04-18T15:28:14.79Z</time></trkpt><trkpt lat="42.3707078" lon="13.5131023"><ele>1070.4285714285716</ele><time>2026-04-18T15:28:15.789Z</time></trkpt><trkpt lat="42.3707243" lon="13.5131983"><ele>1070.5714285714284</ele><time>2026-04-18T15:28:16.791Z</time></trkpt><trkpt lat="42.3707309" lon="13.5132859"><ele>1070.7142857142858</ele><time>2026-04-18T15:28:17.79Z</time></trkpt><trkpt lat="42.3707411" lon="13.5133979"><ele>1070.857142857143</ele><time>2026-04-18T15:28:19.789Z</time></trkpt><trkpt lat="42.3707364" lon="13.5135109"><ele>1071.0</ele><time>2026-04-18T15:28:22.79Z</time></trkpt><trkpt lat="42.3707132" lon="13.5136134"><ele>1071.0</ele><time>2026-04-18T15:29:13.79Z</time></trkpt><trkpt lat="42.3706986" lon="13.5137007"><ele>1071.0</ele><time>2026-04-18T15:29:14.79Z</time></trkpt><trkpt lat="42.3706798" lon="13.5138529"><ele>1071.0</ele><time>2026-04-18T15:29:16.789Z</time></trkpt><trkpt lat="42.3706456" lon="13.5139966"><ele>1071.0</ele><time>2026-04-18T15:29:18.789Z</time></trkpt><trkpt lat="42.3705993" lon="13.5141404"><ele>1071.0</ele><time>2026-04-18T15:29:20.789Z</time></trkpt><trkpt lat="42.3705654" lon="13.5142133"><ele>1070.7142857142858</ele><time>2026-04-18T15:29:21.79Z</time></trkpt><trkpt lat="42.37053" lon="13.5143001"><ele>1070.4285714285716</ele><time>2026-04-18T15:29:22.79Z</time></trkpt><trkpt lat="42.370497" lon="13.514387"><ele>1070.142857142857</ele><time>2026-04-18T15:29:23.789Z</time></trkpt><trkpt lat="42.3704782" lon="13.5144796"><ele>1069.857142857143</ele><time>2026-04-18T15:29:24.79Z</time></trkpt><trkpt lat="42.3704667" lon="13.5145776"><ele>1069.5714285714287</ele><time>2026-04-18T15:29:25.79Z</time></trkpt><trkpt lat="42.370452" lon="13.5146799"><ele>1069.2857142857142</ele><time>2026-04-18T15:29:26.79Z</time></trkpt><trkpt lat="42.3704329" lon="13.5147844"><ele>1069.0</ele><time>2026-04-18T15:29:27.79Z</time></trkpt><trkpt lat="42.3704153" lon="13.5148854"><ele>1067.8333333333333</ele><time>2026-04-18T15:29:28.79Z</time></trkpt><trkpt lat="42.3703966" lon="13.5149836"><ele>1066.6666666666665</ele><time>2026-04-18T15:29:29.79Z</time></trkpt><trkpt lat="42.3703799" lon="13.5150716"><ele>1065.5</ele><time>2026-04-18T15:29:30.789Z</time></trkpt><trkpt lat="42.3703662" lon="13.5151592"><ele>1064.3333333333333</ele><time>2026-04-18T15:29:31.79Z</time></trkpt><trkpt lat="42.3703684" lon="13.5153178"><ele>1063.1666666666667</ele><time>2026-04-18T15:29:33.79Z</time></trkpt><trkpt lat="42.370384" lon="13.5154699"><ele>1062.0</ele><time>2026-04-18T15:29:35.79Z</time></trkpt><trkpt lat="42.3704251" lon="13.5156168"><ele>1062.0</ele><time>2026-04-18T15:29:37.79Z</time></trkpt><trkpt lat="42.3704625" lon="13.5156911"><ele>1062.0</ele><time>2026-04-18T15:29:38.79Z</time></trkpt><trkpt lat="42.3705083" lon="13.5157697"><ele>1062.0</ele><time>2026-04-18T15:29:39.791Z</time></trkpt><trkpt lat="42.3705582" lon="13.5158502"><ele>1062.0</ele><time>2026-04-18T15:29:40.79Z</time></trkpt><trkpt lat="42.3705995" lon="13.515927"><ele>1062.0</ele><time>2026-04-18T15:29:41.79Z</time></trkpt><trkpt lat="42.3706416" lon="13.5160101"><ele>1062.0</ele><time>2026-04-18T15:29:42.791Z</time></trkpt><trkpt lat="42.3706882" lon="13.5160944"><ele>1062.0</ele><time>2026-04-18T15:29:43.79Z</time></trkpt><trkpt lat="42.3707373" lon="13.5161742"><ele>1062.0</ele><time>2026-04-18T15:29:44.79Z</time></trkpt><trkpt lat="42.3708001" lon="13.5162515"><ele>1062.0</ele><time>2026-04-18T15:29:45.79Z</time></trkpt><trkpt lat="42.3708616" lon="13.516319"><ele>1062.0</ele><time>2026-04-18T15:29:46.79Z</time></trkpt><trkpt lat="42.3709248" lon="13.5163848"><ele>1062.0</ele><time>2026-04-18T15:29:47.79Z</time></trkpt><trkpt lat="42.3709926" lon="13.5164547"><ele>1062.0</ele><time>2026-04-18T15:29:48.79Z</time></trkpt><trkpt lat="42.3710683" lon="13.516531"><ele>1062.0</ele><time>2026-04-18T15:29:49.79Z</time></trkpt><trkpt lat="42.3711299" lon="13.5166037"><ele>1062.0</ele><time>2026-04-18T15:29:50.789Z</time></trkpt><trkpt lat="42.3712042" lon="13.5166783"><ele>1062.0</ele><time>2026-04-18T15:29:51.79Z</time></trkpt><trkpt lat="42.3712662" lon="13.5167455"><ele>1062.0</ele><time>2026-04-18T15:29:52.79Z</time></trkpt><trkpt lat="42.3713283" lon="13.5168201"><ele>1062.0</ele><time>2026-04-18T15:29:53.79Z</time></trkpt><trkpt lat="42.3713885" lon="13.5168965"><ele>1062.0</ele><time>2026-04-18T15:29:54.789Z</time></trkpt><trkpt lat="42.3714393" lon="13.5169647"><ele>1062.0</ele><time>2026-04-18T15:29:55.789Z</time></trkpt><trkpt lat="42.3714952" lon="13.5170266"><ele>1062.3333333333333</ele><time>2026-04-18T15:29:56.789Z</time></trkpt><trkpt lat="42.3715294" lon="13.5171021"><ele>1062.6666666666667</ele><time>2026-04-18T15:29:57.79Z</time></trkpt><trkpt lat="42.3715585" lon="13.5171812"><ele>1063.0</ele><time>2026-04-18T15:29:58.79Z</time></trkpt><trkpt lat="42.3715975" lon="13.5173003"><ele>1063.3333333333335</ele><time>2026-04-18T15:30:00.79Z</time></trkpt><trkpt lat="42.3716127" lon="13.517406"><ele>1063.6666666666667</ele><time>2026-04-18T15:30:02.79Z</time></trkpt><trkpt lat="42.3716472" lon="13.5174945"><ele>1064.0</ele><time>2026-04-18T15:30:04.79Z</time></trkpt><trkpt lat="42.3717022" lon="13.5175661"><ele>1064.0</ele><time>2026-04-18T15:30:06.79Z</time></trkpt><trkpt lat="42.3717857" lon="13.5176386"><ele>1064.0</ele><time>2026-04-18T15:30:08.79Z</time></trkpt><trkpt lat="42.3719042" lon="13.5177043"><ele>1064.0</ele><time>2026-04-18T15:30:10.789Z</time></trkpt><trkpt lat="42.3719685" lon="13.5177398"><ele>1064.0</ele><time>2026-04-18T15:30:11.789Z</time></trkpt><trkpt lat="42.3720654" lon="13.5178307"><ele>1064.0</ele><time>2026-04-18T15:30:13.788Z</time></trkpt><trkpt lat="42.3721379" lon="13.5179035"><ele>1064.0</ele><time>2026-04-18T15:30:15.79Z</time></trkpt><trkpt lat="42.3721668" lon="13.5180024"><ele>1064.0</ele><time>2026-04-18T15:31:20.789Z</time></trkpt><trkpt lat="42.3722276" lon="13.5180283"><ele>1064.0</ele><time>2026-04-18T15:31:24.789Z</time></trkpt><trkpt lat="42.3722007" lon="13.5179406"><ele>1064.0</ele><time>2026-04-18T15:31:26.788Z</time></trkpt><trkpt lat="42.3721354" lon="13.5178723"><ele>1064.0</ele><time>2026-04-18T15:31:28.789Z</time></trkpt><trkpt lat="42.3720572" lon="13.5177941"><ele>1064.0</ele><time>2026-04-18T15:31:30.789Z</time></trkpt><trkpt lat="42.3719774" lon="13.5177362"><ele>1064.0</ele><time>2026-04-18T15:31:32.79Z</time></trkpt><trkpt lat="42.3719008" lon="13.5176811"><ele>1064.0</ele><time>2026-04-18T15:31:34.789Z</time></trkpt><trkpt lat="42.3718319" lon="13.5176331"><ele>1064.0</ele><time>2026-04-18T15:31:36.789Z</time></trkpt><trkpt lat="42.3717549" lon="13.5175772"><ele>1064.0</ele><time>2026-04-18T15:31:38.789Z</time></trkpt><trkpt lat="42.3716843" lon="13.5175177"><ele>1064.0</ele><time>2026-04-18T15:31:40.79Z</time></trkpt><trkpt lat="42.3716441" lon="13.5174479"><ele>1064.0</ele><time>2026-04-18T15:31:42.789Z</time></trkpt><trkpt lat="42.3716219" lon="13.5173449"><ele>1064.0</ele><time>2026-04-18T15:31:44.79Z</time></trkpt><trkpt lat="42.3715838" lon="13.5172003"><ele>1064.0</ele><time>2026-04-18T15:31:46.79Z</time></trkpt><trkpt lat="42.3715515" lon="13.5171221"><ele>1064.0</ele><time>2026-04-18T15:31:47.789Z</time></trkpt><trkpt lat="42.3715133" lon="13.5170503"><ele>1064.0</ele><time>2026-04-18T15:31:48.788Z</time></trkpt><trkpt lat="42.3714685" lon="13.51698"><ele>1064.0</ele><time>2026-04-18T15:31:49.789Z</time></trkpt><trkpt lat="42.3714213" lon="13.5169105"><ele>1064.0</ele><time>2026-04-18T15:31:50.789Z</time></trkpt><trkpt lat="42.3713688" lon="13.5168435"><ele>1063.6666666666667</ele><time>2026-04-18T15:31:51.788Z</time></trkpt><trkpt lat="42.3713081" lon="13.5167808"><ele>1063.3333333333335</ele><time>2026-04-18T15:31:52.789Z</time></trkpt><trkpt lat="42.3712443" lon="13.5167195"><ele>1063.0</ele><time>2026-04-18T15:31:53.788Z</time></trkpt><trkpt lat="42.3711821" lon="13.516654"><ele>1062.6666666666667</ele><time>2026-04-18T15:31:54.788Z</time></trkpt><trkpt lat="42.371116" lon="13.5165891"><ele>1062.3333333333333</ele><time>2026-04-18T15:31:55.789Z</time></trkpt><trkpt lat="42.3710501" lon="13.5165254"><ele>1062.0</ele><time>2026-04-18T15:31:56.788Z</time></trkpt><trkpt lat="42.3709838" lon="13.5164532"><ele>1062.0</ele><time>2026-04-18T15:31:57.789Z</time></trkpt><trkpt lat="42.3709257" lon="13.5163828"><ele>1062.0</ele><time>2026-04-18T15:31:58.789Z</time></trkpt><trkpt lat="42.37086" lon="13.5163156"><ele>1062.0</ele><time>2026-04-18T15:31:59.788Z</time></trkpt><trkpt lat="42.3708018" lon="13.5162514"><ele>1062.0</ele><time>2026-04-18T15:32:00.789Z</time></trkpt><trkpt lat="42.3707453" lon="13.5161888"><ele>1062.0</ele><time>2026-04-18T15:32:01.789Z</time></trkpt><trkpt lat="42.3706973" lon="13.5161153"><ele>1062.0</ele><time>2026-04-18T15:32:02.787Z</time></trkpt><trkpt lat="42.3706549" lon="13.5160354"><ele>1062.0</ele><time>2026-04-18T15:32:03.789Z</time></trkpt><trkpt lat="42.3706085" lon="13.5159473"><ele>1062.0</ele><time>2026-04-18T15:32:04.79Z</time></trkpt><trkpt lat="42.3705643" lon="13.5158636"><ele>1062.0</ele><time>2026-04-18T15:32:05.789Z</time></trkpt><trkpt lat="42.3705268" lon="13.5157906"><ele>1062.0</ele><time>2026-04-18T15:32:06.789Z</time></trkpt><trkpt lat="42.3704586" lon="13.5156688"><ele>1062.0</ele><time>2026-04-18T15:32:08.788Z</time></trkpt><trkpt lat="42.370403" lon="13.5155294"><ele>1062.0</ele><time>2026-04-18T15:32:10.79Z</time></trkpt><trkpt lat="42.3703875" lon="13.5154398"><ele>1062.0</ele><time>2026-04-18T15:32:11.789Z</time></trkpt><trkpt lat="42.3703803" lon="13.5153417"><ele>1062.0</ele><time>2026-04-18T15:32:12.789Z</time></trkpt><trkpt lat="42.3703772" lon="13.515236"><ele>1062.0</ele><time>2026-04-18T15:32:13.788Z</time></trkpt><trkpt lat="42.3703796" lon="13.5151324"><ele>1062.0</ele><time>2026-04-18T15:32:14.792Z</time></trkpt><trkpt lat="42.3703929" lon="13.5150209"><ele>1062.0</ele><time>2026-04-18T15:32:15.788Z</time></trkpt><trkpt lat="42.3704145" lon="13.514896"><ele>1061.8</ele><time>2026-04-18T15:32:16.79Z</time></trkpt><trkpt lat="42.3704401" lon="13.5147685"><ele>1061.6</ele><time>2026-04-18T15:32:17.788Z</time></trkpt><trkpt lat="42.370461" lon="13.5146391"><ele>1061.3999999999999</ele><time>2026-04-18T15:32:18.789Z</time></trkpt><trkpt lat="42.370484" lon="13.5145069"><ele>1061.2</ele><time>2026-04-18T15:32:19.79Z</time></trkpt><trkpt lat="42.3705106" lon="13.5143734"><ele>1061.0</ele><time>2026-04-18T15:32:20.79Z</time></trkpt><trkpt lat="42.3705499" lon="13.5142555"><ele>1062.3333333333335</ele><time>2026-04-18T15:32:21.79Z</time></trkpt><trkpt lat="42.3705972" lon="13.5141447"><ele>1063.6666666666667</ele><time>2026-04-18T15:32:22.789Z</time></trkpt><trkpt lat="42.370632" lon="13.5140346"><ele>1065.0</ele><time>2026-04-18T15:32:23.79Z</time></trkpt><trkpt lat="42.3706595" lon="13.5139349"><ele>1066.3333333333333</ele><time>2026-04-18T15:32:24.789Z</time></trkpt><trkpt lat="42.3706837" lon="13.5138201"><ele>1067.6666666666665</ele><time>2026-04-18T15:32:25.79Z</time></trkpt><trkpt lat="42.3707096" lon="13.5137245"><ele>1069.0</ele><time>2026-04-18T15:32:26.788Z</time></trkpt><trkpt lat="42.370728" lon="13.5136177"><ele>1069.4</ele><time>2026-04-18T15:32:27.788Z</time></trkpt><trkpt lat="42.3707479" lon="13.513506"><ele>1069.8000000000002</ele><time>2026-04-18T15:32:28.789Z</time></trkpt><trkpt lat="42.3707619" lon="13.5134043"><ele>1070.1999999999998</ele><time>2026-04-18T15:32:29.79Z</time></trkpt><trkpt lat="42.3707558" lon="13.5132194"><ele>1070.6</ele><time>2026-04-18T15:32:31.789Z</time></trkpt><trkpt lat="42.3707431" lon="13.5131172"><ele>1071.0</ele><time>2026-04-18T15:32:32.789Z</time></trkpt><trkpt lat="42.370731" lon="13.5130007"><ele>1070.8333333333333</ele><time>2026-04-18T15:32:33.788Z</time></trkpt><trkpt lat="42.370722" lon="13.5128942"><ele>1070.6666666666667</ele><time>2026-04-18T15:32:34.79Z</time></trkpt><trkpt lat="42.3707169" lon="13.5127826"><ele>1070.5</ele><time>2026-04-18T15:32:35.789Z</time></trkpt><trkpt lat="42.3707145" lon="13.5126616"><ele>1070.3333333333335</ele><time>2026-04-18T15:32:36.79Z</time></trkpt><trkpt lat="42.3707102" lon="13.5125602"><ele>1070.1666666666667</ele><time>2026-04-18T15:32:37.789Z</time></trkpt><trkpt lat="42.3707041" lon="13.5124514"><ele>1070.0</ele><time>2026-04-18T15:32:38.79Z</time></trkpt><trkpt lat="42.3707018" lon="13.5123388"><ele>1070.0</ele><time>2026-04-18T15:32:39.789Z</time></trkpt><trkpt lat="42.3706985" lon="13.5122196"><ele>1070.0</ele><time>2026-04-18T15:32:40.789Z</time></trkpt><trkpt lat="42.3707002" lon="13.5121133"><ele>1070.0</ele><time>2026-04-18T15:32:41.789Z</time></trkpt><trkpt lat="42.3707016" lon="13.51201"><ele>1070.0</ele><time>2026-04-18T15:32:42.79Z</time></trkpt><trkpt lat="42.3707043" lon="13.5119067"><ele>1070.0</ele><time>2026-04-18T15:32:43.789Z</time></trkpt><trkpt lat="42.3707043" lon="13.5118097"><ele>1070.0</ele><time>2026-04-18T15:32:44.79Z</time></trkpt><trkpt lat="42.3706955" lon="13.5117105"><ele>1069.8</ele><time>2026-04-18T15:32:45.79Z</time></trkpt><trkpt lat="42.3706412" lon="13.5115844"><ele>1069.6</ele><time>2026-04-18T15:32:47.789Z</time></trkpt><trkpt lat="42.3706188" lon="13.5114583"><ele>1069.4</ele><time>2026-04-18T15:32:49.788Z</time></trkpt><trkpt lat="42.3705918" lon="13.5113614"><ele>1069.2</ele><time>2026-04-18T15:32:51.79Z</time></trkpt><trkpt lat="42.3705594" lon="13.5112565"><ele>1069.0</ele><time>2026-04-18T15:32:53.789Z</time></trkpt><trkpt lat="42.3705476" lon="13.5111238"><ele>1068.6000000000001</ele><time>2026-04-18T15:32:55.789Z</time></trkpt><trkpt lat="42.3705348" lon="13.5109708"><ele>1068.2</ele><time>2026-04-18T15:32:57.79Z</time></trkpt><trkpt lat="42.3705259" lon="13.5108852"><ele>1067.8000000000002</ele><time>2026-04-18T15:32:58.789Z</time></trkpt><trkpt lat="42.3705099" lon="13.5107404"><ele>1067.4</ele><time>2026-04-18T15:33:00.789Z</time></trkpt><trkpt lat="42.370513" lon="13.5106044"><ele>1067.0</ele><time>2026-04-18T15:33:02.789Z</time></trkpt><trkpt lat="42.3705115" lon="13.5104574"><ele>1065.9999999999998</ele><time>2026-04-18T15:33:04.79Z</time></trkpt><trkpt lat="42.3705188" lon="13.5103695"><ele>1065.0</ele><time>2026-04-18T15:33:05.789Z</time></trkpt><trkpt lat="42.3705322" lon="13.5102799"><ele>1064.0</ele><time>2026-04-18T15:33:06.788Z</time></trkpt><trkpt lat="42.370541" lon="13.5101828"><ele>1063.0</ele><time>2026-04-18T15:33:07.789Z</time></trkpt><trkpt lat="42.3705459" lon="13.5100865"><ele>1062.0</ele><time>2026-04-18T15:33:08.788Z</time></trkpt><trkpt lat="42.370556" lon="13.5099799"><ele>1060.9999999999998</ele><time>2026-04-18T15:33:09.789Z</time></trkpt><trkpt lat="42.370576" lon="13.5098764"><ele>1060.0</ele><time>2026-04-18T15:33:10.788Z</time></trkpt><trkpt lat="42.3705919" lon="13.5097781"><ele>1060.0</ele><time>2026-04-18T15:33:11.789Z</time></trkpt><trkpt lat="42.3706303" lon="13.5096041"><ele>1060.0</ele><time>2026-04-18T15:33:13.789Z</time></trkpt><trkpt lat="42.370653" lon="13.5095061"><ele>1060.0</ele><time>2026-04-18T15:33:14.789Z</time></trkpt><trkpt lat="42.3706667" lon="13.5094109"><ele>1060.0</ele><time>2026-04-18T15:33:15.789Z</time></trkpt><trkpt lat="42.3706834" lon="13.5093076"><ele>1060.0</ele><time>2026-04-18T15:33:16.789Z</time></trkpt><trkpt lat="42.370698" lon="13.509196"><ele>1060.0</ele><time>2026-04-18T15:33:17.789Z</time></trkpt><trkpt lat="42.3707243" lon="13.5090807"><ele>1058.8333333333333</ele><time>2026-04-18T15:33:18.789Z</time></trkpt><trkpt lat="42.3707439" lon="13.5089762"><ele>1057.6666666666665</ele><time>2026-04-18T15:33:19.788Z</time></trkpt><trkpt lat="42.3707503" lon="13.5088519"><ele>1056.5</ele><time>2026-04-18T15:33:20.79Z</time></trkpt><trkpt lat="42.3707469" lon="13.5087249"><ele>1055.3333333333333</ele><time>2026-04-18T15:33:21.789Z</time></trkpt><trkpt lat="42.3707555" lon="13.5086002"><ele>1054.1666666666667</ele><time>2026-04-18T15:33:22.788Z</time></trkpt><trkpt lat="42.370764" lon="13.5084787"><ele>1053.0</ele><time>2026-04-18T15:33:23.789Z</time></trkpt><trkpt lat="42.3707776" lon="13.508358"><ele>1052.6</ele><time>2026-04-18T15:33:24.789Z</time></trkpt><trkpt lat="42.3708033" lon="13.5082389"><ele>1052.1999999999998</ele><time>2026-04-18T15:33:25.789Z</time></trkpt><trkpt lat="42.3708331" lon="13.5081247"><ele>1051.8</ele><time>2026-04-18T15:33:26.789Z</time></trkpt><trkpt lat="42.3708682" lon="13.5080241"><ele>1051.3999999999999</ele><time>2026-04-18T15:33:27.789Z</time></trkpt><trkpt lat="42.370915" lon="13.5079081"><ele>1051.0</ele><time>2026-04-18T15:33:28.789Z</time></trkpt><trkpt lat="42.3709645" lon="13.5077946"><ele>1049.8</ele><time>2026-04-18T15:33:29.789Z</time></trkpt><trkpt lat="42.3710115" lon="13.5076807"><ele>1048.6</ele><time>2026-04-18T15:33:30.79Z</time></trkpt><trkpt lat="42.3710542" lon="13.507577"><ele>1047.4</ele><time>2026-04-18T15:33:31.789Z</time></trkpt><trkpt lat="42.3710982" lon="13.5074848"><ele>1046.2</ele><time>2026-04-18T15:33:32.789Z</time></trkpt><trkpt lat="42.3711298" lon="13.507405"><ele>1045.0</ele><time>2026-04-18T15:33:33.788Z</time></trkpt><trkpt lat="42.3711343" lon="13.5072397"><ele>1045.0</ele><time>2026-04-18T15:33:35.79Z</time></trkpt><trkpt lat="42.3710893" lon="13.5071508"><ele>1045.0</ele><time>2026-04-18T15:33:36.788Z</time></trkpt><trkpt lat="42.3710448" lon="13.5070543"><ele>1045.0</ele><time>2026-04-18T15:33:37.789Z</time></trkpt><trkpt lat="42.371008" lon="13.5069544"><ele>1045.0</ele><time>2026-04-18T15:33:38.789Z</time></trkpt><trkpt lat="42.3709751" lon="13.5068544"><ele>1045.0</ele><time>2026-04-18T15:33:39.788Z</time></trkpt><trkpt lat="42.3709449" lon="13.5067623"><ele>1045.0</ele><time>2026-04-18T15:33:40.789Z</time></trkpt><trkpt lat="42.3709163" lon="13.5066818"><ele>1044.2</ele><time>2026-04-18T15:33:41.789Z</time></trkpt><trkpt lat="42.370899" lon="13.5065305"><ele>1043.4</ele><time>2026-04-18T15:33:43.789Z</time></trkpt><trkpt lat="42.3709229" lon="13.5064489"><ele>1042.6</ele><time>2026-04-18T15:33:44.79Z</time></trkpt><trkpt lat="42.3709555" lon="13.506295"><ele>1041.8</ele><time>2026-04-18T15:33:46.79Z</time></trkpt><trkpt lat="42.3709672" lon="13.5061688"><ele>1041.0</ele><time>2026-04-18T15:33:48.788Z</time></trkpt><trkpt lat="42.3709581" lon="13.5060494"><ele>1040.3333333333333</ele><time>2026-04-18T15:33:50.788Z</time></trkpt><trkpt lat="42.3709452" lon="13.5059599"><ele>1039.6666666666667</ele><time>2026-04-18T15:33:53.79Z</time></trkpt><trkpt lat="42.3709295" lon="13.5058548"><ele>1039.0</ele><time>2026-04-18T15:34:09.79Z</time></trkpt><trkpt lat="42.3709055" lon="13.5057523"><ele>1038.3333333333335</ele><time>2026-04-18T15:34:11.788Z</time></trkpt><trkpt lat="42.3708794" lon="13.5056704"><ele>1037.6666666666667</ele><time>2026-04-18T15:34:13.789Z</time></trkpt><trkpt lat="42.3708056" lon="13.5055899"><ele>1037.0</ele><time>2026-04-18T15:34:15.789Z</time></trkpt><trkpt lat="42.3707038" lon="13.5055316"><ele>1037.0</ele><time>2026-04-18T15:34:17.79Z</time></trkpt><trkpt lat="42.3706077" lon="13.5054924"><ele>1037.0</ele><time>2026-04-18T15:34:19.788Z</time></trkpt><trkpt lat="42.3705211" lon="13.505451"><ele>1037.0</ele><time>2026-04-18T15:34:21.789Z</time></trkpt><trkpt lat="42.3704661" lon="13.5053812"><ele>1037.0</ele><time>2026-04-18T15:34:23.789Z</time></trkpt><trkpt lat="42.3704018" lon="13.5052948"><ele>1037.0</ele><time>2026-04-18T15:34:25.788Z</time></trkpt><trkpt lat="42.3703289" lon="13.5052104"><ele>1034.0</ele><time>2026-04-18T15:34:27.788Z</time></trkpt><trkpt lat="42.3702374" lon="13.5051526"><ele>1031.0</ele><time>2026-04-18T15:34:29.789Z</time></trkpt><trkpt lat="42.3701647" lon="13.50511"><ele>1028.0</ele><time>2026-04-18T15:34:31.79Z</time></trkpt><trkpt lat="42.3700661" lon="13.505049"><ele>1025.0</ele><time>2026-04-18T15:34:34.788Z</time></trkpt><trkpt lat="42.3699789" lon="13.5050136"><ele>1022.0</ele><time>2026-04-18T15:34:36.789Z</time></trkpt><trkpt lat="42.3698918" lon="13.5049924"><ele>1022.0000000000001</ele><time>2026-04-18T15:34:38.788Z</time></trkpt><trkpt lat="42.3698133" lon="13.5049557"><ele>1022.0</ele><time>2026-04-18T15:34:40.788Z</time></trkpt><trkpt lat="42.3697343" lon="13.5049365"><ele>1022.0</ele><time>2026-04-18T15:34:42.789Z</time></trkpt><trkpt lat="42.3696602" lon="13.5049705"><ele>1022.0</ele><time>2026-04-18T15:34:44.788Z</time></trkpt><trkpt lat="42.3695857" lon="13.5050195"><ele>1022.0000000000001</ele><time>2026-04-18T15:34:46.789Z</time></trkpt><trkpt lat="42.3695232" lon="13.5050887"><ele>1022.0</ele><time>2026-04-18T15:34:48.789Z</time></trkpt><trkpt lat="42.369452" lon="13.5051432"><ele>1022.0</ele><time>2026-04-18T15:34:50.789Z</time></trkpt><trkpt lat="42.3693998" lon="13.5052077"><ele>1022.0</ele><time>2026-04-18T15:34:54.788Z</time></trkpt><trkpt lat="42.3694765" lon="13.5051442"><ele>1022.0</ele><time>2026-04-18T15:35:04.789Z</time></trkpt><trkpt lat="42.3695575" lon="13.5050613"><ele>1022.0</ele><time>2026-04-18T15:35:06.789Z</time></trkpt><trkpt lat="42.3696501" lon="13.5049893"><ele>1022.0</ele><time>2026-04-18T15:35:08.789Z</time></trkpt><trkpt lat="42.3697335" lon="13.5049317"><ele>1022.0</ele><time>2026-04-18T15:35:10.789Z</time></trkpt><trkpt lat="42.3698185" lon="13.504958"><ele>1022.0</ele><time>2026-04-18T15:35:13.789Z</time></trkpt><trkpt lat="42.369906" lon="13.5049849"><ele>1022.0</ele><time>2026-04-18T15:35:15.788Z</time></trkpt><trkpt lat="42.3699963" lon="13.5049939"><ele>1022.0</ele><time>2026-04-18T15:35:17.789Z</time></trkpt><trkpt lat="42.37009" lon="13.5050464"><ele>1022.0</ele><time>2026-04-18T15:35:19.789Z</time></trkpt><trkpt lat="42.3701735" lon="13.5050973"><ele>1022.0</ele><time>2026-04-18T15:35:21.788Z</time></trkpt><trkpt lat="42.3702639" lon="13.5051449"><ele>1022.0</ele><time>2026-04-18T15:35:23.789Z</time></trkpt><trkpt lat="42.3703426" lon="13.5052017"><ele>1022.0</ele><time>2026-04-18T15:35:25.787Z</time></trkpt><trkpt lat="42.3704093" lon="13.5052969"><ele>1022.0</ele><time>2026-04-18T15:35:27.788Z</time></trkpt><trkpt lat="42.3704862" lon="13.5053956"><ele>1022.0</ele><time>2026-04-18T15:35:29.789Z</time></trkpt><trkpt lat="42.3705793" lon="13.5054759"><ele>1025.75</ele><time>2026-04-18T15:35:31.789Z</time></trkpt><trkpt lat="42.370698" lon="13.5055159"><ele>1029.5</ele><time>2026-04-18T15:35:33.789Z</time></trkpt><trkpt lat="42.3708072" lon="13.5055784"><ele>1033.25</ele><time>2026-04-18T15:35:35.788Z</time></trkpt><trkpt lat="42.3708802" lon="13.5056848"><ele>1037.0</ele><time>2026-04-18T15:35:37.789Z</time></trkpt><trkpt lat="42.3709137" lon="13.5058294"><ele>1037.0</ele><time>2026-04-18T15:35:39.789Z</time></trkpt><trkpt lat="42.3709322" lon="13.5059886"><ele>1037.0</ele><time>2026-04-18T15:35:41.789Z</time></trkpt><trkpt lat="42.3709374" lon="13.5060761"><ele>1037.0</ele><time>2026-04-18T15:35:42.788Z</time></trkpt><trkpt lat="42.3709358" lon="13.5061616"><ele>1037.0</ele><time>2026-04-18T15:35:43.789Z</time></trkpt><trkpt lat="42.3709342" lon="13.5062571"><ele>1037.0</ele><time>2026-04-18T15:35:44.788Z</time></trkpt><trkpt lat="42.3709275" lon="13.5063489"><ele>1037.0</ele><time>2026-04-18T15:35:45.789Z</time></trkpt><trkpt lat="42.370907" lon="13.5064435"><ele>1037.8</ele><time>2026-04-18T15:35:46.788Z</time></trkpt><trkpt lat="42.370871" lon="13.506594"><ele>1038.6</ele><time>2026-04-18T15:35:48.788Z</time></trkpt><trkpt lat="42.3708893" lon="13.5067536"><ele>1039.3999999999999</ele><time>2026-04-18T15:35:50.789Z</time></trkpt><trkpt lat="42.370915" lon="13.5068414"><ele>1040.2</ele><time>2026-04-18T15:35:51.789Z</time></trkpt><trkpt lat="42.3709468" lon="13.5069463"><ele>1041.0</ele><time>2026-04-18T15:35:52.789Z</time></trkpt><trkpt lat="42.3709798" lon="13.5070496"><ele>1041.5714285714287</ele><time>2026-04-18T15:35:53.788Z</time></trkpt><trkpt lat="42.3710229" lon="13.5071434"><ele>1042.1428571428573</ele><time>2026-04-18T15:35:54.788Z</time></trkpt><trkpt lat="42.3710631" lon="13.5072321"><ele>1042.7142857142858</ele><time>2026-04-18T15:35:55.789Z</time></trkpt><trkpt lat="42.3710833" lon="13.507318"><ele>1043.2857142857142</ele><time>2026-04-18T15:35:56.788Z</time></trkpt><trkpt lat="42.3710794" lon="13.5074049"><ele>1043.8571428571427</ele><time>2026-04-18T15:35:57.789Z</time></trkpt><trkpt lat="42.37105" lon="13.5074909"><ele>1044.4285714285713</ele><time>2026-04-18T15:35:58.788Z</time></trkpt><trkpt lat="42.3710098" lon="13.507578"><ele>1045.0</ele><time>2026-04-18T15:35:59.789Z</time></trkpt><trkpt lat="42.3709728" lon="13.5076779"><ele>1045.0</ele><time>2026-04-18T15:36:00.788Z</time></trkpt><trkpt lat="42.37093" lon="13.5077792"><ele>1045.0</ele><time>2026-04-18T15:36:01.789Z</time></trkpt><trkpt lat="42.3708837" lon="13.5078879"><ele>1045.0</ele><time>2026-04-18T15:36:02.789Z</time></trkpt><trkpt lat="42.3708402" lon="13.5079788"><ele>1045.0</ele><time>2026-04-18T15:36:03.788Z</time></trkpt><trkpt lat="42.3708084" lon="13.508067"><ele>1045.0</ele><time>2026-04-18T15:36:04.789Z</time></trkpt><trkpt lat="42.3707773" lon="13.5081608"><ele>1045.0</ele><time>2026-04-18T15:36:05.788Z</time></trkpt><trkpt lat="42.3707491" lon="13.5082589"><ele>1046.0</ele><time>2026-04-18T15:36:06.789Z</time></trkpt><trkpt lat="42.3707321" lon="13.5083585"><ele>1047.0</ele><time>2026-04-18T15:36:07.789Z</time></trkpt><trkpt lat="42.370723" lon="13.5084573"><ele>1048.0</ele><time>2026-04-18T15:36:08.788Z</time></trkpt><trkpt lat="42.3707139" lon="13.5085537"><ele>1049.0</ele><time>2026-04-18T15:36:09.789Z</time></trkpt><trkpt lat="42.3707045" lon="13.5086609"><ele>1050.0</ele><time>2026-04-18T15:36:10.788Z</time></trkpt><trkpt lat="42.3707048" lon="13.5087728"><ele>1051.0</ele><time>2026-04-18T15:36:11.789Z</time></trkpt><trkpt lat="42.3707099" lon="13.508884"><ele>1051.3333333333333</ele><time>2026-04-18T15:36:12.789Z</time></trkpt><trkpt lat="42.3707007" lon="13.5089828"><ele>1051.6666666666665</ele><time>2026-04-18T15:36:13.789Z</time></trkpt><trkpt lat="42.3706763" lon="13.5090883"><ele>1052.0</ele><time>2026-04-18T15:36:14.789Z</time></trkpt><trkpt lat="42.3706564" lon="13.5091923"><ele>1052.3333333333333</ele><time>2026-04-18T15:36:15.788Z</time></trkpt><trkpt lat="42.3706374" lon="13.5092899"><ele>1052.6666666666667</ele><time>2026-04-18T15:36:16.788Z</time></trkpt><trkpt lat="42.3706231" lon="13.5093895"><ele>1053.0</ele><time>2026-04-18T15:36:17.789Z</time></trkpt><trkpt lat="42.3706091" lon="13.5094847"><ele>1053.9999999999998</ele><time>2026-04-18T15:36:18.789Z</time></trkpt><trkpt lat="42.3705925" lon="13.5095772"><ele>1055.0</ele><time>2026-04-18T15:36:19.789Z</time></trkpt><trkpt lat="42.3705747" lon="13.5096648"><ele>1056.0</ele><time>2026-04-18T15:36:20.789Z</time></trkpt><trkpt lat="42.3705511" lon="13.5097617"><ele>1057.0</ele><time>2026-04-18T15:36:21.789Z</time></trkpt><trkpt lat="42.3705355" lon="13.5098568"><ele>1058.0</ele><time>2026-04-18T15:36:22.789Z</time></trkpt><trkpt lat="42.3705195" lon="13.5099538"><ele>1058.9999999999998</ele><time>2026-04-18T15:36:23.789Z</time></trkpt><trkpt lat="42.37051" lon="13.5100491"><ele>1060.0</ele><time>2026-04-18T15:36:24.789Z</time></trkpt><trkpt lat="42.3705022" lon="13.5101535"><ele>1058.7142857142856</ele><time>2026-04-18T15:36:25.789Z</time></trkpt><trkpt lat="42.3704953" lon="13.5102504"><ele>1057.4285714285713</ele><time>2026-04-18T15:36:26.788Z</time></trkpt><trkpt lat="42.3704826" lon="13.5103534"><ele>1056.142857142857</ele><time>2026-04-18T15:36:27.789Z</time></trkpt><trkpt lat="42.3704708" lon="13.5104507"><ele>1054.8571428571427</ele><time>2026-04-18T15:36:28.788Z</time></trkpt><trkpt lat="42.3704657" lon="13.5105467"><ele>1053.5714285714284</ele><time>2026-04-18T15:36:29.789Z</time></trkpt><trkpt lat="42.3704665" lon="13.5106416"><ele>1052.2857142857142</ele><time>2026-04-18T15:36:30.789Z</time></trkpt><trkpt lat="42.3704653" lon="13.5107302"><ele>1051.0</ele><time>2026-04-18T15:36:31.789Z</time></trkpt><trkpt lat="42.3704667" lon="13.510818"><ele>1051.0</ele><time>2026-04-18T15:36:32.788Z</time></trkpt><trkpt lat="42.3704831" lon="13.5109051"><ele>1051.0</ele><time>2026-04-18T15:36:33.789Z</time></trkpt><trkpt lat="42.3704974" lon="13.5110033"><ele>1051.0</ele><time>2026-04-18T15:36:34.789Z</time></trkpt><trkpt lat="42.3705079" lon="13.511098"><ele>1051.0</ele><time>2026-04-18T15:36:35.789Z</time></trkpt><trkpt lat="42.3705162" lon="13.5111913"><ele>1051.0</ele><time>2026-04-18T15:36:36.789Z</time></trkpt><trkpt lat="42.3705447" lon="13.5113435"><ele>1051.0</ele><time>2026-04-18T15:36:38.788Z</time></trkpt><trkpt lat="42.370577" lon="13.5114352"><ele>1054.0</ele><time>2026-04-18T15:36:40.789Z</time></trkpt><trkpt lat="42.3706464" lon="13.5114262"><ele>1057.0</ele><time>2026-04-18T15:36:44.789Z</time></trkpt><trkpt lat="42.3707101" lon="13.5113893"><ele>1060.0</ele><time>2026-04-18T15:36:46.789Z</time></trkpt><trkpt lat="42.3707767" lon="13.5113869"><ele>1063.0</ele><time>2026-04-18T15:36:48.789Z</time></trkpt><trkpt lat="42.3708529" lon="13.5114561"><ele>1066.0</ele><time>2026-04-18T15:36:50.788Z</time></trkpt><trkpt lat="42.3709625" lon="13.5115087"><ele>1069.0</ele><time>2026-04-18T15:36:52.788Z</time></trkpt><trkpt lat="42.3710273" lon="13.5115434"><ele>1069.0</ele><time>2026-04-18T15:36:53.788Z</time></trkpt><trkpt lat="42.3710922" lon="13.5115831"><ele>1069.0</ele><time>2026-04-18T15:36:54.788Z</time></trkpt><trkpt lat="42.3711544" lon="13.5116174"><ele>1069.0</ele><time>2026-04-18T15:36:55.789Z</time></trkpt><trkpt lat="42.3712327" lon="13.5117134"><ele>1069.0</ele><time>2026-04-18T15:36:57.789Z</time></trkpt><trkpt lat="42.3712636" lon="13.5118312"><ele>1069.0</ele><time>2026-04-18T15:36:59.788Z</time></trkpt><trkpt lat="42.3713194" lon="13.5118984"><ele>1069.0</ele><time>2026-04-18T15:37:01.789Z</time></trkpt><trkpt lat="42.3713851" lon="13.5118618"><ele>1069.3333333333333</ele><time>2026-04-18T15:37:03.789Z</time></trkpt><trkpt lat="42.3714435" lon="13.511729"><ele>1069.6666666666665</ele><time>2026-04-18T15:37:05.789Z</time></trkpt><trkpt lat="42.3714643" lon="13.5116411"><ele>1070.0</ele><time>2026-04-18T15:37:06.789Z</time></trkpt><trkpt lat="42.3714846" lon="13.5115362"><ele>1070.3333333333333</ele><time>2026-04-18T15:37:07.789Z</time></trkpt><trkpt lat="42.3715102" lon="13.5114272"><ele>1070.6666666666667</ele><time>2026-04-18T15:37:08.789Z</time></trkpt><trkpt lat="42.3715375" lon="13.5113282"><ele>1071.0</ele><time>2026-04-18T15:37:09.789Z</time></trkpt><trkpt lat="42.3715528" lon="13.511243"><ele>1070.7142857142858</ele><time>2026-04-18T15:37:10.789Z</time></trkpt><trkpt lat="42.3715536" lon="13.5111517"><ele>1070.4285714285716</ele><time>2026-04-18T15:37:11.788Z</time></trkpt><trkpt lat="42.3715609" lon="13.5110593"><ele>1070.142857142857</ele><time>2026-04-18T15:37:12.787Z</time></trkpt><trkpt lat="42.3715766" lon="13.510966"><ele>1069.857142857143</ele><time>2026-04-18T15:37:13.787Z</time></trkpt><trkpt lat="42.3716067" lon="13.5108607"><ele>1069.5714285714287</ele><time>2026-04-18T15:37:14.788Z</time></trkpt><trkpt lat="42.3716283" lon="13.510766"><ele>1069.2857142857142</ele><time>2026-04-18T15:37:15.789Z</time></trkpt><trkpt lat="42.3716414" lon="13.51067"><ele>1069.0</ele><time>2026-04-18T15:37:16.788Z</time></trkpt><trkpt lat="42.3716391" lon="13.5105693"><ele>1069.0</ele><time>2026-04-18T15:37:17.789Z</time></trkpt><trkpt lat="42.3716316" lon="13.5104735"><ele>1069.0</ele><time>2026-04-18T15:37:18.788Z</time></trkpt><trkpt lat="42.3716273" lon="13.5103765"><ele>1069.0</ele><time>2026-04-18T15:37:19.788Z</time></trkpt><trkpt lat="42.3716597" lon="13.5102169"><ele>1069.0</ele><time>2026-04-18T15:37:21.789Z</time></trkpt><trkpt lat="42.3717161" lon="13.5101403"><ele>1069.0</ele><time>2026-04-18T15:37:22.788Z</time></trkpt><trkpt lat="42.3718049" lon="13.5100443"><ele>1068.0</ele><time>2026-04-18T15:37:23.788Z</time></trkpt><trkpt lat="42.3719029" lon="13.5099346"><ele>1067.0</ele><time>2026-04-18T15:37:24.788Z</time></trkpt><trkpt lat="42.3719984" lon="13.5098216"><ele>1066.0</ele><time>2026-04-18T15:37:25.788Z</time></trkpt><trkpt lat="42.3720847" lon="13.5096997"><ele>1065.0</ele><time>2026-04-18T15:37:26.788Z</time></trkpt><trkpt lat="42.3721712" lon="13.5096"><ele>1064.6</ele><time>2026-04-18T15:37:27.789Z</time></trkpt><trkpt lat="42.3722562" lon="13.5095121"><ele>1064.2</ele><time>2026-04-18T15:37:28.789Z</time></trkpt><trkpt lat="42.372335" lon="13.5094409"><ele>1063.8</ele><time>2026-04-18T15:37:29.789Z</time></trkpt><trkpt lat="42.372398" lon="13.509368"><ele>1063.4</ele><time>2026-04-18T15:37:30.789Z</time></trkpt><trkpt lat="42.372451" lon="13.5092319"><ele>1063.0</ele><time>2026-04-18T15:37:32.788Z</time></trkpt><trkpt lat="42.3724257" lon="13.5090604"><ele>1063.0</ele><time>2026-04-18T15:37:34.789Z</time></trkpt><trkpt lat="42.3723873" lon="13.5089574"><ele>1063.0</ele><time>2026-04-18T15:37:35.789Z</time></trkpt><trkpt lat="42.3723541" lon="13.5088467"><ele>1063.0</ele><time>2026-04-18T15:37:36.789Z</time></trkpt><trkpt lat="42.372315" lon="13.5087269"><ele>1063.0</ele><time>2026-04-18T15:37:37.789Z</time></trkpt><trkpt lat="42.3722573" lon="13.5086031"><ele>1063.0</ele><time>2026-04-18T15:37:38.788Z</time></trkpt><trkpt lat="42.3721937" lon="13.508478"><ele>1062.0</ele><time>2026-04-18T15:37:39.788Z</time></trkpt><trkpt lat="42.3721262" lon="13.5083637"><ele>1061.0</ele><time>2026-04-18T15:37:40.788Z</time></trkpt><trkpt lat="42.3720761" lon="13.5082516"><ele>1060.0</ele><time>2026-04-18T15:37:41.788Z</time></trkpt><trkpt lat="42.3720475" lon="13.5081289"><ele>1059.0</ele><time>2026-04-18T15:37:42.787Z</time></trkpt><trkpt lat="42.3720233" lon="13.5080147"><ele>1058.0</ele><time>2026-04-18T15:37:43.788Z</time></trkpt><trkpt lat="42.3719949" lon="13.5079198"><ele>1057.4</ele><time>2026-04-18T15:37:44.789Z</time></trkpt><trkpt lat="42.3719615" lon="13.5078453"><ele>1056.8</ele><time>2026-04-18T15:37:45.788Z</time></trkpt><trkpt lat="42.3719195" lon="13.5077077"><ele>1056.2</ele><time>2026-04-18T15:37:47.788Z</time></trkpt><trkpt lat="42.37192" lon="13.5075603"><ele>1055.6</ele><time>2026-04-18T15:37:49.789Z</time></trkpt><trkpt lat="42.3718606" lon="13.5074234"><ele>1055.0</ele><time>2026-04-18T15:37:51.788Z</time></trkpt><trkpt lat="42.3718465" lon="13.5073324"><ele>1055.0</ele><time>2026-04-18T15:37:52.788Z</time></trkpt><trkpt lat="42.3718454" lon="13.5072348"><ele>1055.0</ele><time>2026-04-18T15:37:53.788Z</time></trkpt><trkpt lat="42.3718496" lon="13.50712"><ele>1055.0</ele><time>2026-04-18T15:37:54.788Z</time></trkpt><trkpt lat="42.3718555" lon="13.5070002"><ele>1055.0</ele><time>2026-04-18T15:37:55.789Z</time></trkpt><trkpt lat="42.371861" lon="13.5068651"><ele>1055.0</ele><time>2026-04-18T15:37:56.788Z</time></trkpt><trkpt lat="42.371858" lon="13.5067319"><ele>1055.0</ele><time>2026-04-18T15:37:57.789Z</time></trkpt><trkpt lat="42.3718504" lon="13.5065846"><ele>1054.6</ele><time>2026-04-18T15:37:58.789Z</time></trkpt><trkpt lat="42.3718424" lon="13.5064407"><ele>1054.2</ele><time>2026-04-18T15:37:59.789Z</time></trkpt><trkpt lat="42.3718357" lon="13.5063212"><ele>1053.8</ele><time>2026-04-18T15:38:00.789Z</time></trkpt><trkpt lat="42.3718323" lon="13.506225"><ele>1053.4</ele><time>2026-04-18T15:38:01.789Z</time></trkpt><trkpt lat="42.3717888" lon="13.5060635"><ele>1053.0</ele><time>2026-04-18T15:38:03.789Z</time></trkpt><trkpt lat="42.3717598" lon="13.5059824"><ele>1052.4</ele><time>2026-04-18T15:38:04.788Z</time></trkpt><trkpt lat="42.3717257" lon="13.5058402"><ele>1051.8</ele><time>2026-04-18T15:38:06.788Z</time></trkpt><trkpt lat="42.3717619" lon="13.5056527"><ele>1051.2</ele><time>2026-04-18T15:38:08.789Z</time></trkpt><trkpt lat="42.3717926" lon="13.5055516"><ele>1050.6</ele><time>2026-04-18T15:38:09.788Z</time></trkpt><trkpt lat="42.3718198" lon="13.5054586"><ele>1050.0</ele><time>2026-04-18T15:38:10.788Z</time></trkpt><trkpt lat="42.3718402" lon="13.5053534"><ele>1049.0</ele><time>2026-04-18T15:38:11.789Z</time></trkpt><trkpt lat="42.3718678" lon="13.505258"><ele>1048.0</ele><time>2026-04-18T15:38:12.788Z</time></trkpt><trkpt lat="42.3719056" lon="13.5051822"><ele>1047.0</ele><time>2026-04-18T15:38:13.787Z</time></trkpt><trkpt lat="42.3719407" lon="13.5051001"><ele>1046.0</ele><time>2026-04-18T15:38:14.789Z</time></trkpt><trkpt lat="42.371961" lon="13.5050171"><ele>1045.0</ele><time>2026-04-18T15:38:15.788Z</time></trkpt><trkpt lat="42.3719746" lon="13.5049038"><ele>1044.0</ele><time>2026-04-18T15:38:16.787Z</time></trkpt><trkpt lat="42.3719826" lon="13.5047734"><ele>1044.0</ele><time>2026-04-18T15:38:17.789Z</time></trkpt><trkpt lat="42.3719956" lon="13.5046287"><ele>1044.0</ele><time>2026-04-18T15:38:18.789Z</time></trkpt><trkpt lat="42.3720076" lon="13.5044881"><ele>1044.0</ele><time>2026-04-18T15:38:19.788Z</time></trkpt><trkpt lat="42.3720197" lon="13.5043482"><ele>1044.0</ele><time>2026-04-18T15:38:20.788Z</time></trkpt><trkpt lat="42.3720285" lon="13.5042157"><ele>1044.0</ele><time>2026-04-18T15:38:21.789Z</time></trkpt><trkpt lat="42.372038" lon="13.5040886"><ele>1042.6666666666667</ele><time>2026-04-18T15:38:22.788Z</time></trkpt><trkpt lat="42.3720448" lon="13.5039871"><ele>1041.3333333333333</ele><time>2026-04-18T15:38:23.787Z</time></trkpt><trkpt lat="42.3720736" lon="13.5038856"><ele>1040.0</ele><time>2026-04-18T15:38:24.788Z</time></trkpt><trkpt lat="42.3721066" lon="13.5037705"><ele>1038.6666666666665</ele><time>2026-04-18T15:38:25.788Z</time></trkpt><trkpt lat="42.3721408" lon="13.5036595"><ele>1037.3333333333333</ele><time>2026-04-18T15:38:26.789Z</time></trkpt><trkpt lat="42.3721729" lon="13.5035645"><ele>1036.0</ele><time>2026-04-18T15:38:27.789Z</time></trkpt><trkpt lat="42.3722048" lon="13.5034827"><ele>1034.6</ele><time>2026-04-18T15:38:28.788Z</time></trkpt><trkpt lat="42.3722684" lon="13.5033526"><ele>1033.1999999999998</ele><time>2026-04-18T15:38:30.789Z</time></trkpt><trkpt lat="42.3723176" lon="13.5032464"><ele>1031.8000000000002</ele><time>2026-04-18T15:38:32.788Z</time></trkpt><trkpt lat="42.3723808" lon="13.5032029"><ele>1030.4</ele><time>2026-04-18T15:38:36.788Z</time></trkpt><trkpt lat="42.3724973" lon="13.503191"><ele>1029.0</ele><time>2026-04-18T15:38:38.788Z</time></trkpt><trkpt lat="42.3725694" lon="13.5031902"><ele>1029.0</ele><time>2026-04-18T15:38:39.788Z</time></trkpt><trkpt lat="42.372634" lon="13.503184"><ele>1029.0</ele><time>2026-04-18T15:38:40.788Z</time></trkpt><trkpt lat="42.3727524" lon="13.5031684"><ele>1029.0</ele><time>2026-04-18T15:38:42.788Z</time></trkpt><trkpt lat="42.3728714" lon="13.5031706"><ele>1029.0</ele><time>2026-04-18T15:38:44.788Z</time></trkpt><trkpt lat="42.3729833" lon="13.5032074"><ele>1029.0</ele><time>2026-04-18T15:38:46.788Z</time></trkpt><trkpt lat="42.3730991" lon="13.503298"><ele>1027.6000000000001</ele><time>2026-04-18T15:38:48.788Z</time></trkpt><trkpt lat="42.3731861" lon="13.5033655"><ele>1026.2</ele><time>2026-04-18T15:38:49.789Z</time></trkpt><trkpt lat="42.3732809" lon="13.5034302"><ele>1024.8000000000002</ele><time>2026-04-18T15:38:50.789Z</time></trkpt><trkpt lat="42.3733766" lon="13.5035106"><ele>1023.4000000000001</ele><time>2026-04-18T15:38:51.788Z</time></trkpt><trkpt lat="42.373468" lon="13.503596"><ele>1022.0</ele><time>2026-04-18T15:38:52.789Z</time></trkpt><trkpt lat="42.3735371" lon="13.5036735"><ele>1022.0000000000001</ele><time>2026-04-18T15:38:53.788Z</time></trkpt><trkpt lat="42.3735987" lon="13.5037449"><ele>1022.0</ele><time>2026-04-18T15:38:54.788Z</time></trkpt><trkpt lat="42.373668" lon="13.5038147"><ele>1022.0</ele><time>2026-04-18T15:38:56.788Z</time></trkpt><trkpt lat="42.3737235" lon="13.5037743"><ele>1022.0</ele><time>2026-04-18T15:38:59.789Z</time></trkpt><trkpt lat="42.3737324" lon="13.5036893"><ele>1022.0000000000001</ele><time>2026-04-18T15:39:00.789Z</time></trkpt><trkpt lat="42.373736" lon="13.5035731"><ele>1022.0</ele><time>2026-04-18T15:39:01.788Z</time></trkpt><trkpt lat="42.3737453" lon="13.5034538"><ele>1022.0000000000001</ele><time>2026-04-18T15:39:02.788Z</time></trkpt><trkpt lat="42.3737477" lon="13.5033189"><ele>1022.0</ele><time>2026-04-18T15:39:03.789Z</time></trkpt><trkpt lat="42.3737457" lon="13.5031909"><ele>1022.0</ele><time>2026-04-18T15:39:04.788Z</time></trkpt><trkpt lat="42.3737517" lon="13.503073"><ele>1022.0</ele><time>2026-04-18T15:39:05.788Z</time></trkpt><trkpt lat="42.3737642" lon="13.502968"><ele>1022.0000000000001</ele><time>2026-04-18T15:39:06.788Z</time></trkpt><trkpt lat="42.3737812" lon="13.5028629"><ele>1022.0</ele><time>2026-04-18T15:39:07.789Z</time></trkpt><trkpt lat="42.3738116" lon="13.5027571"><ele>1021.6</ele><time>2026-04-18T15:39:08.788Z</time></trkpt><trkpt lat="42.3738414" lon="13.5026519"><ele>1021.2</ele><time>2026-04-18T15:39:09.788Z</time></trkpt><trkpt lat="42.3738696" lon="13.5025421"><ele>1020.8</ele><time>2026-04-18T15:39:10.788Z</time></trkpt><trkpt lat="42.3739043" lon="13.5024129"><ele>1020.4</ele><time>2026-04-18T15:39:11.789Z</time></trkpt><trkpt lat="42.3739441" lon="13.5022712"><ele>1020.0</ele><time>2026-04-18T15:39:12.788Z</time></trkpt><trkpt lat="42.3739954" lon="13.5021166"><ele>1017.75</ele><time>2026-04-18T15:39:13.788Z</time></trkpt><trkpt lat="42.3740466" lon="13.5019607"><ele>1015.5</ele><time>2026-04-18T15:39:14.788Z</time></trkpt><trkpt lat="42.3740985" lon="13.5018164"><ele>1013.25</ele><time>2026-04-18T15:39:15.788Z</time></trkpt><trkpt lat="42.3741516" lon="13.5016816"><ele>1011.0</ele><time>2026-04-18T15:39:16.789Z</time></trkpt><trkpt lat="42.3742079" lon="13.5015424"><ele>1011.0</ele><time>2026-04-18T15:39:17.789Z</time></trkpt><trkpt lat="42.3742596" lon="13.5014022"><ele>1010.9999999999999</ele><time>2026-04-18T15:39:18.788Z</time></trkpt><trkpt lat="42.3743039" lon="13.5012609"><ele>1010.9999999999999</ele><time>2026-04-18T15:39:19.787Z</time></trkpt><trkpt lat="42.3743416" lon="13.5011333"><ele>1011.0</ele><time>2026-04-18T15:39:20.788Z</time></trkpt><trkpt lat="42.3743667" lon="13.501018"><ele>1011.0</ele><time>2026-04-18T15:39:21.788Z</time></trkpt><trkpt lat="42.3743933" lon="13.5009122"><ele>1010.4</ele><time>2026-04-18T15:39:22.788Z</time></trkpt><trkpt lat="42.3744416" lon="13.5008172"><ele>1009.8</ele><time>2026-04-18T15:39:23.788Z</time></trkpt><trkpt lat="42.3744977" lon="13.5007159"><ele>1009.1999999999999</ele><time>2026-04-18T15:39:24.789Z</time></trkpt><trkpt lat="42.3745482" lon="13.5005983"><ele>1008.5999999999999</ele><time>2026-04-18T15:39:25.788Z</time></trkpt><trkpt lat="42.3746035" lon="13.5004614"><ele>1008.0</ele><time>2026-04-18T15:39:26.789Z</time></trkpt><trkpt lat="42.3746526" lon="13.5003091"><ele>1007.8</ele><time>2026-04-18T15:39:27.789Z</time></trkpt><trkpt lat="42.3746838" lon="13.5001549"><ele>1007.5999999999999</ele><time>2026-04-18T15:39:28.788Z</time></trkpt><trkpt lat="42.3747104" lon="13.5000131"><ele>1007.4000000000001</ele><time>2026-04-18T15:39:29.789Z</time></trkpt><trkpt lat="42.3747328" lon="13.4998681"><ele>1007.2</ele><time>2026-04-18T15:39:30.789Z</time></trkpt><trkpt lat="42.3747645" lon="13.4997358"><ele>1007.0</ele><time>2026-04-18T15:39:31.788Z</time></trkpt><trkpt lat="42.3747975" lon="13.4996245"><ele>1007.2</ele><time>2026-04-18T15:39:32.788Z</time></trkpt><trkpt lat="42.3748148" lon="13.4995243"><ele>1007.4000000000001</ele><time>2026-04-18T15:39:33.789Z</time></trkpt><trkpt lat="42.3748076" lon="13.4994075"><ele>1007.5999999999999</ele><time>2026-04-18T15:39:34.788Z</time></trkpt><trkpt lat="42.3748032" lon="13.4992741"><ele>1007.8</ele><time>2026-04-18T15:39:35.788Z</time></trkpt><trkpt lat="42.3748015" lon="13.4991236"><ele>1008.0</ele><time>2026-04-18T15:39:36.789Z</time></trkpt><trkpt lat="42.3747944" lon="13.4989905"><ele>1008.0</ele><time>2026-04-18T15:39:37.788Z</time></trkpt><trkpt lat="42.3747691" lon="13.4988666"><ele>1008.0</ele><time>2026-04-18T15:39:38.789Z</time></trkpt><trkpt lat="42.3747482" lon="13.4987487"><ele>1008.0</ele><time>2026-04-18T15:39:39.789Z</time></trkpt><trkpt lat="42.374736" lon="13.4986352"><ele>1008.0</ele><time>2026-04-18T15:39:40.787Z</time></trkpt><trkpt lat="42.3747458" lon="13.498529"><ele>1008.0</ele><time>2026-04-18T15:39:41.788Z</time></trkpt><trkpt lat="42.3747677" lon="13.4984307"><ele>1008.0</ele><time>2026-04-18T15:39:42.788Z</time></trkpt><trkpt lat="42.3747823" lon="13.4983415"><ele>1007.0</ele><time>2026-04-18T15:39:43.789Z</time></trkpt><trkpt lat="42.3747701" lon="13.4981979"><ele>1006.0</ele><time>2026-04-18T15:39:45.791Z</time></trkpt><trkpt lat="42.3746757" lon="13.4980886"><ele>1005.0</ele><time>2026-04-18T15:39:47.788Z</time></trkpt><trkpt lat="42.3746084" lon="13.4980483"><ele>1004.0</ele><time>2026-04-18T15:39:48.788Z</time></trkpt><trkpt lat="42.3745105" lon="13.4979643"><ele>1003.0</ele><time>2026-04-18T15:39:50.788Z</time></trkpt><trkpt lat="42.3744548" lon="13.4978517"><ele>1001.4</ele><time>2026-04-18T15:39:52.789Z</time></trkpt><trkpt lat="42.3744005" lon="13.497719"><ele>999.8</ele><time>2026-04-18T15:39:54.787Z</time></trkpt><trkpt lat="42.3743705" lon="13.4976425"><ele>998.2</ele><time>2026-04-18T15:39:55.789Z</time></trkpt><trkpt lat="42.3742686" lon="13.4976039"><ele>996.6</ele><time>2026-04-18T15:39:57.788Z</time></trkpt><trkpt lat="42.3741736" lon="13.4975048"><ele>995.0</ele><time>2026-04-18T15:39:59.788Z</time></trkpt><trkpt lat="42.3741232" lon="13.4974524"><ele>995.0</ele><time>2026-04-18T15:40:00.788Z</time></trkpt><trkpt lat="42.374056" lon="13.4974348"><ele>995.0</ele><time>2026-04-18T15:40:01.789Z</time></trkpt><trkpt lat="42.3739712" lon="13.4973255"><ele>995.0</ele><time>2026-04-18T15:40:03.789Z</time></trkpt><trkpt lat="42.3739021" lon="13.4971966"><ele>995.0</ele><time>2026-04-18T15:40:05.788Z</time></trkpt><trkpt lat="42.3738413" lon="13.4970693"><ele>995.0</ele><time>2026-04-18T15:40:07.788Z</time></trkpt><trkpt lat="42.3737947" lon="13.4970094"><ele>993.5000000000001</ele><time>2026-04-18T15:40:08.788Z</time></trkpt><trkpt lat="42.3737434" lon="13.4969408"><ele>992.0</ele><time>2026-04-18T15:40:09.789Z</time></trkpt><trkpt lat="42.3736805" lon="13.4968832"><ele>990.5</ele><time>2026-04-18T15:40:10.788Z</time></trkpt><trkpt lat="42.3736194" lon="13.4968293"><ele>989.0</ele><time>2026-04-18T15:40:11.789Z</time></trkpt><trkpt lat="42.3735517" lon="13.4967799"><ele>987.5000000000001</ele><time>2026-04-18T15:40:12.788Z</time></trkpt><trkpt lat="42.3734805" lon="13.4967317"><ele>986.0</ele><time>2026-04-18T15:40:13.788Z</time></trkpt><trkpt lat="42.3734015" lon="13.4966824"><ele>986.0000000000001</ele><time>2026-04-18T15:40:14.788Z</time></trkpt><trkpt lat="42.3733378" lon="13.496641"><ele>986.0</ele><time>2026-04-18T15:40:15.787Z</time></trkpt><trkpt lat="42.3732769" lon="13.4966135"><ele>986.0</ele><time>2026-04-18T15:40:16.787Z</time></trkpt><trkpt lat="42.3731765" lon="13.4965457"><ele>986.0</ele><time>2026-04-18T15:40:18.788Z</time></trkpt><trkpt lat="42.373093" lon="13.4964224"><ele>986.0000000000001</ele><time>2026-04-18T15:40:20.788Z</time></trkpt><trkpt lat="42.3730368" lon="13.4963502"><ele>986.0</ele><time>2026-04-18T15:40:21.788Z</time></trkpt><trkpt lat="42.3729915" lon="13.4962776"><ele>985.0</ele><time>2026-04-18T15:40:22.789Z</time></trkpt><trkpt lat="42.3729472" lon="13.4962026"><ele>984.0</ele><time>2026-04-18T15:40:23.788Z</time></trkpt><trkpt lat="42.3728946" lon="13.4961155"><ele>983.0</ele><time>2026-04-18T15:40:24.788Z</time></trkpt><trkpt lat="42.3728463" lon="13.496034"><ele>982.0</ele><time>2026-04-18T15:40:25.788Z</time></trkpt><trkpt lat="42.3728026" lon="13.4959669"><ele>981.0</ele><time>2026-04-18T15:40:26.787Z</time></trkpt><trkpt lat="42.3727554" lon="13.4958917"><ele>980.0</ele><time>2026-04-18T15:40:27.789Z</time></trkpt><trkpt lat="42.3727053" lon="13.4958262"><ele>979.0</ele><time>2026-04-18T15:40:28.788Z</time></trkpt><trkpt lat="42.372599" lon="13.4957258"><ele>979.0</ele><time>2026-04-18T15:40:30.788Z</time></trkpt><trkpt lat="42.372493" lon="13.4956641"><ele>979.0000000000001</ele><time>2026-04-18T15:40:32.789Z</time></trkpt><trkpt lat="42.3724172" lon="13.4955407"><ele>979.0000000000001</ele><time>2026-04-18T15:40:34.787Z</time></trkpt><trkpt lat="42.3723956" lon="13.4954577"><ele>979.0</ele><time>2026-04-18T15:40:35.788Z</time></trkpt><trkpt lat="42.3723733" lon="13.4953773"><ele>979.0</ele><time>2026-04-18T15:40:36.788Z</time></trkpt><trkpt lat="42.3723048" lon="13.4952502"><ele>977.9999999999999</ele><time>2026-04-18T15:40:38.788Z</time></trkpt><trkpt lat="42.3722499" lon="13.4951906"><ele>977.0</ele><time>2026-04-18T15:40:39.789Z</time></trkpt><trkpt lat="42.3722053" lon="13.4951125"><ele>976.0</ele><time>2026-04-18T15:40:40.787Z</time></trkpt><trkpt lat="42.3721673" lon="13.4950378"><ele>975.0</ele><time>2026-04-18T15:40:41.787Z</time></trkpt><trkpt lat="42.3721406" lon="13.4949509"><ele>973.9999999999999</ele><time>2026-04-18T15:40:42.788Z</time></trkpt><trkpt lat="42.3721344" lon="13.49483"><ele>973.0</ele><time>2026-04-18T15:40:43.789Z</time></trkpt><trkpt lat="42.3721484" lon="13.4947199"><ele>972.8333333333333</ele><time>2026-04-18T15:40:44.787Z</time></trkpt><trkpt lat="42.3721734" lon="13.4946084"><ele>972.6666666666666</ele><time>2026-04-18T15:40:45.788Z</time></trkpt><trkpt lat="42.3722042" lon="13.4944974"><ele>972.5</ele><time>2026-04-18T15:40:46.788Z</time></trkpt><trkpt lat="42.3722442" lon="13.4943919"><ele>972.3333333333333</ele><time>2026-04-18T15:40:47.789Z</time></trkpt><trkpt lat="42.3722779" lon="13.4942778"><ele>972.1666666666666</ele><time>2026-04-18T15:40:48.788Z</time></trkpt><trkpt lat="42.3723146" lon="13.4941612"><ele>972.0</ele><time>2026-04-18T15:40:49.787Z</time></trkpt><trkpt lat="42.3723586" lon="13.4940422"><ele>972.0</ele><time>2026-04-18T15:40:50.789Z</time></trkpt><trkpt lat="42.372396" lon="13.4939143"><ele>972.0</ele><time>2026-04-18T15:40:51.788Z</time></trkpt><trkpt lat="42.3724362" lon="13.4937859"><ele>972.0</ele><time>2026-04-18T15:40:52.789Z</time></trkpt><trkpt lat="42.3724756" lon="13.4936546"><ele>972.0</ele><time>2026-04-18T15:40:53.788Z</time></trkpt><trkpt lat="42.3725056" lon="13.4935294"><ele>972.0</ele><time>2026-04-18T15:40:54.788Z</time></trkpt><trkpt lat="42.3725347" lon="13.4934122"><ele>972.0</ele><time>2026-04-18T15:40:55.789Z</time></trkpt><trkpt lat="42.3725559" lon="13.4932989"><ele>972.0</ele><time>2026-04-18T15:40:56.789Z</time></trkpt><trkpt lat="42.3725585" lon="13.4931787"><ele>972.0</ele><time>2026-04-18T15:40:57.789Z</time></trkpt><trkpt lat="42.3725405" lon="13.4930687"><ele>972.0</ele><time>2026-04-18T15:40:58.788Z</time></trkpt><trkpt lat="42.3725103" lon="13.4929503"><ele>972.0</ele><time>2026-04-18T15:40:59.788Z</time></trkpt><trkpt lat="42.3724761" lon="13.4928616"><ele>972.0</ele><time>2026-04-18T15:41:00.787Z</time></trkpt><trkpt lat="42.3724583" lon="13.4927524"><ele>972.5</ele><time>2026-04-18T15:41:01.789Z</time></trkpt><trkpt lat="42.3724549" lon="13.4926333"><ele>973.0</ele><time>2026-04-18T15:41:02.788Z</time></trkpt><trkpt lat="42.3724512" lon="13.4925216"><ele>973.5</ele><time>2026-04-18T15:41:03.789Z</time></trkpt><trkpt lat="42.3724393" lon="13.4924227"><ele>974.0</ele><time>2026-04-18T15:41:04.788Z</time></trkpt><trkpt lat="42.3724314" lon="13.4923304"><ele>974.5</ele><time>2026-04-18T15:41:05.789Z</time></trkpt><trkpt lat="42.3724226" lon="13.4922374"><ele>975.0</ele><time>2026-04-18T15:41:06.788Z</time></trkpt><trkpt lat="42.3724348" lon="13.4921374"><ele>974.6666666666666</ele><time>2026-04-18T15:41:07.788Z</time></trkpt><trkpt lat="42.3724586" lon="13.4920193"><ele>974.3333333333333</ele><time>2026-04-18T15:41:08.787Z</time></trkpt><trkpt lat="42.372487" lon="13.491903"><ele>974.0</ele><time>2026-04-18T15:41:09.787Z</time></trkpt><trkpt lat="42.3725062" lon="13.491792"><ele>973.6666666666666</ele><time>2026-04-18T15:41:10.788Z</time></trkpt><trkpt lat="42.3725214" lon="13.4917044"><ele>973.3333333333333</ele><time>2026-04-18T15:41:11.788Z</time></trkpt><trkpt lat="42.3725362" lon="13.4916033"><ele>973.0</ele><time>2026-04-18T15:41:12.788Z</time></trkpt><trkpt lat="42.3725741" lon="13.4915169"><ele>972.9999999999999</ele><time>2026-04-18T15:41:13.787Z</time></trkpt><trkpt lat="42.3725983" lon="13.4914235"><ele>973.0</ele><time>2026-04-18T15:41:14.789Z</time></trkpt><trkpt lat="42.3725926" lon="13.4913266"><ele>973.0</ele><time>2026-04-18T15:41:15.789Z</time></trkpt><trkpt lat="42.3725736" lon="13.4912185"><ele>973.0</ele><time>2026-04-18T15:41:16.787Z</time></trkpt><trkpt lat="42.372563" lon="13.4910914"><ele>972.9999999999999</ele><time>2026-04-18T15:41:17.787Z</time></trkpt><trkpt lat="42.3725744" lon="13.4909608"><ele>973.0</ele><time>2026-04-18T15:41:18.789Z</time></trkpt><trkpt lat="42.372572" lon="13.4908372"><ele>972.4</ele><time>2026-04-18T15:41:19.788Z</time></trkpt><trkpt lat="42.3725514" lon="13.4907107"><ele>971.8</ele><time>2026-04-18T15:41:20.793Z</time></trkpt><trkpt lat="42.3725081" lon="13.4905822"><ele>971.2</ele><time>2026-04-18T15:41:21.789Z</time></trkpt><trkpt lat="42.3724422" lon="13.4904457"><ele>970.6</ele><time>2026-04-18T15:41:22.793Z</time></trkpt><trkpt lat="42.3723674" lon="13.4903245"><ele>970.0</ele><time>2026-04-18T15:41:23.787Z</time></trkpt><trkpt lat="42.3722993" lon="13.4902117"><ele>969.6</ele><time>2026-04-18T15:41:24.787Z</time></trkpt><trkpt lat="42.3722311" lon="13.4901058"><ele>969.2</ele><time>2026-04-18T15:41:25.788Z</time></trkpt><trkpt lat="42.3721634" lon="13.490027"><ele>968.8</ele><time>2026-04-18T15:41:26.788Z</time></trkpt><trkpt lat="42.3720996" lon="13.4899571"><ele>968.4</ele><time>2026-04-18T15:41:27.787Z</time></trkpt><trkpt lat="42.3720238" lon="13.4898951"><ele>968.0</ele><time>2026-04-18T15:41:28.788Z</time></trkpt><trkpt lat="42.3719405" lon="13.4898578"><ele>967.8</ele><time>2026-04-18T15:41:29.787Z</time></trkpt><trkpt lat="42.3718748" lon="13.4898475"><ele>967.5999999999999</ele><time>2026-04-18T15:41:30.788Z</time></trkpt><trkpt lat="42.3717797" lon="13.4898536"><ele>967.4000000000001</ele><time>2026-04-18T15:41:32.788Z</time></trkpt><trkpt lat="42.3716955" lon="13.4898857"><ele>967.2</ele><time>2026-04-18T15:41:34.788Z</time></trkpt><trkpt lat="42.3715711" lon="13.4898871"><ele>967.0</ele><time>2026-04-18T15:41:36.788Z</time></trkpt><trkpt lat="42.3714944" lon="13.4898657"><ele>967.0</ele><time>2026-04-18T15:41:37.789Z</time></trkpt><trkpt lat="42.3714026" lon="13.4898508"><ele>967.0</ele><time>2026-04-18T15:41:38.788Z</time></trkpt><trkpt lat="42.3713136" lon="13.489828"><ele>967.0</ele><time>2026-04-18T15:41:39.789Z</time></trkpt><trkpt lat="42.3712203" lon="13.4898096"><ele>967.0</ele><time>2026-04-18T15:41:40.787Z</time></trkpt><trkpt lat="42.3711329" lon="13.4898032"><ele>967.0</ele><time>2026-04-18T15:41:41.787Z</time></trkpt><trkpt lat="42.3710449" lon="13.4897687"><ele>968.2</ele><time>2026-04-18T15:41:42.788Z</time></trkpt><trkpt lat="42.3709602" lon="13.4897407"><ele>969.4000000000001</ele><time>2026-04-18T15:41:43.788Z</time></trkpt><trkpt lat="42.3708864" lon="13.4897034"><ele>970.5999999999999</ele><time>2026-04-18T15:41:44.788Z</time></trkpt><trkpt lat="42.3707705" lon="13.4896839"><ele>971.8</ele><time>2026-04-18T15:41:46.787Z</time></trkpt><trkpt lat="42.3706702" lon="13.4896895"><ele>973.0</ele><time>2026-04-18T15:41:48.789Z</time></trkpt><trkpt lat="42.3705458" lon="13.489656"><ele>972.9999999999999</ele><time>2026-04-18T15:41:50.788Z</time></trkpt><trkpt lat="42.3704702" lon="13.4896098"><ele>973.0</ele><time>2026-04-18T15:41:51.788Z</time></trkpt><trkpt lat="42.3703966" lon="13.4895802"><ele>973.0</ele><time>2026-04-18T15:41:52.789Z</time></trkpt><trkpt lat="42.3703276" lon="13.4895427"><ele>973.0</ele><time>2026-04-18T15:41:53.789Z</time></trkpt><trkpt lat="42.370267" lon="13.4895148"><ele>972.9999999999999</ele><time>2026-04-18T15:41:54.788Z</time></trkpt><trkpt lat="42.3702065" lon="13.4894733"><ele>973.0</ele><time>2026-04-18T15:41:55.787Z</time></trkpt><trkpt lat="42.3701301" lon="13.489421"><ele>972.6666666666666</ele><time>2026-04-18T15:41:56.789Z</time></trkpt><trkpt lat="42.3700502" lon="13.4893774"><ele>972.3333333333333</ele><time>2026-04-18T15:41:57.788Z</time></trkpt><trkpt lat="42.369981" lon="13.4893275"><ele>972.0</ele><time>2026-04-18T15:41:58.787Z</time></trkpt><trkpt lat="42.369916" lon="13.4892804"><ele>971.6666666666667</ele><time>2026-04-18T15:41:59.787Z</time></trkpt><trkpt lat="42.3698573" lon="13.4892317"><ele>971.3333333333334</ele><time>2026-04-18T15:42:00.787Z</time></trkpt><trkpt lat="42.3697406" lon="13.4891345"><ele>971.0</ele><time>2026-04-18T15:42:02.789Z</time></trkpt><trkpt lat="42.3696824" lon="13.4890864"><ele>971.0</ele><time>2026-04-18T15:42:03.787Z</time></trkpt><trkpt lat="42.3696037" lon="13.4890161"><ele>970.9999999999999</ele><time>2026-04-18T15:42:04.789Z</time></trkpt><trkpt lat="42.3695181" lon="13.4889366"><ele>970.9999999999999</ele><time>2026-04-18T15:42:05.788Z</time></trkpt><trkpt lat="42.3694162" lon="13.4888542"><ele>971.0</ele><time>2026-04-18T15:42:06.788Z</time></trkpt><trkpt lat="42.369317" lon="13.4887824"><ele>971.0</ele><time>2026-04-18T15:42:07.789Z</time></trkpt><trkpt lat="42.3692364" lon="13.4887181"><ele>971.0</ele><time>2026-04-18T15:42:08.788Z</time></trkpt><trkpt lat="42.369157" lon="13.4886528"><ele>970.9999999999999</ele><time>2026-04-18T15:42:09.789Z</time></trkpt><trkpt lat="42.369074" lon="13.4885854"><ele>970.9999999999999</ele><time>2026-04-18T15:42:10.788Z</time></trkpt><trkpt lat="42.3689873" lon="13.4885223"><ele>971.0</ele><time>2026-04-18T15:42:11.787Z</time></trkpt><trkpt lat="42.3689071" lon="13.4884519"><ele>971.0</ele><time>2026-04-18T15:42:12.788Z</time></trkpt><trkpt lat="42.3688358" lon="13.4883843"><ele>969.8333333333334</ele><time>2026-04-18T15:42:13.788Z</time></trkpt><trkpt lat="42.3687615" lon="13.4883353"><ele>968.6666666666667</ele><time>2026-04-18T15:42:14.788Z</time></trkpt><trkpt lat="42.3686755" lon="13.4883016"><ele>967.5</ele><time>2026-04-18T15:42:15.788Z</time></trkpt><trkpt lat="42.3685891" lon="13.4882625"><ele>966.3333333333333</ele><time>2026-04-18T15:42:16.788Z</time></trkpt><trkpt lat="42.3685106" lon="13.4882444"><ele>965.1666666666666</ele><time>2026-04-18T15:42:17.788Z</time></trkpt><trkpt lat="42.3684313" lon="13.4882199"><ele>964.0</ele><time>2026-04-18T15:42:18.789Z</time></trkpt><trkpt lat="42.3683521" lon="13.488198"><ele>963.9999999999999</ele><time>2026-04-18T15:42:19.789Z</time></trkpt><trkpt lat="42.3682746" lon="13.4881781"><ele>964.0</ele><time>2026-04-18T15:42:20.789Z</time></trkpt><trkpt lat="42.3682081" lon="13.488161"><ele>964.0</ele><time>2026-04-18T15:42:21.788Z</time></trkpt><trkpt lat="42.3681045" lon="13.4881025"><ele>964.0</ele><time>2026-04-18T15:42:23.789Z</time></trkpt><trkpt lat="42.3680204" lon="13.4879798"><ele>963.9999999999999</ele><time>2026-04-18T15:42:25.788Z</time></trkpt><trkpt lat="42.3680004" lon="13.4878954"><ele>964.0</ele><time>2026-04-18T15:42:26.787Z</time></trkpt><trkpt lat="42.3679417" lon="13.4877702"><ele>963.0</ele><time>2026-04-18T15:42:28.789Z</time></trkpt><trkpt lat="42.3678826" lon="13.4876288"><ele>962.0000000000001</ele><time>2026-04-18T15:42:30.787Z</time></trkpt><trkpt lat="42.3677892" lon="13.4875536"><ele>961.0000000000001</ele><time>2026-04-18T15:42:32.788Z</time></trkpt><trkpt lat="42.3676644" lon="13.4875593"><ele>960.0</ele><time>2026-04-18T15:42:34.788Z</time></trkpt><trkpt lat="42.3676007" lon="13.4875668"><ele>959.0</ele><time>2026-04-18T15:42:35.788Z</time></trkpt><trkpt lat="42.3674887" lon="13.4875205"><ele>959.0</ele><time>2026-04-18T15:42:37.788Z</time></trkpt><trkpt lat="42.3673727" lon="13.4875006"><ele>959.0</ele><time>2026-04-18T15:42:39.789Z</time></trkpt><trkpt lat="42.3672472" lon="13.4875231"><ele>959.0</ele><time>2026-04-18T15:42:41.788Z</time></trkpt><trkpt lat="42.3671381" lon="13.4875545"><ele>959.0</ele><time>2026-04-18T15:42:43.787Z</time></trkpt><trkpt lat="42.3670441" lon="13.4875707"><ele>956.4000000000001</ele><time>2026-04-18T15:42:45.787Z</time></trkpt><trkpt lat="42.3669567" lon="13.4875437"><ele>953.8000000000001</ele><time>2026-04-18T15:42:47.788Z</time></trkpt><trkpt lat="42.3668883" lon="13.48747"><ele>951.1999999999999</ele><time>2026-04-18T15:42:49.787Z</time></trkpt><trkpt lat="42.366854" lon="13.4873595"><ele>948.5999999999999</ele><time>2026-04-18T15:42:51.788Z</time></trkpt><trkpt lat="42.3668404" lon="13.4872339"><ele>946.0</ele><time>2026-04-18T15:42:53.787Z</time></trkpt><trkpt lat="42.3668361" lon="13.4871113"><ele>944.8</ele><time>2026-04-18T15:42:55.788Z</time></trkpt><trkpt lat="42.3668611" lon="13.4869859"><ele>943.5999999999999</ele><time>2026-04-18T15:42:57.789Z</time></trkpt><trkpt lat="42.3668839" lon="13.4868375"><ele>942.4</ele><time>2026-04-18T15:42:59.787Z</time></trkpt><trkpt lat="42.3668539" lon="13.486707"><ele>941.2</ele><time>2026-04-18T15:43:01.787Z</time></trkpt><trkpt lat="42.3667677" lon="13.4865785"><ele>940.0</ele><time>2026-04-18T15:43:03.789Z</time></trkpt><trkpt lat="42.3666761" lon="13.4864523"><ele>940.0</ele><time>2026-04-18T15:43:05.788Z</time></trkpt><trkpt lat="42.3666286" lon="13.4863799"><ele>939.9999999999999</ele><time>2026-04-18T15:43:06.789Z</time></trkpt><trkpt lat="42.3665802" lon="13.4863148"><ele>940.0</ele><time>2026-04-18T15:43:07.789Z</time></trkpt><trkpt lat="42.3665482" lon="13.4862364"><ele>940.0</ele><time>2026-04-18T15:43:08.789Z</time></trkpt><trkpt lat="42.3665015" lon="13.4861701"><ele>939.9999999999999</ele><time>2026-04-18T15:43:09.787Z</time></trkpt><trkpt lat="42.3664408" lon="13.4860856"><ele>940.0</ele><time>2026-04-18T15:43:11.789Z</time></trkpt><trkpt lat="42.3663781" lon="13.4860168"><ele>940.0</ele><time>2026-04-18T15:43:13.789Z</time></trkpt><trkpt lat="42.366318" lon="13.4859295"><ele>934.8</ele><time>2026-04-18T15:43:16.788Z</time></trkpt><trkpt lat="42.36621" lon="13.4858789"><ele>929.6</ele><time>2026-04-18T15:43:18.789Z</time></trkpt><trkpt lat="42.3661026" lon="13.4858284"><ele>924.4000000000001</ele><time>2026-04-18T15:43:20.789Z</time></trkpt><trkpt lat="42.3660193" lon="13.4857741"><ele>919.2</ele><time>2026-04-18T15:43:22.788Z</time></trkpt><trkpt lat="42.3659575" lon="13.4857269"><ele>914.0</ele><time>2026-04-18T15:43:24.788Z</time></trkpt><trkpt lat="42.3659084" lon="13.4856729"><ele>914.0000000000001</ele><time>2026-04-18T15:43:26.788Z</time></trkpt><trkpt lat="42.3658853" lon="13.4855608"><ele>914.0</ele><time>2026-04-18T15:43:31.788Z</time></trkpt><trkpt lat="42.3658281" lon="13.4854865"><ele>914.0</ele><time>2026-04-18T15:43:33.789Z</time></trkpt><trkpt lat="42.3657677" lon="13.485404"><ele>914.0</ele><time>2026-04-18T15:43:35.789Z</time></trkpt><trkpt lat="42.3657072" lon="13.4853257"><ele>914.0000000000001</ele><time>2026-04-18T15:43:37.788Z</time></trkpt><trkpt lat="42.3656169" lon="13.4852785"><ele>914.0</ele><time>2026-04-18T15:43:39.789Z</time></trkpt><trkpt lat="42.3655413" lon="13.4852371"><ele>908.0</ele><time>2026-04-18T15:43:40.789Z</time></trkpt><trkpt lat="42.3654727" lon="13.4851691"><ele>902.0000000000001</ele><time>2026-04-18T15:43:42.789Z</time></trkpt><trkpt lat="42.3653838" lon="13.4850808"><ele>896.0000000000001</ele><time>2026-04-18T15:43:44.789Z</time></trkpt><trkpt lat="42.3653086" lon="13.4850501"><ele>890.0</ele><time>2026-04-18T15:43:47.788Z</time></trkpt><trkpt lat="42.3652476" lon="13.4849865"><ele>884.0</ele><time>2026-04-18T15:43:49.788Z</time></trkpt><trkpt lat="42.3651966" lon="13.4848624"><ele>884.0000000000001</ele><time>2026-04-18T15:43:51.789Z</time></trkpt><trkpt lat="42.3651437" lon="13.4847696"><ele>884.0</ele><time>2026-04-18T15:43:53.789Z</time></trkpt><trkpt lat="42.3650671" lon="13.484693"><ele>884.0</ele><time>2026-04-18T15:43:56.787Z</time></trkpt><trkpt lat="42.3649907" lon="13.4846855"><ele>884.0</ele><time>2026-04-18T15:43:58.789Z</time></trkpt><trkpt lat="42.3649206" lon="13.4847493"><ele>884.0000000000001</ele><time>2026-04-18T15:44:00.789Z</time></trkpt><trkpt lat="42.3648684" lon="13.4848074"><ele>884.0</ele><time>2026-04-18T15:44:01.788Z</time></trkpt><trkpt lat="42.364787" lon="13.4849192"><ele>884.0000000000001</ele><time>2026-04-18T15:44:03.789Z</time></trkpt><trkpt lat="42.3647097" lon="13.4850509"><ele>884.0</ele><time>2026-04-18T15:44:05.789Z</time></trkpt><trkpt lat="42.3646648" lon="13.4851299"><ele>884.0</ele><time>2026-04-18T15:44:06.788Z</time></trkpt><trkpt lat="42.3646233" lon="13.4852146"><ele>884.0</ele><time>2026-04-18T15:44:07.789Z</time></trkpt><trkpt lat="42.3645817" lon="13.4853039"><ele>884.0000000000001</ele><time>2026-04-18T15:44:08.789Z</time></trkpt><trkpt lat="42.3645415" lon="13.4853741"><ele>884.0</ele><time>2026-04-18T15:44:09.789Z</time></trkpt><trkpt lat="42.3644965" lon="13.4854445"><ele>882.5000000000001</ele><time>2026-04-18T15:44:10.788Z</time></trkpt><trkpt lat="42.3644316" lon="13.4855704"><ele>881.0</ele><time>2026-04-18T15:44:12.789Z</time></trkpt><trkpt lat="42.3644005" lon="13.4856494"><ele>879.5</ele><time>2026-04-18T15:44:13.788Z</time></trkpt><trkpt lat="42.3643766" lon="13.4857376"><ele>878.0</ele><time>2026-04-18T15:44:14.788Z</time></trkpt><trkpt lat="42.3643555" lon="13.4858315"><ele>876.5000000000001</ele><time>2026-04-18T15:44:15.788Z</time></trkpt><trkpt lat="42.3643326" lon="13.4859336"><ele>875.0</ele><time>2026-04-18T15:44:16.789Z</time></trkpt><trkpt lat="42.3643192" lon="13.4860356"><ele>875.0000000000001</ele><time>2026-04-18T15:44:17.789Z</time></trkpt><trkpt lat="42.3643072" lon="13.4861362"><ele>875.0</ele><time>2026-04-18T15:44:18.788Z</time></trkpt><trkpt lat="42.364271" lon="13.4862686"><ele>875.0</ele><time>2026-04-18T15:44:20.788Z</time></trkpt><trkpt lat="42.364218" lon="13.4863423"><ele>875.0</ele><time>2026-04-18T15:44:22.789Z</time></trkpt><trkpt lat="42.3641577" lon="13.486406"><ele>875.0000000000001</ele><time>2026-04-18T15:44:24.789Z</time></trkpt><trkpt lat="42.3640843" lon="13.4864482"><ele>875.0</ele><time>2026-04-18T15:44:26.789Z</time></trkpt><trkpt lat="42.364006" lon="13.4864845"><ele>877.2</ele><time>2026-04-18T15:44:28.788Z</time></trkpt><trkpt lat="42.3639454" lon="13.4865561"><ele>879.4</ele><time>2026-04-18T15:44:30.789Z</time></trkpt><trkpt lat="42.3638843" lon="13.4866451"><ele>881.5999999999999</ele><time>2026-04-18T15:44:32.789Z</time></trkpt><trkpt lat="42.3638041" lon="13.4867423"><ele>883.8</ele><time>2026-04-18T15:44:34.789Z</time></trkpt><trkpt lat="42.3637467" lon="13.4868227"><ele>886.0</ele><time>2026-04-18T15:44:36.788Z</time></trkpt><trkpt lat="42.3636927" lon="13.4869309"><ele>882.5999999999999</ele><time>2026-04-18T15:44:38.787Z</time></trkpt><trkpt lat="42.3636407" lon="13.4870491"><ele>879.1999999999999</ele><time>2026-04-18T15:44:40.788Z</time></trkpt><trkpt lat="42.3635699" lon="13.4871643"><ele>875.8000000000001</ele><time>2026-04-18T15:44:42.787Z</time></trkpt><trkpt lat="42.3635004" lon="13.4872834"><ele>872.4000000000001</ele><time>2026-04-18T15:44:44.788Z</time></trkpt><trkpt lat="42.3634255" lon="13.4873973"><ele>869.0</ele><time>2026-04-18T15:44:46.787Z</time></trkpt><trkpt lat="42.3633741" lon="13.4874574"><ele>869.0000000000001</ele><time>2026-04-18T15:44:49.788Z</time></trkpt><trkpt lat="42.3633177" lon="13.4874984"><ele>869.0</ele><time>2026-04-18T15:44:51.788Z</time></trkpt><trkpt lat="42.3632303" lon="13.4874899"><ele>869.0</ele><time>2026-04-18T15:44:54.788Z</time></trkpt><trkpt lat="42.363166" lon="13.4874845"><ele>869.0</ele><time>2026-04-18T15:44:55.787Z</time></trkpt><trkpt lat="42.3630864" lon="13.4874884"><ele>869.0000000000001</ele><time>2026-04-18T15:44:58.788Z</time></trkpt><trkpt lat="42.3630008" lon="13.4875037"><ele>869.0</ele><time>2026-04-18T15:45:00.788Z</time></trkpt><trkpt lat="42.3629048" lon="13.4875415"><ele>865.8000000000001</ele><time>2026-04-18T15:45:03.787Z</time></trkpt><trkpt lat="42.362799" lon="13.4875695"><ele>862.6000000000001</ele><time>2026-04-18T15:45:05.788Z</time></trkpt><trkpt lat="42.3627007" lon="13.4875868"><ele>859.4</ele><time>2026-04-18T15:45:07.788Z</time></trkpt><trkpt lat="42.3626017" lon="13.4876103"><ele>856.2</ele><time>2026-04-18T15:45:09.788Z</time></trkpt><trkpt lat="42.3625287" lon="13.4876166"><ele>853.0</ele><time>2026-04-18T15:45:10.788Z</time></trkpt><trkpt lat="42.3624318" lon="13.4876295"><ele>852.9999999999999</ele><time>2026-04-18T15:45:11.788Z</time></trkpt><trkpt lat="42.3623532" lon="13.4876317"><ele>853.0</ele><time>2026-04-18T15:45:12.788Z</time></trkpt><trkpt lat="42.3622724" lon="13.4876431"><ele>853.0</ele><time>2026-04-18T15:45:14.788Z</time></trkpt><trkpt lat="42.3621482" lon="13.4876612"><ele>853.0</ele><time>2026-04-18T15:45:16.788Z</time></trkpt><trkpt lat="42.3620773" lon="13.4876688"><ele>852.9999999999999</ele><time>2026-04-18T15:45:17.788Z</time></trkpt><trkpt lat="42.3620049" lon="13.4876806"><ele>853.0</ele><time>2026-04-18T15:45:18.788Z</time></trkpt><trkpt lat="42.3618926" lon="13.4876807"><ele>851.4999999999999</ele><time>2026-04-18T15:45:20.788Z</time></trkpt><trkpt lat="42.3617683" lon="13.4876626"><ele>850.0</ele><time>2026-04-18T15:45:22.788Z</time></trkpt><trkpt lat="42.3617025" lon="13.4876502"><ele>848.5</ele><time>2026-04-18T15:45:23.788Z</time></trkpt><trkpt lat="42.3616273" lon="13.4876376"><ele>847.0</ele><time>2026-04-18T15:45:24.787Z</time></trkpt><trkpt lat="42.361557" lon="13.4876289"><ele>845.4999999999999</ele><time>2026-04-18T15:45:25.788Z</time></trkpt><trkpt lat="42.3614861" lon="13.4876103"><ele>844.0</ele><time>2026-04-18T15:45:26.787Z</time></trkpt><trkpt lat="42.3614156" lon="13.4876032"><ele>841.9999999999999</ele><time>2026-04-18T15:45:27.788Z</time></trkpt><trkpt lat="42.3613474" lon="13.4876078"><ele>840.0</ele><time>2026-04-18T15:45:28.787Z</time></trkpt><trkpt lat="42.3612836" lon="13.4876217"><ele>838.0</ele><time>2026-04-18T15:45:29.788Z</time></trkpt><trkpt lat="42.3611752" lon="13.4876882"><ele>836.0</ele><time>2026-04-18T15:45:31.788Z</time></trkpt><trkpt lat="42.3610736" lon="13.4877192"><ele>833.9999999999999</ele><time>2026-04-18T15:45:33.788Z</time></trkpt><trkpt lat="42.3609862" lon="13.4876933"><ele>832.0</ele><time>2026-04-18T15:45:35.787Z</time></trkpt><trkpt lat="42.3609092" lon="13.487577"><ele>831.9999999999999</ele><time>2026-04-18T15:45:37.788Z</time></trkpt><trkpt lat="42.3608199" lon="13.4874586"><ele>832.0</ele><time>2026-04-18T15:45:39.787Z</time></trkpt><trkpt lat="42.3607692" lon="13.4873998"><ele>832.0</ele><time>2026-04-18T15:45:40.788Z</time></trkpt><trkpt lat="42.3607219" lon="13.4873415"><ele>832.0</ele><time>2026-04-18T15:45:41.788Z</time></trkpt><trkpt lat="42.3606701" lon="13.4872799"><ele>831.9999999999999</ele><time>2026-04-18T15:45:42.788Z</time></trkpt><trkpt lat="42.3606087" lon="13.4872224"><ele>832.0</ele><time>2026-04-18T15:45:43.787Z</time></trkpt><trkpt lat="42.3605463" lon="13.4871732"><ele>829.0</ele><time>2026-04-18T15:45:44.788Z</time></trkpt><trkpt lat="42.3604875" lon="13.4871198"><ele>826.0</ele><time>2026-04-18T15:45:45.788Z</time></trkpt><trkpt lat="42.3604336" lon="13.4870561"><ele>823.0</ele><time>2026-04-18T15:45:46.788Z</time></trkpt><trkpt lat="42.3603814" lon="13.4870073"><ele>820.0</ele><time>2026-04-18T15:45:47.786Z</time></trkpt><trkpt lat="42.3603338" lon="13.486942"><ele>817.0</ele><time>2026-04-18T15:45:48.788Z</time></trkpt><trkpt lat="42.3602882" lon="13.4868645"><ele>814.0</ele><time>2026-04-18T15:45:49.786Z</time></trkpt><trkpt lat="42.3602411" lon="13.4867836"><ele>811.0</ele><time>2026-04-18T15:45:50.788Z</time></trkpt><trkpt lat="42.3601693" lon="13.4866869"><ele>811.0</ele><time>2026-04-18T15:45:51.787Z</time></trkpt><trkpt lat="42.3600856" lon="13.4865817"><ele>811.0</ele><time>2026-04-18T15:45:52.787Z</time></trkpt><trkpt lat="42.3600034" lon="13.4864879"><ele>811.0</ele><time>2026-04-18T15:45:53.787Z</time></trkpt><trkpt lat="42.3599421" lon="13.4864049"><ele>811.0</ele><time>2026-04-18T15:45:54.788Z</time></trkpt><trkpt lat="42.3598952" lon="13.4863231"><ele>811.0</ele><time>2026-04-18T15:45:55.788Z</time></trkpt><trkpt lat="42.3598433" lon="13.4861647"><ele>810.3333333333333</ele><time>2026-04-18T15:45:57.788Z</time></trkpt><trkpt lat="42.3597993" lon="13.4860777"><ele>809.6666666666666</ele><time>2026-04-18T15:45:58.788Z</time></trkpt><trkpt lat="42.3597462" lon="13.4859818"><ele>809.0</ele><time>2026-04-18T15:45:59.788Z</time></trkpt><trkpt lat="42.3596988" lon="13.4858991"><ele>808.3333333333333</ele><time>2026-04-18T15:46:00.787Z</time></trkpt><trkpt lat="42.3596484" lon="13.4858334"><ele>807.6666666666666</ele><time>2026-04-18T15:46:01.787Z</time></trkpt><trkpt lat="42.3595536" lon="13.4857411"><ele>807.0</ele><time>2026-04-18T15:46:03.788Z</time></trkpt><trkpt lat="42.3594938" lon="13.4856163"><ele>804.3333333333334</ele><time>2026-04-18T15:46:05.788Z</time></trkpt><trkpt lat="42.3594713" lon="13.4855023"><ele>801.6666666666667</ele><time>2026-04-18T15:46:06.788Z</time></trkpt><trkpt lat="42.3594519" lon="13.4854034"><ele>799.0</ele><time>2026-04-18T15:46:07.787Z</time></trkpt><trkpt lat="42.359434" lon="13.485303"><ele>796.3333333333334</ele><time>2026-04-18T15:46:08.788Z</time></trkpt><trkpt lat="42.3594112" lon="13.4851983"><ele>793.6666666666667</ele><time>2026-04-18T15:46:09.788Z</time></trkpt><trkpt lat="42.3593832" lon="13.4851148"><ele>791.0</ele><time>2026-04-18T15:46:10.788Z</time></trkpt><trkpt lat="42.359358" lon="13.485036"><ele>790.6666666666667</ele><time>2026-04-18T15:46:11.787Z</time></trkpt><trkpt lat="42.3593064" lon="13.4848972"><ele>790.3333333333334</ele><time>2026-04-18T15:46:13.787Z</time></trkpt><trkpt lat="42.3592746" lon="13.4848216"><ele>790.0</ele><time>2026-04-18T15:46:14.788Z</time></trkpt><trkpt lat="42.3592331" lon="13.4847218"><ele>789.6666666666667</ele><time>2026-04-18T15:46:15.787Z</time></trkpt><trkpt lat="42.359194" lon="13.4846311"><ele>789.3333333333334</ele><time>2026-04-18T15:46:16.787Z</time></trkpt><trkpt lat="42.3591608" lon="13.4845531"><ele>789.0</ele><time>2026-04-18T15:46:17.788Z</time></trkpt><trkpt lat="42.3591216" lon="13.4844802"><ele>789.0</ele><time>2026-04-18T15:46:18.787Z</time></trkpt><trkpt lat="42.3590744" lon="13.4844103"><ele>789.0</ele><time>2026-04-18T15:46:19.787Z</time></trkpt><trkpt lat="42.3589777" lon="13.4843064"><ele>789.0</ele><time>2026-04-18T15:46:21.787Z</time></trkpt><trkpt lat="42.3589165" lon="13.4842564"><ele>789.0</ele><time>2026-04-18T15:46:22.787Z</time></trkpt><trkpt lat="42.3588572" lon="13.4842196"><ele>789.0</ele><time>2026-04-18T15:46:23.788Z</time></trkpt><trkpt lat="42.3587352" lon="13.4841699"><ele>785.8571428571428</ele><time>2026-04-18T15:46:25.787Z</time></trkpt><trkpt lat="42.35867" lon="13.4841465"><ele>782.7142857142857</ele><time>2026-04-18T15:46:26.786Z</time></trkpt><trkpt lat="42.3586027" lon="13.4841161"><ele>779.5714285714286</ele><time>2026-04-18T15:46:27.787Z</time></trkpt><trkpt lat="42.3585414" lon="13.4840948"><ele>776.4285714285713</ele><time>2026-04-18T15:46:28.788Z</time></trkpt><trkpt lat="42.3584795" lon="13.4840561"><ele>773.2857142857143</ele><time>2026-04-18T15:46:29.788Z</time></trkpt><trkpt lat="42.3584228" lon="13.4840101"><ele>770.1428571428571</ele><time>2026-04-18T15:46:30.786Z</time></trkpt><trkpt lat="42.3583621" lon="13.4839703"><ele>767.0</ele><time>2026-04-18T15:46:31.787Z</time></trkpt><trkpt lat="42.358302" lon="13.4839407"><ele>767.0</ele><time>2026-04-18T15:46:32.787Z</time></trkpt><trkpt lat="42.3581833" lon="13.4839011"><ele>767.0</ele><time>2026-04-18T15:46:34.785Z</time></trkpt><trkpt lat="42.3581173" lon="13.4838681"><ele>767.0</ele><time>2026-04-18T15:46:35.787Z</time></trkpt><trkpt lat="42.3580534" lon="13.4838388"><ele>767.0</ele><time>2026-04-18T15:46:36.788Z</time></trkpt><trkpt lat="42.3579926" lon="13.4838102"><ele>767.0</ele><time>2026-04-18T15:46:37.788Z</time></trkpt><trkpt lat="42.3579295" lon="13.4837757"><ele>767.0</ele><time>2026-04-18T15:46:38.787Z</time></trkpt><trkpt lat="42.3578217" lon="13.4837212"><ele>764.4000000000001</ele><time>2026-04-18T15:46:40.788Z</time></trkpt><trkpt lat="42.3577439" lon="13.4837153"><ele>761.8000000000001</ele><time>2026-04-18T15:46:42.788Z</time></trkpt><trkpt lat="42.3577075" lon="13.4838297"><ele>759.2</ele><time>2026-04-18T15:47:19.788Z</time></trkpt><trkpt lat="42.3577329" lon="13.4839605"><ele>756.6</ele><time>2026-04-18T15:47:21.788Z</time></trkpt><trkpt lat="42.3577588" lon="13.484125"><ele>754.0</ele><time>2026-04-18T15:47:23.788Z</time></trkpt><trkpt lat="42.3577766" lon="13.4842881"><ele>754.0</ele><time>2026-04-18T15:47:25.788Z</time></trkpt><trkpt lat="42.3577821" lon="13.4843742"><ele>754.0</ele><time>2026-04-18T15:47:26.787Z</time></trkpt><trkpt lat="42.3577823" lon="13.4845495"><ele>754.0</ele><time>2026-04-18T15:47:28.788Z</time></trkpt><trkpt lat="42.3577779" lon="13.4846448"><ele>754.0</ele><time>2026-04-18T15:47:29.787Z</time></trkpt><trkpt lat="42.357774" lon="13.4847445"><ele>754.0</ele><time>2026-04-18T15:47:30.786Z</time></trkpt><trkpt lat="42.3577597" lon="13.4848628"><ele>754.0</ele><time>2026-04-18T15:47:31.787Z</time></trkpt><trkpt lat="42.3577432" lon="13.4849763"><ele>754.6</ele><time>2026-04-18T15:47:32.786Z</time></trkpt><trkpt lat="42.3577298" lon="13.4850901"><ele>755.2</ele><time>2026-04-18T15:47:33.787Z</time></trkpt><trkpt lat="42.3577191" lon="13.4851942"><ele>755.8000000000001</ele><time>2026-04-18T15:47:34.787Z</time></trkpt><trkpt lat="42.3577124" lon="13.485286"><ele>756.4000000000001</ele><time>2026-04-18T15:47:35.787Z</time></trkpt><trkpt lat="42.3577093" lon="13.4854487"><ele>757.0</ele><time>2026-04-18T15:47:37.788Z</time></trkpt><trkpt lat="42.3576999" lon="13.4855934"><ele>757.0</ele><time>2026-04-18T15:47:39.788Z</time></trkpt><trkpt lat="42.3576944" lon="13.485738"><ele>757.0</ele><time>2026-04-18T15:47:41.787Z</time></trkpt><trkpt lat="42.35771" lon="13.4858895"><ele>757.0</ele><time>2026-04-18T15:47:43.787Z</time></trkpt><trkpt lat="42.3577311" lon="13.4859784"><ele>757.0</ele><time>2026-04-18T15:47:44.788Z</time></trkpt><trkpt lat="42.3577589" lon="13.4860614"><ele>757.0</ele><time>2026-04-18T15:47:45.788Z</time></trkpt><trkpt lat="42.3577862" lon="13.4861565"><ele>757.0</ele><time>2026-04-18T15:47:46.787Z</time></trkpt><trkpt lat="42.3578169" lon="13.486231"><ele>756.0</ele><time>2026-04-18T15:47:47.788Z</time></trkpt><trkpt lat="42.3578475" lon="13.4863085"><ele>755.0</ele><time>2026-04-18T15:47:48.786Z</time></trkpt><trkpt lat="42.3579204" lon="13.4864588"><ele>754.0</ele><time>2026-04-18T15:47:50.787Z</time></trkpt><trkpt lat="42.3579795" lon="13.4865421"><ele>753.0</ele><time>2026-04-18T15:47:51.787Z</time></trkpt><trkpt lat="42.3580455" lon="13.4866252"><ele>752.0</ele><time>2026-04-18T15:47:52.788Z</time></trkpt><trkpt lat="42.3581188" lon="13.4867166"><ele>754.2</ele><time>2026-04-18T15:47:53.788Z</time></trkpt><trkpt lat="42.3581947" lon="13.4868115"><ele>756.4000000000001</ele><time>2026-04-18T15:47:54.788Z</time></trkpt><trkpt lat="42.3582778" lon="13.486911"><ele>758.5999999999999</ele><time>2026-04-18T15:47:55.788Z</time></trkpt><trkpt lat="42.3583652" lon="13.4869953"><ele>760.8</ele><time>2026-04-18T15:47:56.787Z</time></trkpt><trkpt lat="42.3584416" lon="13.487098"><ele>763.0</ele><time>2026-04-18T15:47:57.787Z</time></trkpt><trkpt lat="42.3585142" lon="13.4871974"><ele>763.0</ele><time>2026-04-18T15:47:58.787Z</time></trkpt><trkpt lat="42.3585821" lon="13.4872775"><ele>763.0</ele><time>2026-04-18T15:47:59.787Z</time></trkpt><trkpt lat="42.3586344" lon="13.4873631"><ele>763.0</ele><time>2026-04-18T15:48:00.787Z</time></trkpt><trkpt lat="42.3586938" lon="13.4874391"><ele>763.0</ele><time>2026-04-18T15:48:01.788Z</time></trkpt><trkpt lat="42.358748" lon="13.4875181"><ele>763.0</ele><time>2026-04-18T15:48:02.788Z</time></trkpt><trkpt lat="42.3587973" lon="13.4876044"><ele>763.0</ele><time>2026-04-18T15:48:03.787Z</time></trkpt><trkpt lat="42.3588483" lon="13.4877307"><ele>766.4</ele><time>2026-04-18T15:48:04.788Z</time></trkpt><trkpt lat="42.3589003" lon="13.4878419"><ele>769.8</ele><time>2026-04-18T15:48:05.787Z</time></trkpt><trkpt lat="42.3589563" lon="13.487943"><ele>773.2</ele><time>2026-04-18T15:48:06.788Z</time></trkpt><trkpt lat="42.3590069" lon="13.4880278"><ele>776.6</ele><time>2026-04-18T15:48:07.787Z</time></trkpt><trkpt lat="42.3590746" lon="13.4881527"><ele>780.0</ele><time>2026-04-18T15:48:09.786Z</time></trkpt><trkpt lat="42.3591115" lon="13.4882341"><ele>780.0</ele><time>2026-04-18T15:48:11.787Z</time></trkpt><trkpt lat="42.3590448" lon="13.4882949"><ele>780.0</ele><time>2026-04-18T15:48:13.786Z</time></trkpt><trkpt lat="42.358934" lon="13.4883323"><ele>780.0</ele><time>2026-04-18T15:48:15.787Z</time></trkpt><trkpt lat="42.3588391" lon="13.4883454"><ele>780.0</ele><time>2026-04-18T15:48:16.788Z</time></trkpt><trkpt lat="42.3587547" lon="13.4883625"><ele>780.0</ele><time>2026-04-18T15:48:17.788Z</time></trkpt><trkpt lat="42.3586839" lon="13.488384"><ele>780.0</ele><time>2026-04-18T15:48:18.787Z</time></trkpt><trkpt lat="42.3586079" lon="13.4884023"><ele>778.8333333333334</ele><time>2026-04-18T15:48:19.787Z</time></trkpt><trkpt lat="42.3585452" lon="13.4884224"><ele>777.6666666666667</ele><time>2026-04-18T15:48:20.787Z</time></trkpt><trkpt lat="42.3584913" lon="13.4884835"><ele>776.5</ele><time>2026-04-18T15:48:21.788Z</time></trkpt><trkpt lat="42.3584299" lon="13.4885499"><ele>775.3333333333334</ele><time>2026-04-18T15:48:22.788Z</time></trkpt><trkpt lat="42.3583641" lon="13.4886164"><ele>774.1666666666667</ele><time>2026-04-18T15:48:23.788Z</time></trkpt><trkpt lat="42.3582968" lon="13.4886852"><ele>773.0</ele><time>2026-04-18T15:48:24.788Z</time></trkpt><trkpt lat="42.358233" lon="13.4887601"><ele>772.6666666666667</ele><time>2026-04-18T15:48:25.787Z</time></trkpt><trkpt lat="42.3581608" lon="13.4888344"><ele>772.3333333333334</ele><time>2026-04-18T15:48:26.788Z</time></trkpt><trkpt lat="42.3581116" lon="13.4889171"><ele>772.0</ele><time>2026-04-18T15:48:27.786Z</time></trkpt><trkpt lat="42.358049" lon="13.4889816"><ele>771.6666666666667</ele><time>2026-04-18T15:48:28.788Z</time></trkpt><trkpt lat="42.3579731" lon="13.4890389"><ele>771.3333333333334</ele><time>2026-04-18T15:48:29.786Z</time></trkpt><trkpt lat="42.3579138" lon="13.4890961"><ele>771.0</ele><time>2026-04-18T15:48:30.787Z</time></trkpt><trkpt lat="42.3578644" lon="13.489169"><ele>771.0</ele><time>2026-04-18T15:48:31.786Z</time></trkpt><trkpt lat="42.3577829" lon="13.4892707"><ele>771.0</ele><time>2026-04-18T15:48:33.787Z</time></trkpt><trkpt lat="42.3576995" lon="13.4893497"><ele>771.0</ele><time>2026-04-18T15:48:35.788Z</time></trkpt><trkpt lat="42.3576324" lon="13.4893621"><ele>771.0</ele><time>2026-04-18T15:48:37.786Z</time></trkpt><trkpt lat="42.3575648" lon="13.4893044"><ele>771.0</ele><time>2026-04-18T15:48:40.788Z</time></trkpt></trkseg></trk></gpx>